<?xml version="1.0" encoding="UTF-8" standalone="no" ?>
<gpx xmlns="http://www.topografix.com/GPX/1/1" xmlns:xsi="http://www.w3.org/2001/XMLSchema-instance" xsi:schemaLocation="http://www.topografix.com/GPX/1/1 http://www.topografix.com/GPX/1/1/gpx.xsd" version="1.1" creator="VisuGPX - https://www.visugpx.com">
  <metadata>
    <name>Parcours Trail dans la serre 28km/1000m de D </name>
    <desc><![CDATA[Un gros entraînement pour préparer ses cuisses et son mental ...
Le parcours traverse la carrière une fois au début et une fois à la fin. Le but de la sortie est de croquer de la bosse.
Départ et arrivée à Moissey place de la fontaine.]]></desc>
  </metadata>
  <trk>
    <name><![CDATA[28km 1050D+ (Validé)]]></name>
    <trkseg>
      <trkpt lat="47.19628" lon="5.5243">
        <ele>255.37</ele>
        <time>2013-04-12T06:34:40Z</time>
      </trkpt>
      <trkpt lat="47.19626" lon="5.52427">
        <ele>252.48</ele>
        <time>2013-04-12T06:34:53Z</time>
      </trkpt>
      <trkpt lat="47.19626" lon="5.52425">
        <ele>248.16</ele>
        <time>2013-04-12T06:35:03Z</time>
      </trkpt>
      <trkpt lat="47.19626" lon="5.52424">
        <ele>252.96</ele>
        <time>2013-04-12T06:35:04Z</time>
      </trkpt>
      <trkpt lat="47.19629" lon="5.52425">
        <ele>250.08</ele>
        <time>2013-04-12T06:35:14Z</time>
      </trkpt>
      <trkpt lat="47.19629" lon="5.52425">
        <ele>252.96</ele>
        <time>2013-04-12T06:35:15Z</time>
      </trkpt>
      <trkpt lat="47.19628" lon="5.52426">
        <ele>255.37</ele>
        <time>2013-04-12T06:35:22Z</time>
      </trkpt>
      <trkpt lat="47.19628" lon="5.52426">
        <ele>249.6</ele>
        <time>2013-04-12T06:35:23Z</time>
      </trkpt>
      <trkpt lat="47.19628" lon="5.52426">
        <ele>252.96</ele>
        <time>2013-04-12T06:35:26Z</time>
      </trkpt>
      <trkpt lat="47.19628" lon="5.52426">
        <ele>250.08</ele>
        <time>2013-04-12T06:35:33Z</time>
      </trkpt>
      <trkpt lat="47.19627" lon="5.52427">
        <ele>251.04</ele>
        <time>2013-04-12T06:35:46Z</time>
      </trkpt>
      <trkpt lat="47.19627" lon="5.52428">
        <ele>248.64</ele>
        <time>2013-04-12T06:36:06Z</time>
      </trkpt>
      <trkpt lat="47.19627" lon="5.52428">
        <ele>253.93</ele>
        <time>2013-04-12T06:36:07Z</time>
      </trkpt>
      <trkpt lat="47.19627" lon="5.52428">
        <ele>250.56</ele>
        <time>2013-04-12T06:36:08Z</time>
      </trkpt>
      <trkpt lat="47.19628" lon="5.52428">
        <ele>251.52</ele>
        <time>2013-04-12T06:36:16Z</time>
      </trkpt>
      <trkpt lat="47.19628" lon="5.52428">
        <ele>247.2</ele>
        <time>2013-04-12T06:36:22Z</time>
      </trkpt>
      <trkpt lat="47.19628" lon="5.52428">
        <ele>251.52</ele>
        <time>2013-04-12T06:36:24Z</time>
      </trkpt>
      <trkpt lat="47.19628" lon="5.52428">
        <ele>251.04</ele>
        <time>2013-04-12T06:36:25Z</time>
      </trkpt>
      <trkpt lat="47.19627" lon="5.52428">
        <ele>249.6</ele>
        <time>2013-04-12T06:36:34Z</time>
      </trkpt>
      <trkpt lat="47.19625" lon="5.52425">
        <ele>249.6</ele>
        <time>2013-04-12T06:36:36Z</time>
      </trkpt>
      <trkpt lat="47.19613" lon="5.52393">
        <ele>249.12</ele>
        <time>2013-04-12T06:36:46Z</time>
      </trkpt>
      <trkpt lat="47.19599" lon="5.52348">
        <ele>248.16</ele>
        <time>2013-04-12T06:36:59Z</time>
      </trkpt>
      <trkpt lat="47.19587" lon="5.52334">
        <ele>247.68</ele>
        <time>2013-04-12T06:37:05Z</time>
      </trkpt>
      <trkpt lat="47.19565" lon="5.5229">
        <ele>247.2</ele>
        <time>2013-04-12T06:37:19Z</time>
      </trkpt>
      <trkpt lat="47.19545" lon="5.52253">
        <ele>247.2</ele>
        <time>2013-04-12T06:37:31Z</time>
      </trkpt>
      <trkpt lat="47.19521" lon="5.5223">
        <ele>248.16</ele>
        <time>2013-04-12T06:37:43Z</time>
      </trkpt>
      <trkpt lat="47.19521" lon="5.52226">
        <ele>247.68</ele>
        <time>2013-04-12T06:37:46Z</time>
      </trkpt>
      <trkpt lat="47.19534" lon="5.52213">
        <ele>247.2</ele>
        <time>2013-04-12T06:37:54Z</time>
      </trkpt>
      <trkpt lat="47.1952" lon="5.52187">
        <ele>246.23</ele>
        <time>2013-04-12T06:38:01Z</time>
      </trkpt>
      <trkpt lat="47.19485" lon="5.52142">
        <ele>246.23</ele>
        <time>2013-04-12T06:38:16Z</time>
      </trkpt>
      <trkpt lat="47.1946" lon="5.52127">
        <ele>244.31</ele>
        <time>2013-04-12T06:38:26Z</time>
      </trkpt>
      <trkpt lat="47.19428" lon="5.52116">
        <ele>244.79</ele>
        <time>2013-04-12T06:38:38Z</time>
      </trkpt>
      <trkpt lat="47.19397" lon="5.52107">
        <ele>244.79</ele>
        <time>2013-04-12T06:38:50Z</time>
      </trkpt>
      <trkpt lat="47.1937" lon="5.52101">
        <ele>244.31</ele>
        <time>2013-04-12T06:39:00Z</time>
      </trkpt>
      <trkpt lat="47.19343" lon="5.52097">
        <ele>243.83</ele>
        <time>2013-04-12T06:39:11Z</time>
      </trkpt>
      <trkpt lat="47.19319" lon="5.52122">
        <ele>245.27</ele>
        <time>2013-04-12T06:39:22Z</time>
      </trkpt>
      <trkpt lat="47.19296" lon="5.52148">
        <ele>247.68</ele>
        <time>2013-04-12T06:39:33Z</time>
      </trkpt>
      <trkpt lat="47.19271" lon="5.52164">
        <ele>248.64</ele>
        <time>2013-04-12T06:39:44Z</time>
      </trkpt>
      <trkpt lat="47.19265" lon="5.52167">
        <ele>249.12</ele>
        <time>2013-04-12T06:39:47Z</time>
      </trkpt>
      <trkpt lat="47.19242" lon="5.52185">
        <ele>250.56</ele>
        <time>2013-04-12T06:39:57Z</time>
      </trkpt>
      <trkpt lat="47.19237" lon="5.52187">
        <ele>251.04</ele>
        <time>2013-04-12T06:39:59Z</time>
      </trkpt>
      <trkpt lat="47.19213" lon="5.522">
        <ele>251.52</ele>
        <time>2013-04-12T06:40:09Z</time>
      </trkpt>
      <trkpt lat="47.19187" lon="5.52225">
        <ele>252.48</ele>
        <time>2013-04-12T06:40:22Z</time>
      </trkpt>
      <trkpt lat="47.19159" lon="5.52252">
        <ele>253.93</ele>
        <time>2013-04-12T06:40:36Z</time>
      </trkpt>
      <trkpt lat="47.1913" lon="5.52282">
        <ele>254.41</ele>
        <time>2013-04-12T06:40:49Z</time>
      </trkpt>
      <trkpt lat="47.19119" lon="5.52292">
        <ele>255.37</ele>
        <time>2013-04-12T06:40:54Z</time>
      </trkpt>
      <trkpt lat="47.19093" lon="5.52316">
        <ele>254.89</ele>
        <time>2013-04-12T06:41:06Z</time>
      </trkpt>
      <trkpt lat="47.19079" lon="5.52323">
        <ele>254.89</ele>
        <time>2013-04-12T06:41:13Z</time>
      </trkpt>
      <trkpt lat="47.19072" lon="5.52343">
        <ele>255.37</ele>
        <time>2013-04-12T06:41:27Z</time>
      </trkpt>
      <trkpt lat="47.1907" lon="5.5235">
        <ele>255.37</ele>
        <time>2013-04-12T06:41:50Z</time>
      </trkpt>
      <trkpt lat="47.19072" lon="5.52337">
        <ele>254.41</ele>
        <time>2013-04-12T06:42:00Z</time>
      </trkpt>
      <trkpt lat="47.1905" lon="5.52334">
        <ele>255.85</ele>
        <time>2013-04-12T06:42:11Z</time>
      </trkpt>
      <trkpt lat="47.19035" lon="5.52339">
        <ele>255.37</ele>
        <time>2013-04-12T06:42:20Z</time>
      </trkpt>
      <trkpt lat="47.19032" lon="5.52367">
        <ele>257.77</ele>
        <time>2013-04-12T06:42:34Z</time>
      </trkpt>
      <trkpt lat="47.19032" lon="5.52372">
        <ele>258.25</ele>
        <time>2013-04-12T06:42:36Z</time>
      </trkpt>
      <trkpt lat="47.19033" lon="5.52403">
        <ele>262.58</ele>
        <time>2013-04-12T06:42:47Z</time>
      </trkpt>
      <trkpt lat="47.19034" lon="5.52405">
        <ele>262.1</ele>
        <time>2013-04-12T06:42:48Z</time>
      </trkpt>
      <trkpt lat="47.19041" lon="5.52431">
        <ele>265.46</ele>
        <time>2013-04-12T06:42:59Z</time>
      </trkpt>
      <trkpt lat="47.19045" lon="5.52449">
        <ele>268.35</ele>
        <time>2013-04-12T06:43:07Z</time>
      </trkpt>
      <trkpt lat="47.19048" lon="5.52479">
        <ele>270.75</ele>
        <time>2013-04-12T06:43:18Z</time>
      </trkpt>
      <trkpt lat="47.19057" lon="5.52513">
        <ele>272.67</ele>
        <time>2013-04-12T06:43:32Z</time>
      </trkpt>
      <trkpt lat="47.19063" lon="5.52555">
        <ele>276.52</ele>
        <time>2013-04-12T06:43:45Z</time>
      </trkpt>
      <trkpt lat="47.19066" lon="5.52596">
        <ele>278.44</ele>
        <time>2013-04-12T06:43:59Z</time>
      </trkpt>
      <trkpt lat="47.19067" lon="5.52619">
        <ele>281.8</ele>
        <time>2013-04-12T06:44:09Z</time>
      </trkpt>
      <trkpt lat="47.19069" lon="5.52639">
        <ele>283.73</ele>
        <time>2013-04-12T06:44:17Z</time>
      </trkpt>
      <trkpt lat="47.19072" lon="5.52669">
        <ele>286.61</ele>
        <time>2013-04-12T06:44:30Z</time>
      </trkpt>
      <trkpt lat="47.19073" lon="5.52696">
        <ele>289.97</ele>
        <time>2013-04-12T06:44:43Z</time>
      </trkpt>
      <trkpt lat="47.19073" lon="5.52698">
        <ele>289.97</ele>
        <time>2013-04-12T06:44:44Z</time>
      </trkpt>
      <trkpt lat="47.19075" lon="5.52715">
        <ele>291.42</ele>
        <time>2013-04-12T06:44:51Z</time>
      </trkpt>
      <trkpt lat="47.19081" lon="5.52732">
        <ele>292.38</ele>
        <time>2013-04-12T06:44:59Z</time>
      </trkpt>
      <trkpt lat="47.19096" lon="5.52761">
        <ele>296.22</ele>
        <time>2013-04-12T06:45:14Z</time>
      </trkpt>
      <trkpt lat="47.19104" lon="5.52789">
        <ele>298.15</ele>
        <time>2013-04-12T06:45:27Z</time>
      </trkpt>
      <trkpt lat="47.19109" lon="5.52828">
        <ele>300.55</ele>
        <time>2013-04-12T06:45:42Z</time>
      </trkpt>
      <trkpt lat="47.19124" lon="5.52853">
        <ele>303.43</ele>
        <time>2013-04-12T06:45:56Z</time>
      </trkpt>
      <trkpt lat="47.1912" lon="5.52865">
        <ele>304.39</ele>
        <time>2013-04-12T06:46:01Z</time>
      </trkpt>
      <trkpt lat="47.19114" lon="5.52876">
        <ele>305.36</ele>
        <time>2013-04-12T06:46:06Z</time>
      </trkpt>
      <trkpt lat="47.191" lon="5.52911">
        <ele>307.76</ele>
        <time>2013-04-12T06:46:21Z</time>
      </trkpt>
      <trkpt lat="47.1909" lon="5.52923">
        <ele>309.2</ele>
        <time>2013-04-12T06:46:32Z</time>
      </trkpt>
      <trkpt lat="47.19075" lon="5.52948">
        <ele>313.05</ele>
        <time>2013-04-12T06:46:45Z</time>
      </trkpt>
      <trkpt lat="47.19054" lon="5.52954">
        <ele>315.93</ele>
        <time>2013-04-12T06:46:58Z</time>
      </trkpt>
      <trkpt lat="47.19049" lon="5.52951">
        <ele>318.33</ele>
        <time>2013-04-12T06:47:06Z</time>
      </trkpt>
      <trkpt lat="47.19035" lon="5.52945">
        <ele>322.18</ele>
        <time>2013-04-12T06:47:21Z</time>
      </trkpt>
      <trkpt lat="47.19025" lon="5.52934">
        <ele>323.62</ele>
        <time>2013-04-12T06:47:30Z</time>
      </trkpt>
      <trkpt lat="47.19015" lon="5.52928">
        <ele>325.06</ele>
        <time>2013-04-12T06:47:34Z</time>
      </trkpt>
      <trkpt lat="47.18996" lon="5.52919">
        <ele>327.95</ele>
        <time>2013-04-12T06:47:47Z</time>
      </trkpt>
      <trkpt lat="47.1899" lon="5.52922">
        <ele>328.91</ele>
        <time>2013-04-12T06:47:51Z</time>
      </trkpt>
      <trkpt lat="47.18976" lon="5.52946">
        <ele>331.79</ele>
        <time>2013-04-12T06:48:06Z</time>
      </trkpt>
      <trkpt lat="47.18965" lon="5.52967">
        <ele>335.16</ele>
        <time>2013-04-12T06:48:18Z</time>
      </trkpt>
      <trkpt lat="47.18965" lon="5.52969">
        <ele>335.64</ele>
        <time>2013-04-12T06:48:19Z</time>
      </trkpt>
      <trkpt lat="47.18962" lon="5.52979">
        <ele>337.08</ele>
        <time>2013-04-12T06:48:24Z</time>
      </trkpt>
      <trkpt lat="47.18957" lon="5.52998">
        <ele>340.44</ele>
        <time>2013-04-12T06:48:35Z</time>
      </trkpt>
      <trkpt lat="47.18952" lon="5.53024">
        <ele>343.33</ele>
        <time>2013-04-12T06:48:46Z</time>
      </trkpt>
      <trkpt lat="47.18948" lon="5.53054">
        <ele>345.73</ele>
        <time>2013-04-12T06:48:59Z</time>
      </trkpt>
      <trkpt lat="47.18948" lon="5.53071">
        <ele>346.21</ele>
        <time>2013-04-12T06:49:05Z</time>
      </trkpt>
      <trkpt lat="47.18944" lon="5.53115">
        <ele>349.58</ele>
        <time>2013-04-12T06:49:21Z</time>
      </trkpt>
      <trkpt lat="47.18932" lon="5.53161">
        <ele>352.46</ele>
        <time>2013-04-12T06:49:36Z</time>
      </trkpt>
      <trkpt lat="47.1893" lon="5.53179">
        <ele>352.46</ele>
        <time>2013-04-12T06:49:42Z</time>
      </trkpt>
      <trkpt lat="47.1894" lon="5.53218">
        <ele>351.02</ele>
        <time>2013-04-12T06:49:56Z</time>
      </trkpt>
      <trkpt lat="47.18938" lon="5.53241">
        <ele>351.02</ele>
        <time>2013-04-12T06:50:03Z</time>
      </trkpt>
      <trkpt lat="47.18955" lon="5.53276">
        <ele>351.02</ele>
        <time>2013-04-12T06:50:17Z</time>
      </trkpt>
      <trkpt lat="47.1898" lon="5.53299">
        <ele>351.02</ele>
        <time>2013-04-12T06:50:28Z</time>
      </trkpt>
      <trkpt lat="47.18985" lon="5.53311">
        <ele>350.54</ele>
        <time>2013-04-12T06:50:32Z</time>
      </trkpt>
      <trkpt lat="47.18996" lon="5.53355">
        <ele>350.06</ele>
        <time>2013-04-12T06:50:46Z</time>
      </trkpt>
      <trkpt lat="47.18996" lon="5.53368">
        <ele>350.06</ele>
        <time>2013-04-12T06:50:50Z</time>
      </trkpt>
      <trkpt lat="47.18989" lon="5.53388">
        <ele>349.58</ele>
        <time>2013-04-12T06:50:55Z</time>
      </trkpt>
      <trkpt lat="47.18956" lon="5.5343">
        <ele>351.02</ele>
        <time>2013-04-12T06:51:09Z</time>
      </trkpt>
      <trkpt lat="47.1893" lon="5.5346">
        <ele>351.5</ele>
        <time>2013-04-12T06:51:21Z</time>
      </trkpt>
      <trkpt lat="47.18909" lon="5.53487">
        <ele>352.94</ele>
        <time>2013-04-12T06:51:32Z</time>
      </trkpt>
      <trkpt lat="47.18887" lon="5.53515">
        <ele>353.9</ele>
        <time>2013-04-12T06:51:44Z</time>
      </trkpt>
      <trkpt lat="47.18861" lon="5.53545">
        <ele>356.31</ele>
        <time>2013-04-12T06:51:58Z</time>
      </trkpt>
      <trkpt lat="47.18839" lon="5.53573">
        <ele>358.71</ele>
        <time>2013-04-12T06:52:10Z</time>
      </trkpt>
      <trkpt lat="47.18817" lon="5.53599">
        <ele>359.19</ele>
        <time>2013-04-12T06:52:21Z</time>
      </trkpt>
      <trkpt lat="47.18797" lon="5.53618">
        <ele>359.67</ele>
        <time>2013-04-12T06:52:31Z</time>
      </trkpt>
      <trkpt lat="47.18774" lon="5.53644">
        <ele>359.19</ele>
        <time>2013-04-12T06:52:42Z</time>
      </trkpt>
      <trkpt lat="47.18767" lon="5.53652">
        <ele>359.19</ele>
        <time>2013-04-12T06:52:45Z</time>
      </trkpt>
      <trkpt lat="47.18759" lon="5.53661">
        <ele>358.71</ele>
        <time>2013-04-12T06:52:49Z</time>
      </trkpt>
      <trkpt lat="47.18731" lon="5.53696">
        <ele>356.79</ele>
        <time>2013-04-12T06:53:02Z</time>
      </trkpt>
      <trkpt lat="47.18729" lon="5.53698">
        <ele>356.79</ele>
        <time>2013-04-12T06:53:03Z</time>
      </trkpt>
      <trkpt lat="47.18704" lon="5.53727">
        <ele>354.86</ele>
        <time>2013-04-12T06:53:15Z</time>
      </trkpt>
      <trkpt lat="47.18674" lon="5.53764">
        <ele>354.38</ele>
        <time>2013-04-12T06:53:29Z</time>
      </trkpt>
      <trkpt lat="47.18645" lon="5.53795">
        <ele>353.9</ele>
        <time>2013-04-12T06:53:41Z</time>
      </trkpt>
      <trkpt lat="47.18643" lon="5.53797">
        <ele>353.9</ele>
        <time>2013-04-12T06:53:42Z</time>
      </trkpt>
      <trkpt lat="47.18642" lon="5.5381">
        <ele>353.9</ele>
        <time>2013-04-12T06:53:46Z</time>
      </trkpt>
      <trkpt lat="47.18657" lon="5.53831">
        <ele>353.42</ele>
        <time>2013-04-12T06:54:01Z</time>
      </trkpt>
      <trkpt lat="47.18659" lon="5.53836">
        <ele>352.94</ele>
        <time>2013-04-12T06:54:17Z</time>
      </trkpt>
      <trkpt lat="47.1866" lon="5.5384">
        <ele>351.98</ele>
        <time>2013-04-12T06:54:30Z</time>
      </trkpt>
      <trkpt lat="47.1866" lon="5.53842">
        <ele>352.46</ele>
        <time>2013-04-12T06:54:57Z</time>
      </trkpt>
      <trkpt lat="47.1866" lon="5.53842">
        <ele>354.86</ele>
        <time>2013-04-12T06:55:00Z</time>
      </trkpt>
      <trkpt lat="47.1866" lon="5.53841">
        <ele>352.94</ele>
        <time>2013-04-12T06:55:02Z</time>
      </trkpt>
      <trkpt lat="47.1866" lon="5.53841">
        <ele>346.21</ele>
        <time>2013-04-12T06:55:04Z</time>
      </trkpt>
      <trkpt lat="47.1866" lon="5.53841">
        <ele>355.83</ele>
        <time>2013-04-12T06:55:05Z</time>
      </trkpt>
      <trkpt lat="47.1866" lon="5.53841">
        <ele>349.58</ele>
        <time>2013-04-12T06:55:06Z</time>
      </trkpt>
      <trkpt lat="47.1866" lon="5.53841">
        <ele>358.23</ele>
        <time>2013-04-12T06:55:07Z</time>
      </trkpt>
      <trkpt lat="47.1866" lon="5.53841">
        <ele>351.98</ele>
        <time>2013-04-12T06:55:09Z</time>
      </trkpt>
      <trkpt lat="47.1866" lon="5.53841">
        <ele>353.42</ele>
        <time>2013-04-12T06:55:10Z</time>
      </trkpt>
      <trkpt lat="47.1866" lon="5.53841">
        <ele>352.94</ele>
        <time>2013-04-12T06:55:33Z</time>
      </trkpt>
      <trkpt lat="47.1866" lon="5.53843">
        <ele>351.98</ele>
        <time>2013-04-12T06:55:55Z</time>
      </trkpt>
      <trkpt lat="47.1866" lon="5.53852">
        <ele>352.46</ele>
        <time>2013-04-12T06:55:59Z</time>
      </trkpt>
      <trkpt lat="47.18675" lon="5.53904">
        <ele>351.02</ele>
        <time>2013-04-12T06:56:14Z</time>
      </trkpt>
      <trkpt lat="47.18698" lon="5.53952">
        <ele>349.1</ele>
        <time>2013-04-12T06:56:30Z</time>
      </trkpt>
      <trkpt lat="47.18699" lon="5.53954">
        <ele>348.62</ele>
        <time>2013-04-12T06:56:31Z</time>
      </trkpt>
      <trkpt lat="47.18704" lon="5.53979">
        <ele>348.13</ele>
        <time>2013-04-12T06:56:39Z</time>
      </trkpt>
      <trkpt lat="47.18715" lon="5.54005">
        <ele>345.73</ele>
        <time>2013-04-12T06:56:48Z</time>
      </trkpt>
      <trkpt lat="47.18731" lon="5.54036">
        <ele>342.85</ele>
        <time>2013-04-12T06:56:58Z</time>
      </trkpt>
      <trkpt lat="47.18736" lon="5.5405">
        <ele>340.92</ele>
        <time>2013-04-12T06:57:03Z</time>
      </trkpt>
      <trkpt lat="47.18754" lon="5.54077">
        <ele>337.56</ele>
        <time>2013-04-12T06:57:11Z</time>
      </trkpt>
      <trkpt lat="47.18755" lon="5.54081">
        <ele>337.56</ele>
        <time>2013-04-12T06:57:12Z</time>
      </trkpt>
      <trkpt lat="47.18766" lon="5.54112">
        <ele>335.16</ele>
        <time>2013-04-12T06:57:23Z</time>
      </trkpt>
      <trkpt lat="47.18779" lon="5.54137">
        <ele>331.79</ele>
        <time>2013-04-12T06:57:30Z</time>
      </trkpt>
      <trkpt lat="47.18797" lon="5.54178">
        <ele>328.43</ele>
        <time>2013-04-12T06:57:39Z</time>
      </trkpt>
      <trkpt lat="47.18802" lon="5.54202">
        <ele>325.06</ele>
        <time>2013-04-12T06:57:46Z</time>
      </trkpt>
      <trkpt lat="47.18803" lon="5.54206">
        <ele>325.06</ele>
        <time>2013-04-12T06:57:47Z</time>
      </trkpt>
      <trkpt lat="47.18816" lon="5.54243">
        <ele>321.22</ele>
        <time>2013-04-12T06:57:56Z</time>
      </trkpt>
      <trkpt lat="47.18822" lon="5.54255">
        <ele>318.33</ele>
        <time>2013-04-12T06:58:01Z</time>
      </trkpt>
      <trkpt lat="47.18825" lon="5.54259">
        <ele>314.97</ele>
        <time>2013-04-12T06:58:04Z</time>
      </trkpt>
      <trkpt lat="47.18826" lon="5.5426">
        <ele>314.97</ele>
        <time>2013-04-12T06:58:05Z</time>
      </trkpt>
      <trkpt lat="47.1883" lon="5.54268">
        <ele>312.57</ele>
        <time>2013-04-12T06:58:09Z</time>
      </trkpt>
      <trkpt lat="47.1883" lon="5.54271">
        <ele>312.09</ele>
        <time>2013-04-12T06:58:11Z</time>
      </trkpt>
      <trkpt lat="47.18833" lon="5.54279">
        <ele>314.49</ele>
        <time>2013-04-12T06:58:15Z</time>
      </trkpt>
      <trkpt lat="47.18833" lon="5.54287">
        <ele>314.97</ele>
        <time>2013-04-12T06:58:19Z</time>
      </trkpt>
      <trkpt lat="47.18843" lon="5.54311">
        <ele>318.81</ele>
        <time>2013-04-12T06:58:27Z</time>
      </trkpt>
      <trkpt lat="47.18851" lon="5.54318">
        <ele>319.78</ele>
        <time>2013-04-12T06:58:30Z</time>
      </trkpt>
      <trkpt lat="47.18867" lon="5.54349">
        <ele>323.62</ele>
        <time>2013-04-12T06:58:42Z</time>
      </trkpt>
      <trkpt lat="47.18882" lon="5.54384">
        <ele>326.99</ele>
        <time>2013-04-12T06:58:55Z</time>
      </trkpt>
      <trkpt lat="47.18892" lon="5.54415">
        <ele>328.91</ele>
        <time>2013-04-12T06:59:08Z</time>
      </trkpt>
      <trkpt lat="47.18923" lon="5.54464">
        <ele>332.27</ele>
        <time>2013-04-12T06:59:25Z</time>
      </trkpt>
      <trkpt lat="47.18939" lon="5.54497">
        <ele>335.64</ele>
        <time>2013-04-12T06:59:38Z</time>
      </trkpt>
      <trkpt lat="47.18959" lon="5.54537">
        <ele>337.56</ele>
        <time>2013-04-12T06:59:52Z</time>
      </trkpt>
      <trkpt lat="47.18961" lon="5.5454">
        <ele>337.56</ele>
        <time>2013-04-12T06:59:53Z</time>
      </trkpt>
      <trkpt lat="47.18976" lon="5.54576">
        <ele>336.12</ele>
        <time>2013-04-12T07:00:07Z</time>
      </trkpt>
      <trkpt lat="47.18985" lon="5.54589">
        <ele>331.31</ele>
        <time>2013-04-12T07:00:14Z</time>
      </trkpt>
      <trkpt lat="47.18986" lon="5.54591">
        <ele>331.79</ele>
        <time>2013-04-12T07:00:15Z</time>
      </trkpt>
      <trkpt lat="47.18992" lon="5.54599">
        <ele>328.43</ele>
        <time>2013-04-12T07:00:20Z</time>
      </trkpt>
      <trkpt lat="47.18996" lon="5.54605">
        <ele>324.1</ele>
        <time>2013-04-12T07:00:25Z</time>
      </trkpt>
      <trkpt lat="47.18996" lon="5.54605">
        <ele>324.58</ele>
        <time>2013-04-12T07:00:26Z</time>
      </trkpt>
      <trkpt lat="47.18999" lon="5.5461">
        <ele>322.18</ele>
        <time>2013-04-12T07:00:29Z</time>
      </trkpt>
      <trkpt lat="47.19003" lon="5.54618">
        <ele>320.74</ele>
        <time>2013-04-12T07:00:32Z</time>
      </trkpt>
      <trkpt lat="47.19006" lon="5.54627">
        <ele>317.85</ele>
        <time>2013-04-12T07:00:34Z</time>
      </trkpt>
      <trkpt lat="47.19008" lon="5.54641">
        <ele>313.53</ele>
        <time>2013-04-12T07:00:38Z</time>
      </trkpt>
      <trkpt lat="47.19008" lon="5.54644">
        <ele>313.53</ele>
        <time>2013-04-12T07:00:39Z</time>
      </trkpt>
      <trkpt lat="47.19018" lon="5.54674">
        <ele>316.89</ele>
        <time>2013-04-12T07:00:51Z</time>
      </trkpt>
      <trkpt lat="47.19019" lon="5.54677">
        <ele>317.85</ele>
        <time>2013-04-12T07:00:53Z</time>
      </trkpt>
      <trkpt lat="47.19021" lon="5.5468">
        <ele>318.81</ele>
        <time>2013-04-12T07:00:55Z</time>
      </trkpt>
      <trkpt lat="47.19023" lon="5.54687">
        <ele>320.26</ele>
        <time>2013-04-12T07:00:58Z</time>
      </trkpt>
      <trkpt lat="47.19031" lon="5.54701">
        <ele>323.14</ele>
        <time>2013-04-12T07:01:06Z</time>
      </trkpt>
      <trkpt lat="47.1904" lon="5.54726">
        <ele>326.5</ele>
        <time>2013-04-12T07:01:17Z</time>
      </trkpt>
      <trkpt lat="47.19055" lon="5.54761">
        <ele>328.43</ele>
        <time>2013-04-12T07:01:31Z</time>
      </trkpt>
      <trkpt lat="47.19072" lon="5.54802">
        <ele>330.35</ele>
        <time>2013-04-12T07:01:46Z</time>
      </trkpt>
      <trkpt lat="47.19086" lon="5.54837">
        <ele>332.75</ele>
        <time>2013-04-12T07:02:01Z</time>
      </trkpt>
      <trkpt lat="47.19098" lon="5.54867">
        <ele>335.16</ele>
        <time>2013-04-12T07:02:19Z</time>
      </trkpt>
      <trkpt lat="47.19106" lon="5.54882">
        <ele>335.64</ele>
        <time>2013-04-12T07:02:27Z</time>
      </trkpt>
      <trkpt lat="47.19113" lon="5.54902">
        <ele>336.6</ele>
        <time>2013-04-12T07:02:42Z</time>
      </trkpt>
      <trkpt lat="47.19119" lon="5.54909">
        <ele>338.04</ele>
        <time>2013-04-12T07:02:50Z</time>
      </trkpt>
      <trkpt lat="47.19128" lon="5.54927">
        <ele>339.48</ele>
        <time>2013-04-12T07:02:56Z</time>
      </trkpt>
      <trkpt lat="47.19144" lon="5.5497">
        <ele>342.85</ele>
        <time>2013-04-12T07:03:11Z</time>
      </trkpt>
      <trkpt lat="47.19151" lon="5.54992">
        <ele>345.73</ele>
        <time>2013-04-12T07:03:20Z</time>
      </trkpt>
      <trkpt lat="47.1917" lon="5.55031">
        <ele>349.1</ele>
        <time>2013-04-12T07:03:34Z</time>
      </trkpt>
      <trkpt lat="47.19192" lon="5.55073">
        <ele>350.54</ele>
        <time>2013-04-12T07:03:49Z</time>
      </trkpt>
      <trkpt lat="47.192" lon="5.55098">
        <ele>351.5</ele>
        <time>2013-04-12T07:03:57Z</time>
      </trkpt>
      <trkpt lat="47.19208" lon="5.55116">
        <ele>353.42</ele>
        <time>2013-04-12T07:04:07Z</time>
      </trkpt>
      <trkpt lat="47.1921" lon="5.55117">
        <ele>352.94</ele>
        <time>2013-04-12T07:04:14Z</time>
      </trkpt>
      <trkpt lat="47.19224" lon="5.55102">
        <ele>352.46</ele>
        <time>2013-04-12T07:04:23Z</time>
      </trkpt>
      <trkpt lat="47.19245" lon="5.55077">
        <ele>350.06</ele>
        <time>2013-04-12T07:04:36Z</time>
      </trkpt>
      <trkpt lat="47.19275" lon="5.5505">
        <ele>348.62</ele>
        <time>2013-04-12T07:04:50Z</time>
      </trkpt>
      <trkpt lat="47.19314" lon="5.55007">
        <ele>346.69</ele>
        <time>2013-04-12T07:05:05Z</time>
      </trkpt>
      <trkpt lat="47.19351" lon="5.54972">
        <ele>345.73</ele>
        <time>2013-04-12T07:05:19Z</time>
      </trkpt>
      <trkpt lat="47.19383" lon="5.54944">
        <ele>343.33</ele>
        <time>2013-04-12T07:05:32Z</time>
      </trkpt>
      <trkpt lat="47.19405" lon="5.54926">
        <ele>339.48</ele>
        <time>2013-04-12T07:05:40Z</time>
      </trkpt>
      <trkpt lat="47.19425" lon="5.54906">
        <ele>336.6</ele>
        <time>2013-04-12T07:05:48Z</time>
      </trkpt>
      <trkpt lat="47.19438" lon="5.54892">
        <ele>333.23</ele>
        <time>2013-04-12T07:05:54Z</time>
      </trkpt>
      <trkpt lat="47.19454" lon="5.54878">
        <ele>329.39</ele>
        <time>2013-04-12T07:06:00Z</time>
      </trkpt>
      <trkpt lat="47.19477" lon="5.54858">
        <ele>326.02</ele>
        <time>2013-04-12T07:06:08Z</time>
      </trkpt>
      <trkpt lat="47.19487" lon="5.54849">
        <ele>324.1</ele>
        <time>2013-04-12T07:06:12Z</time>
      </trkpt>
      <trkpt lat="47.19497" lon="5.54839">
        <ele>321.22</ele>
        <time>2013-04-12T07:06:18Z</time>
      </trkpt>
      <trkpt lat="47.19507" lon="5.54826">
        <ele>317.85</ele>
        <time>2013-04-12T07:06:23Z</time>
      </trkpt>
      <trkpt lat="47.19518" lon="5.54817">
        <ele>314.49</ele>
        <time>2013-04-12T07:06:28Z</time>
      </trkpt>
      <trkpt lat="47.19522" lon="5.54811">
        <ele>313.05</ele>
        <time>2013-04-12T07:06:39Z</time>
      </trkpt>
      <trkpt lat="47.19522" lon="5.54811">
        <ele>312.09</ele>
        <time>2013-04-12T07:06:40Z</time>
      </trkpt>
      <trkpt lat="47.1951" lon="5.54785">
        <ele>314.49</ele>
        <time>2013-04-12T07:06:52Z</time>
      </trkpt>
      <trkpt lat="47.19498" lon="5.54756">
        <ele>313.53</ele>
        <time>2013-04-12T07:07:05Z</time>
      </trkpt>
      <trkpt lat="47.19492" lon="5.54747">
        <ele>313.53</ele>
        <time>2013-04-12T07:07:12Z</time>
      </trkpt>
      <trkpt lat="47.19491" lon="5.54745">
        <ele>312.09</ele>
        <time>2013-04-12T07:07:17Z</time>
      </trkpt>
      <trkpt lat="47.19491" lon="5.54744">
        <ele>311.6</ele>
        <time>2013-04-12T07:07:18Z</time>
      </trkpt>
      <trkpt lat="47.1948" lon="5.54706">
        <ele>310.64</ele>
        <time>2013-04-12T07:07:28Z</time>
      </trkpt>
      <trkpt lat="47.19477" lon="5.54697">
        <ele>310.16</ele>
        <time>2013-04-12T07:07:30Z</time>
      </trkpt>
      <trkpt lat="47.19472" lon="5.54687">
        <ele>309.68</ele>
        <time>2013-04-12T07:07:33Z</time>
      </trkpt>
      <trkpt lat="47.19456" lon="5.54653">
        <ele>309.2</ele>
        <time>2013-04-12T07:07:43Z</time>
      </trkpt>
      <trkpt lat="47.19445" lon="5.54634">
        <ele>308.24</ele>
        <time>2013-04-12T07:07:51Z</time>
      </trkpt>
      <trkpt lat="47.19442" lon="5.54621">
        <ele>307.76</ele>
        <time>2013-04-12T07:07:57Z</time>
      </trkpt>
      <trkpt lat="47.19443" lon="5.54614">
        <ele>307.28</ele>
        <time>2013-04-12T07:08:00Z</time>
      </trkpt>
      <trkpt lat="47.19466" lon="5.54581">
        <ele>304.88</ele>
        <time>2013-04-12T07:08:14Z</time>
      </trkpt>
      <trkpt lat="47.19474" lon="5.54563">
        <ele>304.88</ele>
        <time>2013-04-12T07:08:20Z</time>
      </trkpt>
      <trkpt lat="47.1948" lon="5.54552">
        <ele>303.91</ele>
        <time>2013-04-12T07:08:24Z</time>
      </trkpt>
      <trkpt lat="47.19481" lon="5.54535">
        <ele>303.91</ele>
        <time>2013-04-12T07:08:29Z</time>
      </trkpt>
      <trkpt lat="47.19481" lon="5.54526">
        <ele>303.43</ele>
        <time>2013-04-12T07:08:31Z</time>
      </trkpt>
      <trkpt lat="47.19481" lon="5.54519">
        <ele>303.43</ele>
        <time>2013-04-12T07:08:33Z</time>
      </trkpt>
      <trkpt lat="47.19481" lon="5.54496">
        <ele>301.51</ele>
        <time>2013-04-12T07:08:39Z</time>
      </trkpt>
      <trkpt lat="47.19475" lon="5.54463">
        <ele>299.59</ele>
        <time>2013-04-12T07:08:48Z</time>
      </trkpt>
      <trkpt lat="47.19468" lon="5.54445">
        <ele>299.11</ele>
        <time>2013-04-12T07:08:54Z</time>
      </trkpt>
      <trkpt lat="47.19465" lon="5.54426">
        <ele>297.18</ele>
        <time>2013-04-12T07:08:59Z</time>
      </trkpt>
      <trkpt lat="47.19475" lon="5.54414">
        <ele>296.7</ele>
        <time>2013-04-12T07:09:04Z</time>
      </trkpt>
      <trkpt lat="47.19493" lon="5.54455">
        <ele>293.82</ele>
        <time>2013-04-12T07:09:17Z</time>
      </trkpt>
      <trkpt lat="47.19501" lon="5.54473">
        <ele>292.38</ele>
        <time>2013-04-12T07:09:22Z</time>
      </trkpt>
      <trkpt lat="47.19516" lon="5.54509">
        <ele>289.49</ele>
        <time>2013-04-12T07:09:33Z</time>
      </trkpt>
      <trkpt lat="47.19526" lon="5.54551">
        <ele>287.09</ele>
        <time>2013-04-12T07:09:44Z</time>
      </trkpt>
      <trkpt lat="47.19528" lon="5.54555">
        <ele>286.61</ele>
        <time>2013-04-12T07:09:45Z</time>
      </trkpt>
      <trkpt lat="47.19536" lon="5.54597">
        <ele>283.25</ele>
        <time>2013-04-12T07:09:55Z</time>
      </trkpt>
      <trkpt lat="47.19551" lon="5.54627">
        <ele>279.4</ele>
        <time>2013-04-12T07:10:04Z</time>
      </trkpt>
      <trkpt lat="47.19553" lon="5.5463">
        <ele>278.92</ele>
        <time>2013-04-12T07:10:05Z</time>
      </trkpt>
      <trkpt lat="47.1956" lon="5.54636">
        <ele>277.96</ele>
        <time>2013-04-12T07:10:08Z</time>
      </trkpt>
      <trkpt lat="47.19565" lon="5.54636">
        <ele>277</ele>
        <time>2013-04-12T07:10:10Z</time>
      </trkpt>
      <trkpt lat="47.19565" lon="5.54616">
        <ele>276.04</ele>
        <time>2013-04-12T07:10:18Z</time>
      </trkpt>
      <trkpt lat="47.19561" lon="5.54605">
        <ele>275.56</ele>
        <time>2013-04-12T07:10:22Z</time>
      </trkpt>
      <trkpt lat="47.19553" lon="5.54573">
        <ele>274.11</ele>
        <time>2013-04-12T07:10:31Z</time>
      </trkpt>
      <trkpt lat="47.19551" lon="5.54555">
        <ele>274.59</ele>
        <time>2013-04-12T07:10:37Z</time>
      </trkpt>
      <trkpt lat="47.19548" lon="5.54552">
        <ele>273.15</ele>
        <time>2013-04-12T07:10:39Z</time>
      </trkpt>
      <trkpt lat="47.1955" lon="5.54534">
        <ele>273.63</ele>
        <time>2013-04-12T07:10:44Z</time>
      </trkpt>
      <trkpt lat="47.19559" lon="5.5454">
        <ele>272.19</ele>
        <time>2013-04-12T07:10:50Z</time>
      </trkpt>
      <trkpt lat="47.1956" lon="5.54544">
        <ele>272.67</ele>
        <time>2013-04-12T07:10:51Z</time>
      </trkpt>
      <trkpt lat="47.19571" lon="5.54569">
        <ele>269.31</ele>
        <time>2013-04-12T07:10:58Z</time>
      </trkpt>
      <trkpt lat="47.19573" lon="5.54573">
        <ele>269.31</ele>
        <time>2013-04-12T07:10:59Z</time>
      </trkpt>
      <trkpt lat="47.1958" lon="5.54589">
        <ele>267.38</ele>
        <time>2013-04-12T07:11:03Z</time>
      </trkpt>
      <trkpt lat="47.19599" lon="5.54629">
        <ele>265.46</ele>
        <time>2013-04-12T07:11:14Z</time>
      </trkpt>
      <trkpt lat="47.19614" lon="5.54665">
        <ele>265.46</ele>
        <time>2013-04-12T07:11:24Z</time>
      </trkpt>
      <trkpt lat="47.19627" lon="5.5468">
        <ele>263.54</ele>
        <time>2013-04-12T07:11:30Z</time>
      </trkpt>
      <trkpt lat="47.19649" lon="5.54675">
        <ele>260.65</ele>
        <time>2013-04-12T07:11:38Z</time>
      </trkpt>
      <trkpt lat="47.19651" lon="5.54673">
        <ele>261.14</ele>
        <time>2013-04-12T07:11:39Z</time>
      </trkpt>
      <trkpt lat="47.19677" lon="5.54651">
        <ele>259.21</ele>
        <time>2013-04-12T07:11:50Z</time>
      </trkpt>
      <trkpt lat="47.19703" lon="5.54644">
        <ele>257.77</ele>
        <time>2013-04-12T07:12:00Z</time>
      </trkpt>
      <trkpt lat="47.1971" lon="5.54649">
        <ele>255.85</ele>
        <time>2013-04-12T07:12:03Z</time>
      </trkpt>
      <trkpt lat="47.19732" lon="5.54684">
        <ele>254.89</ele>
        <time>2013-04-12T07:12:14Z</time>
      </trkpt>
      <trkpt lat="47.19752" lon="5.54741">
        <ele>252.96</ele>
        <time>2013-04-12T07:12:29Z</time>
      </trkpt>
      <trkpt lat="47.1976" lon="5.54785">
        <ele>250.56</ele>
        <time>2013-04-12T07:12:40Z</time>
      </trkpt>
      <trkpt lat="47.19771" lon="5.54824">
        <ele>247.68</ele>
        <time>2013-04-12T07:12:50Z</time>
      </trkpt>
      <trkpt lat="47.19779" lon="5.54865">
        <ele>244.31</ele>
        <time>2013-04-12T07:13:00Z</time>
      </trkpt>
      <trkpt lat="47.19785" lon="5.54881">
        <ele>243.83</ele>
        <time>2013-04-12T07:13:04Z</time>
      </trkpt>
      <trkpt lat="47.19792" lon="5.54901">
        <ele>242.39</ele>
        <time>2013-04-12T07:13:09Z</time>
      </trkpt>
      <trkpt lat="47.19805" lon="5.54947">
        <ele>239.51</ele>
        <time>2013-04-12T07:13:20Z</time>
      </trkpt>
      <trkpt lat="47.19817" lon="5.54984">
        <ele>237.58</ele>
        <time>2013-04-12T07:13:30Z</time>
      </trkpt>
      <trkpt lat="47.19826" lon="5.55026">
        <ele>237.58</ele>
        <time>2013-04-12T07:13:40Z</time>
      </trkpt>
      <trkpt lat="47.19837" lon="5.55073">
        <ele>237.58</ele>
        <time>2013-04-12T07:13:52Z</time>
      </trkpt>
      <trkpt lat="47.19848" lon="5.55115">
        <ele>237.1</ele>
        <time>2013-04-12T07:14:04Z</time>
      </trkpt>
      <trkpt lat="47.19871" lon="5.55135">
        <ele>235.66</ele>
        <time>2013-04-12T07:14:15Z</time>
      </trkpt>
      <trkpt lat="47.19899" lon="5.55159">
        <ele>235.18</ele>
        <time>2013-04-12T07:14:28Z</time>
      </trkpt>
      <trkpt lat="47.19918" lon="5.55198">
        <ele>234.22</ele>
        <time>2013-04-12T07:14:43Z</time>
      </trkpt>
      <trkpt lat="47.19926" lon="5.55223">
        <ele>233.26</ele>
        <time>2013-04-12T07:14:50Z</time>
      </trkpt>
      <trkpt lat="47.19936" lon="5.55251">
        <ele>232.3</ele>
        <time>2013-04-12T07:15:03Z</time>
      </trkpt>
      <trkpt lat="47.19946" lon="5.55244">
        <ele>233.74</ele>
        <time>2013-04-12T07:15:09Z</time>
      </trkpt>
      <trkpt lat="47.19954" lon="5.5521">
        <ele>235.66</ele>
        <time>2013-04-12T07:15:22Z</time>
      </trkpt>
      <trkpt lat="47.1995" lon="5.55196">
        <ele>237.1</ele>
        <time>2013-04-12T07:15:28Z</time>
      </trkpt>
      <trkpt lat="47.19944" lon="5.55177">
        <ele>238.54</ele>
        <time>2013-04-12T07:15:36Z</time>
      </trkpt>
      <trkpt lat="47.19942" lon="5.55169">
        <ele>239.51</ele>
        <time>2013-04-12T07:15:39Z</time>
      </trkpt>
      <trkpt lat="47.19936" lon="5.55154">
        <ele>240.95</ele>
        <time>2013-04-12T07:15:46Z</time>
      </trkpt>
      <trkpt lat="47.19936" lon="5.55148">
        <ele>240.47</ele>
        <time>2013-04-12T07:15:48Z</time>
      </trkpt>
      <trkpt lat="47.19927" lon="5.55131">
        <ele>243.35</ele>
        <time>2013-04-12T07:15:55Z</time>
      </trkpt>
      <trkpt lat="47.19926" lon="5.55129">
        <ele>242.87</ele>
        <time>2013-04-12T07:15:56Z</time>
      </trkpt>
      <trkpt lat="47.19919" lon="5.55114">
        <ele>243.83</ele>
        <time>2013-04-12T07:16:02Z</time>
      </trkpt>
      <trkpt lat="47.19915" lon="5.55097">
        <ele>246.23</ele>
        <time>2013-04-12T07:16:09Z</time>
      </trkpt>
      <trkpt lat="47.19912" lon="5.55084">
        <ele>247.68</ele>
        <time>2013-04-12T07:16:14Z</time>
      </trkpt>
      <trkpt lat="47.19912" lon="5.55071">
        <ele>248.64</ele>
        <time>2013-04-12T07:16:19Z</time>
      </trkpt>
      <trkpt lat="47.19904" lon="5.55039">
        <ele>251.52</ele>
        <time>2013-04-12T07:16:31Z</time>
      </trkpt>
      <trkpt lat="47.19899" lon="5.55021">
        <ele>252.96</ele>
        <time>2013-04-12T07:16:39Z</time>
      </trkpt>
      <trkpt lat="47.19898" lon="5.55008">
        <ele>254.41</ele>
        <time>2013-04-12T07:16:44Z</time>
      </trkpt>
      <trkpt lat="47.19897" lon="5.54993">
        <ele>254.41</ele>
        <time>2013-04-12T07:16:48Z</time>
      </trkpt>
      <trkpt lat="47.19902" lon="5.5495">
        <ele>257.77</ele>
        <time>2013-04-12T07:17:00Z</time>
      </trkpt>
      <trkpt lat="47.19929" lon="5.54918">
        <ele>259.69</ele>
        <time>2013-04-12T07:17:15Z</time>
      </trkpt>
      <trkpt lat="47.19947" lon="5.549">
        <ele>263.06</ele>
        <time>2013-04-12T07:17:26Z</time>
      </trkpt>
      <trkpt lat="47.19958" lon="5.54898">
        <ele>264.98</ele>
        <time>2013-04-12T07:17:33Z</time>
      </trkpt>
      <trkpt lat="47.19977" lon="5.54905">
        <ele>268.83</ele>
        <time>2013-04-12T07:17:47Z</time>
      </trkpt>
      <trkpt lat="47.19979" lon="5.54906">
        <ele>269.31</ele>
        <time>2013-04-12T07:17:48Z</time>
      </trkpt>
      <trkpt lat="47.2" lon="5.54923">
        <ele>271.23</ele>
        <time>2013-04-12T07:18:00Z</time>
      </trkpt>
      <trkpt lat="47.20022" lon="5.54953">
        <ele>272.67</ele>
        <time>2013-04-12T07:18:14Z</time>
      </trkpt>
      <trkpt lat="47.2005" lon="5.54961">
        <ele>275.07</ele>
        <time>2013-04-12T07:18:28Z</time>
      </trkpt>
      <trkpt lat="47.20076" lon="5.54961">
        <ele>277</ele>
        <time>2013-04-12T07:18:42Z</time>
      </trkpt>
      <trkpt lat="47.20088" lon="5.54962">
        <ele>277.96</ele>
        <time>2013-04-12T07:18:48Z</time>
      </trkpt>
      <trkpt lat="47.20108" lon="5.54964">
        <ele>280.84</ele>
        <time>2013-04-12T07:18:59Z</time>
      </trkpt>
      <trkpt lat="47.20132" lon="5.5497">
        <ele>284.21</ele>
        <time>2013-04-12T07:19:13Z</time>
      </trkpt>
      <trkpt lat="47.20156" lon="5.54975">
        <ele>286.61</ele>
        <time>2013-04-12T07:19:29Z</time>
      </trkpt>
      <trkpt lat="47.20178" lon="5.54972">
        <ele>289.01</ele>
        <time>2013-04-12T07:19:41Z</time>
      </trkpt>
      <trkpt lat="47.20198" lon="5.54964">
        <ele>289.97</ele>
        <time>2013-04-12T07:19:51Z</time>
      </trkpt>
      <trkpt lat="47.20211" lon="5.54956">
        <ele>291.9</ele>
        <time>2013-04-12T07:19:58Z</time>
      </trkpt>
      <trkpt lat="47.20213" lon="5.54956">
        <ele>290.94</ele>
        <time>2013-04-12T07:19:59Z</time>
      </trkpt>
      <trkpt lat="47.20225" lon="5.54951">
        <ele>292.38</ele>
        <time>2013-04-12T07:20:05Z</time>
      </trkpt>
      <trkpt lat="47.20244" lon="5.54943">
        <ele>293.82</ele>
        <time>2013-04-12T07:20:15Z</time>
      </trkpt>
      <trkpt lat="47.20251" lon="5.54939">
        <ele>294.3</ele>
        <time>2013-04-12T07:20:19Z</time>
      </trkpt>
      <trkpt lat="47.20277" lon="5.54939">
        <ele>295.74</ele>
        <time>2013-04-12T07:20:31Z</time>
      </trkpt>
      <trkpt lat="47.20296" lon="5.54931">
        <ele>296.7</ele>
        <time>2013-04-12T07:20:40Z</time>
      </trkpt>
      <trkpt lat="47.20316" lon="5.54916">
        <ele>297.18</ele>
        <time>2013-04-12T07:20:50Z</time>
      </trkpt>
      <trkpt lat="47.20328" lon="5.549">
        <ele>298.15</ele>
        <time>2013-04-12T07:20:58Z</time>
      </trkpt>
      <trkpt lat="47.2034" lon="5.54879">
        <ele>299.11</ele>
        <time>2013-04-12T07:21:07Z</time>
      </trkpt>
      <trkpt lat="47.20344" lon="5.54873">
        <ele>299.11</ele>
        <time>2013-04-12T07:21:10Z</time>
      </trkpt>
      <trkpt lat="47.2035" lon="5.5486">
        <ele>300.55</ele>
        <time>2013-04-12T07:21:15Z</time>
      </trkpt>
      <trkpt lat="47.2036" lon="5.54846">
        <ele>301.99</ele>
        <time>2013-04-12T07:21:23Z</time>
      </trkpt>
      <trkpt lat="47.20372" lon="5.54827">
        <ele>305.36</ele>
        <time>2013-04-12T07:21:33Z</time>
      </trkpt>
      <trkpt lat="47.20384" lon="5.54807">
        <ele>307.28</ele>
        <time>2013-04-12T07:21:45Z</time>
      </trkpt>
      <trkpt lat="47.204" lon="5.5478">
        <ele>310.16</ele>
        <time>2013-04-12T07:21:59Z</time>
      </trkpt>
      <trkpt lat="47.20417" lon="5.54761">
        <ele>314.01</ele>
        <time>2013-04-12T07:22:12Z</time>
      </trkpt>
      <trkpt lat="47.20438" lon="5.54751">
        <ele>316.41</ele>
        <time>2013-04-12T07:22:25Z</time>
      </trkpt>
      <trkpt lat="47.20455" lon="5.54743">
        <ele>320.26</ele>
        <time>2013-04-12T07:22:37Z</time>
      </trkpt>
      <trkpt lat="47.20471" lon="5.54736">
        <ele>322.66</ele>
        <time>2013-04-12T07:22:49Z</time>
      </trkpt>
      <trkpt lat="47.20497" lon="5.54728">
        <ele>326.02</ele>
        <time>2013-04-12T07:23:04Z</time>
      </trkpt>
      <trkpt lat="47.20507" lon="5.54725">
        <ele>326.5</ele>
        <time>2013-04-12T07:23:08Z</time>
      </trkpt>
      <trkpt lat="47.20529" lon="5.54708">
        <ele>326.99</ele>
        <time>2013-04-12T07:23:19Z</time>
      </trkpt>
      <trkpt lat="47.20557" lon="5.54694">
        <ele>327.95</ele>
        <time>2013-04-12T07:23:31Z</time>
      </trkpt>
      <trkpt lat="47.20586" lon="5.54695">
        <ele>326.99</ele>
        <time>2013-04-12T07:23:44Z</time>
      </trkpt>
      <trkpt lat="47.206" lon="5.5471">
        <ele>326.5</ele>
        <time>2013-04-12T07:23:50Z</time>
      </trkpt>
      <trkpt lat="47.20618" lon="5.54741">
        <ele>326.99</ele>
        <time>2013-04-12T07:24:02Z</time>
      </trkpt>
      <trkpt lat="47.20638" lon="5.54786">
        <ele>325.06</ele>
        <time>2013-04-12T07:24:17Z</time>
      </trkpt>
      <trkpt lat="47.20653" lon="5.54823">
        <ele>325.06</ele>
        <time>2013-04-12T07:24:29Z</time>
      </trkpt>
      <trkpt lat="47.20671" lon="5.5487">
        <ele>324.58</ele>
        <time>2013-04-12T07:24:44Z</time>
      </trkpt>
      <trkpt lat="47.20695" lon="5.54914">
        <ele>325.06</ele>
        <time>2013-04-12T07:24:59Z</time>
      </trkpt>
      <trkpt lat="47.20717" lon="5.54958">
        <ele>325.54</ele>
        <time>2013-04-12T07:25:13Z</time>
      </trkpt>
      <trkpt lat="47.20737" lon="5.54998">
        <ele>326.99</ele>
        <time>2013-04-12T07:25:26Z</time>
      </trkpt>
      <trkpt lat="47.20755" lon="5.55048">
        <ele>325.54</ele>
        <time>2013-04-12T07:25:40Z</time>
      </trkpt>
      <trkpt lat="47.20778" lon="5.55081">
        <ele>324.58</ele>
        <time>2013-04-12T07:25:52Z</time>
      </trkpt>
      <trkpt lat="47.208" lon="5.55122">
        <ele>321.7</ele>
        <time>2013-04-12T07:26:07Z</time>
      </trkpt>
      <trkpt lat="47.20816" lon="5.55143">
        <ele>318.33</ele>
        <time>2013-04-12T07:26:15Z</time>
      </trkpt>
      <trkpt lat="47.20829" lon="5.55159">
        <ele>317.37</ele>
        <time>2013-04-12T07:26:22Z</time>
      </trkpt>
      <trkpt lat="47.20845" lon="5.55177">
        <ele>314.01</ele>
        <time>2013-04-12T07:26:31Z</time>
      </trkpt>
      <trkpt lat="47.20851" lon="5.55189">
        <ele>311.6</ele>
        <time>2013-04-12T07:26:36Z</time>
      </trkpt>
      <trkpt lat="47.20846" lon="5.55204">
        <ele>307.76</ele>
        <time>2013-04-12T07:26:42Z</time>
      </trkpt>
      <trkpt lat="47.20831" lon="5.55222">
        <ele>302.95</ele>
        <time>2013-04-12T07:26:50Z</time>
      </trkpt>
      <trkpt lat="47.20822" lon="5.55233">
        <ele>301.03</ele>
        <time>2013-04-12T07:26:55Z</time>
      </trkpt>
      <trkpt lat="47.20818" lon="5.55246">
        <ele>299.59</ele>
        <time>2013-04-12T07:26:59Z</time>
      </trkpt>
      <trkpt lat="47.20816" lon="5.55262">
        <ele>297.18</ele>
        <time>2013-04-12T07:27:03Z</time>
      </trkpt>
      <trkpt lat="47.20813" lon="5.55289">
        <ele>293.34</ele>
        <time>2013-04-12T07:27:11Z</time>
      </trkpt>
      <trkpt lat="47.2081" lon="5.55327">
        <ele>289.49</ele>
        <time>2013-04-12T07:27:22Z</time>
      </trkpt>
      <trkpt lat="47.20811" lon="5.55331">
        <ele>289.49</ele>
        <time>2013-04-12T07:27:23Z</time>
      </trkpt>
      <trkpt lat="47.20826" lon="5.55365">
        <ele>285.65</ele>
        <time>2013-04-12T07:27:34Z</time>
      </trkpt>
      <trkpt lat="47.20824" lon="5.55381">
        <ele>283.73</ele>
        <time>2013-04-12T07:27:38Z</time>
      </trkpt>
      <trkpt lat="47.20821" lon="5.5543">
        <ele>280.84</ele>
        <time>2013-04-12T07:27:50Z</time>
      </trkpt>
      <trkpt lat="47.20822" lon="5.55458">
        <ele>278.92</ele>
        <time>2013-04-12T07:27:57Z</time>
      </trkpt>
      <trkpt lat="47.20834" lon="5.55512">
        <ele>276.52</ele>
        <time>2013-04-12T07:28:12Z</time>
      </trkpt>
      <trkpt lat="47.20847" lon="5.5556">
        <ele>276.52</ele>
        <time>2013-04-12T07:28:23Z</time>
      </trkpt>
      <trkpt lat="47.20849" lon="5.55605">
        <ele>276.04</ele>
        <time>2013-04-12T07:28:34Z</time>
      </trkpt>
      <trkpt lat="47.20844" lon="5.55655">
        <ele>275.07</ele>
        <time>2013-04-12T07:28:47Z</time>
      </trkpt>
      <trkpt lat="47.20838" lon="5.55692">
        <ele>276.04</ele>
        <time>2013-04-12T07:28:56Z</time>
      </trkpt>
      <trkpt lat="47.20834" lon="5.55731">
        <ele>273.15</ele>
        <time>2013-04-12T07:29:06Z</time>
      </trkpt>
      <trkpt lat="47.20826" lon="5.55775">
        <ele>270.75</ele>
        <time>2013-04-12T07:29:17Z</time>
      </trkpt>
      <trkpt lat="47.20826" lon="5.55779">
        <ele>270.27</ele>
        <time>2013-04-12T07:29:18Z</time>
      </trkpt>
      <trkpt lat="47.2081" lon="5.55816">
        <ele>269.31</ele>
        <time>2013-04-12T07:29:30Z</time>
      </trkpt>
      <trkpt lat="47.20788" lon="5.55832">
        <ele>266.42</ele>
        <time>2013-04-12T07:29:41Z</time>
      </trkpt>
      <trkpt lat="47.20771" lon="5.55838">
        <ele>264.98</ele>
        <time>2013-04-12T07:29:48Z</time>
      </trkpt>
      <trkpt lat="47.20764" lon="5.55849">
        <ele>263.54</ele>
        <time>2013-04-12T07:29:51Z</time>
      </trkpt>
      <trkpt lat="47.20763" lon="5.55855">
        <ele>263.54</ele>
        <time>2013-04-12T07:29:52Z</time>
      </trkpt>
      <trkpt lat="47.2076" lon="5.55873">
        <ele>261.62</ele>
        <time>2013-04-12T07:29:56Z</time>
      </trkpt>
      <trkpt lat="47.20768" lon="5.5591">
        <ele>258.25</ele>
        <time>2013-04-12T07:30:06Z</time>
      </trkpt>
      <trkpt lat="47.2077" lon="5.55944">
        <ele>255.85</ele>
        <time>2013-04-12T07:30:15Z</time>
      </trkpt>
      <trkpt lat="47.2076" lon="5.55951">
        <ele>252.96</ele>
        <time>2013-04-12T07:30:21Z</time>
      </trkpt>
      <trkpt lat="47.2075" lon="5.55952">
        <ele>252</ele>
        <time>2013-04-12T07:30:25Z</time>
      </trkpt>
      <trkpt lat="47.20739" lon="5.55956">
        <ele>251.04</ele>
        <time>2013-04-12T07:30:29Z</time>
      </trkpt>
      <trkpt lat="47.20715" lon="5.5597">
        <ele>249.12</ele>
        <time>2013-04-12T07:30:38Z</time>
      </trkpt>
      <trkpt lat="47.20693" lon="5.55997">
        <ele>246.23</ele>
        <time>2013-04-12T07:30:48Z</time>
      </trkpt>
      <trkpt lat="47.20684" lon="5.56013">
        <ele>244.31</ele>
        <time>2013-04-12T07:30:53Z</time>
      </trkpt>
      <trkpt lat="47.20677" lon="5.56024">
        <ele>243.35</ele>
        <time>2013-04-12T07:30:57Z</time>
      </trkpt>
      <trkpt lat="47.20663" lon="5.56061">
        <ele>240.47</ele>
        <time>2013-04-12T07:31:08Z</time>
      </trkpt>
      <trkpt lat="47.20661" lon="5.56099">
        <ele>238.06</ele>
        <time>2013-04-12T07:31:17Z</time>
      </trkpt>
      <trkpt lat="47.20657" lon="5.56145">
        <ele>235.18</ele>
        <time>2013-04-12T07:31:29Z</time>
      </trkpt>
      <trkpt lat="47.20646" lon="5.56175">
        <ele>234.22</ele>
        <time>2013-04-12T07:31:37Z</time>
      </trkpt>
      <trkpt lat="47.20628" lon="5.56204">
        <ele>230.85</ele>
        <time>2013-04-12T07:31:47Z</time>
      </trkpt>
      <trkpt lat="47.20626" lon="5.56208">
        <ele>230.37</ele>
        <time>2013-04-12T07:31:48Z</time>
      </trkpt>
      <trkpt lat="47.20619" lon="5.56241">
        <ele>227.49</ele>
        <time>2013-04-12T07:31:57Z</time>
      </trkpt>
      <trkpt lat="47.20621" lon="5.56284">
        <ele>226.05</ele>
        <time>2013-04-12T07:32:08Z</time>
      </trkpt>
      <trkpt lat="47.20622" lon="5.56321">
        <ele>224.12</ele>
        <time>2013-04-12T07:32:17Z</time>
      </trkpt>
      <trkpt lat="47.20626" lon="5.56376">
        <ele>224.12</ele>
        <time>2013-04-12T07:32:31Z</time>
      </trkpt>
      <trkpt lat="47.20629" lon="5.56419">
        <ele>221.24</ele>
        <time>2013-04-12T07:32:44Z</time>
      </trkpt>
      <trkpt lat="47.20649" lon="5.56458">
        <ele>218.36</ele>
        <time>2013-04-12T07:32:57Z</time>
      </trkpt>
      <trkpt lat="47.20666" lon="5.56474">
        <ele>216.91</ele>
        <time>2013-04-12T07:33:04Z</time>
      </trkpt>
      <trkpt lat="47.20689" lon="5.56517">
        <ele>214.03</ele>
        <time>2013-04-12T07:33:18Z</time>
      </trkpt>
      <trkpt lat="47.20695" lon="5.56566">
        <ele>213.55</ele>
        <time>2013-04-12T07:33:32Z</time>
      </trkpt>
      <trkpt lat="47.20693" lon="5.56604">
        <ele>212.59</ele>
        <time>2013-04-12T07:33:44Z</time>
      </trkpt>
      <trkpt lat="47.20696" lon="5.56615">
        <ele>213.07</ele>
        <time>2013-04-12T07:33:49Z</time>
      </trkpt>
      <trkpt lat="47.20694" lon="5.56621">
        <ele>212.59</ele>
        <time>2013-04-12T07:33:51Z</time>
      </trkpt>
      <trkpt lat="47.20694" lon="5.56625">
        <ele>213.07</ele>
        <time>2013-04-12T07:33:53Z</time>
      </trkpt>
      <trkpt lat="47.20693" lon="5.56648">
        <ele>214.03</ele>
        <time>2013-04-12T07:33:59Z</time>
      </trkpt>
      <trkpt lat="47.20701" lon="5.56667">
        <ele>213.55</ele>
        <time>2013-04-12T07:34:05Z</time>
      </trkpt>
      <trkpt lat="47.20732" lon="5.5671">
        <ele>214.99</ele>
        <time>2013-04-12T07:34:20Z</time>
      </trkpt>
      <trkpt lat="47.20762" lon="5.56742">
        <ele>213.55</ele>
        <time>2013-04-12T07:34:34Z</time>
      </trkpt>
      <trkpt lat="47.20776" lon="5.56758">
        <ele>212.11</ele>
        <time>2013-04-12T07:34:43Z</time>
      </trkpt>
      <trkpt lat="47.2079" lon="5.56795">
        <ele>212.11</ele>
        <time>2013-04-12T07:34:56Z</time>
      </trkpt>
      <trkpt lat="47.20806" lon="5.56832">
        <ele>212.59</ele>
        <time>2013-04-12T07:35:06Z</time>
      </trkpt>
      <trkpt lat="47.20804" lon="5.56854">
        <ele>213.55</ele>
        <time>2013-04-12T07:35:13Z</time>
      </trkpt>
      <trkpt lat="47.20792" lon="5.56887">
        <ele>215.47</ele>
        <time>2013-04-12T07:35:27Z</time>
      </trkpt>
      <trkpt lat="47.20776" lon="5.56924">
        <ele>216.43</ele>
        <time>2013-04-12T07:35:40Z</time>
      </trkpt>
      <trkpt lat="47.20775" lon="5.5696">
        <ele>219.8</ele>
        <time>2013-04-12T07:35:55Z</time>
      </trkpt>
      <trkpt lat="47.20779" lon="5.56968">
        <ele>220.28</ele>
        <time>2013-04-12T07:35:58Z</time>
      </trkpt>
      <trkpt lat="47.20784" lon="5.56999">
        <ele>223.16</ele>
        <time>2013-04-12T07:36:10Z</time>
      </trkpt>
      <trkpt lat="47.20785" lon="5.57041">
        <ele>226.53</ele>
        <time>2013-04-12T07:36:24Z</time>
      </trkpt>
      <trkpt lat="47.20784" lon="5.57049">
        <ele>227.01</ele>
        <time>2013-04-12T07:36:27Z</time>
      </trkpt>
      <trkpt lat="47.20778" lon="5.57079">
        <ele>229.89</ele>
        <time>2013-04-12T07:36:40Z</time>
      </trkpt>
      <trkpt lat="47.20773" lon="5.57092">
        <ele>231.33</ele>
        <time>2013-04-12T07:36:47Z</time>
      </trkpt>
      <trkpt lat="47.20771" lon="5.57116">
        <ele>235.18</ele>
        <time>2013-04-12T07:36:59Z</time>
      </trkpt>
      <trkpt lat="47.20772" lon="5.5714">
        <ele>238.54</ele>
        <time>2013-04-12T07:37:09Z</time>
      </trkpt>
      <trkpt lat="47.20772" lon="5.57184">
        <ele>239.51</ele>
        <time>2013-04-12T07:37:23Z</time>
      </trkpt>
      <trkpt lat="47.2077" lon="5.57201">
        <ele>241.43</ele>
        <time>2013-04-12T07:37:29Z</time>
      </trkpt>
      <trkpt lat="47.20768" lon="5.57232">
        <ele>244.31</ele>
        <time>2013-04-12T07:37:41Z</time>
      </trkpt>
      <trkpt lat="47.20777" lon="5.5725">
        <ele>246.23</ele>
        <time>2013-04-12T07:37:50Z</time>
      </trkpt>
      <trkpt lat="47.20798" lon="5.57301">
        <ele>249.6</ele>
        <time>2013-04-12T07:38:06Z</time>
      </trkpt>
      <trkpt lat="47.20787" lon="5.57341">
        <ele>251.52</ele>
        <time>2013-04-12T07:38:22Z</time>
      </trkpt>
      <trkpt lat="47.20773" lon="5.57371">
        <ele>255.37</ele>
        <time>2013-04-12T07:38:37Z</time>
      </trkpt>
      <trkpt lat="47.20771" lon="5.57375">
        <ele>254.41</ele>
        <time>2013-04-12T07:38:39Z</time>
      </trkpt>
      <trkpt lat="47.2077" lon="5.5738">
        <ele>254.89</ele>
        <time>2013-04-12T07:38:42Z</time>
      </trkpt>
      <trkpt lat="47.20764" lon="5.57419">
        <ele>259.69</ele>
        <time>2013-04-12T07:38:58Z</time>
      </trkpt>
      <trkpt lat="47.20764" lon="5.57454">
        <ele>262.1</ele>
        <time>2013-04-12T07:39:13Z</time>
      </trkpt>
      <trkpt lat="47.20767" lon="5.57483">
        <ele>265.46</ele>
        <time>2013-04-12T07:39:25Z</time>
      </trkpt>
      <trkpt lat="47.20769" lon="5.5752">
        <ele>268.83</ele>
        <time>2013-04-12T07:39:41Z</time>
      </trkpt>
      <trkpt lat="47.20767" lon="5.57538">
        <ele>270.75</ele>
        <time>2013-04-12T07:39:49Z</time>
      </trkpt>
      <trkpt lat="47.20763" lon="5.57554">
        <ele>273.63</ele>
        <time>2013-04-12T07:39:57Z</time>
      </trkpt>
      <trkpt lat="47.20759" lon="5.57571">
        <ele>275.07</ele>
        <time>2013-04-12T07:40:04Z</time>
      </trkpt>
      <trkpt lat="47.20759" lon="5.57599">
        <ele>278.92</ele>
        <time>2013-04-12T07:40:17Z</time>
      </trkpt>
      <trkpt lat="47.20761" lon="5.57632">
        <ele>281.32</ele>
        <time>2013-04-12T07:40:31Z</time>
      </trkpt>
      <trkpt lat="47.20767" lon="5.57662">
        <ele>284.69</ele>
        <time>2013-04-12T07:40:44Z</time>
      </trkpt>
      <trkpt lat="47.20785" lon="5.57688">
        <ele>287.57</ele>
        <time>2013-04-12T07:41:01Z</time>
      </trkpt>
      <trkpt lat="47.20791" lon="5.57699">
        <ele>289.01</ele>
        <time>2013-04-12T07:41:08Z</time>
      </trkpt>
      <trkpt lat="47.20795" lon="5.5771">
        <ele>289.01</ele>
        <time>2013-04-12T07:41:12Z</time>
      </trkpt>
      <trkpt lat="47.20793" lon="5.57724">
        <ele>291.42</ele>
        <time>2013-04-12T07:41:18Z</time>
      </trkpt>
      <trkpt lat="47.20789" lon="5.57746">
        <ele>294.3</ele>
        <time>2013-04-12T07:41:28Z</time>
      </trkpt>
      <trkpt lat="47.20788" lon="5.57783">
        <ele>297.18</ele>
        <time>2013-04-12T07:41:43Z</time>
      </trkpt>
      <trkpt lat="47.20788" lon="5.57822">
        <ele>300.07</ele>
        <time>2013-04-12T07:41:58Z</time>
      </trkpt>
      <trkpt lat="47.20785" lon="5.57855">
        <ele>301.51</ele>
        <time>2013-04-12T07:42:14Z</time>
      </trkpt>
      <trkpt lat="47.20786" lon="5.57861">
        <ele>301.99</ele>
        <time>2013-04-12T07:42:18Z</time>
      </trkpt>
      <trkpt lat="47.20785" lon="5.57865">
        <ele>301.99</ele>
        <time>2013-04-12T07:42:20Z</time>
      </trkpt>
      <trkpt lat="47.20786" lon="5.57873">
        <ele>302.95</ele>
        <time>2013-04-12T07:42:23Z</time>
      </trkpt>
      <trkpt lat="47.20765" lon="5.57896">
        <ele>303.91</ele>
        <time>2013-04-12T07:42:40Z</time>
      </trkpt>
      <trkpt lat="47.20763" lon="5.57899">
        <ele>303.43</ele>
        <time>2013-04-12T07:42:42Z</time>
      </trkpt>
      <trkpt lat="47.20744" lon="5.57938">
        <ele>307.28</ele>
        <time>2013-04-12T07:42:58Z</time>
      </trkpt>
      <trkpt lat="47.20737" lon="5.57961">
        <ele>307.28</ele>
        <time>2013-04-12T07:43:08Z</time>
      </trkpt>
      <trkpt lat="47.20715" lon="5.57989">
        <ele>310.64</ele>
        <time>2013-04-12T07:43:26Z</time>
      </trkpt>
      <trkpt lat="47.20707" lon="5.58015">
        <ele>309.68</ele>
        <time>2013-04-12T07:43:43Z</time>
      </trkpt>
      <trkpt lat="47.20695" lon="5.58057">
        <ele>307.28</ele>
        <time>2013-04-12T07:43:59Z</time>
      </trkpt>
      <trkpt lat="47.2069" lon="5.58071">
        <ele>305.84</ele>
        <time>2013-04-12T07:44:03Z</time>
      </trkpt>
      <trkpt lat="47.2068" lon="5.58089">
        <ele>303.91</ele>
        <time>2013-04-12T07:44:08Z</time>
      </trkpt>
      <trkpt lat="47.20674" lon="5.58109">
        <ele>301.99</ele>
        <time>2013-04-12T07:44:14Z</time>
      </trkpt>
      <trkpt lat="47.20665" lon="5.58135">
        <ele>300.55</ele>
        <time>2013-04-12T07:44:21Z</time>
      </trkpt>
      <trkpt lat="47.20654" lon="5.58182">
        <ele>297.67</ele>
        <time>2013-04-12T07:44:35Z</time>
      </trkpt>
      <trkpt lat="47.20648" lon="5.58199">
        <ele>298.15</ele>
        <time>2013-04-12T07:44:44Z</time>
      </trkpt>
      <trkpt lat="47.20623" lon="5.58242">
        <ele>298.15</ele>
        <time>2013-04-12T07:44:59Z</time>
      </trkpt>
      <trkpt lat="47.20599" lon="5.58262">
        <ele>297.67</ele>
        <time>2013-04-12T07:45:14Z</time>
      </trkpt>
      <trkpt lat="47.20559" lon="5.58309">
        <ele>299.11</ele>
        <time>2013-04-12T07:45:31Z</time>
      </trkpt>
      <trkpt lat="47.20534" lon="5.58356">
        <ele>301.51</ele>
        <time>2013-04-12T07:45:46Z</time>
      </trkpt>
      <trkpt lat="47.2053" lon="5.58402">
        <ele>303.43</ele>
        <time>2013-04-12T07:46:02Z</time>
      </trkpt>
      <trkpt lat="47.20532" lon="5.58442">
        <ele>306.8</ele>
        <time>2013-04-12T07:46:16Z</time>
      </trkpt>
      <trkpt lat="47.20534" lon="5.58477">
        <ele>309.68</ele>
        <time>2013-04-12T07:46:29Z</time>
      </trkpt>
      <trkpt lat="47.20529" lon="5.58501">
        <ele>313.05</ele>
        <time>2013-04-12T07:46:40Z</time>
      </trkpt>
      <trkpt lat="47.20526" lon="5.58525">
        <ele>315.93</ele>
        <time>2013-04-12T07:46:50Z</time>
      </trkpt>
      <trkpt lat="47.20528" lon="5.58557">
        <ele>319.3</ele>
        <time>2013-04-12T07:47:03Z</time>
      </trkpt>
      <trkpt lat="47.20529" lon="5.58584">
        <ele>321.7</ele>
        <time>2013-04-12T07:47:16Z</time>
      </trkpt>
      <trkpt lat="47.20528" lon="5.58604">
        <ele>322.66</ele>
        <time>2013-04-12T07:47:23Z</time>
      </trkpt>
      <trkpt lat="47.20525" lon="5.58636">
        <ele>325.54</ele>
        <time>2013-04-12T07:47:37Z</time>
      </trkpt>
      <trkpt lat="47.20515" lon="5.58655">
        <ele>328.91</ele>
        <time>2013-04-12T07:47:49Z</time>
      </trkpt>
      <trkpt lat="47.20493" lon="5.58672">
        <ele>332.75</ele>
        <time>2013-04-12T07:48:03Z</time>
      </trkpt>
      <trkpt lat="47.20483" lon="5.58689">
        <ele>332.27</ele>
        <time>2013-04-12T07:48:13Z</time>
      </trkpt>
      <trkpt lat="47.20486" lon="5.58701">
        <ele>331.79</ele>
        <time>2013-04-12T07:48:18Z</time>
      </trkpt>
      <trkpt lat="47.20493" lon="5.58751">
        <ele>327.95</ele>
        <time>2013-04-12T07:48:34Z</time>
      </trkpt>
      <trkpt lat="47.20495" lon="5.58753">
        <ele>327.47</ele>
        <time>2013-04-12T07:48:35Z</time>
      </trkpt>
      <trkpt lat="47.20538" lon="5.58779">
        <ele>326.02</ele>
        <time>2013-04-12T07:48:50Z</time>
      </trkpt>
      <trkpt lat="47.20561" lon="5.58788">
        <ele>322.66</ele>
        <time>2013-04-12T07:48:59Z</time>
      </trkpt>
      <trkpt lat="47.20576" lon="5.58796">
        <ele>320.74</ele>
        <time>2013-04-12T07:49:04Z</time>
      </trkpt>
      <trkpt lat="47.206" lon="5.58804">
        <ele>317.37</ele>
        <time>2013-04-12T07:49:11Z</time>
      </trkpt>
      <trkpt lat="47.20612" lon="5.58809">
        <ele>314.97</ele>
        <time>2013-04-12T07:49:15Z</time>
      </trkpt>
      <trkpt lat="47.20618" lon="5.58813">
        <ele>314.01</ele>
        <time>2013-04-12T07:49:18Z</time>
      </trkpt>
      <trkpt lat="47.20628" lon="5.5882">
        <ele>310.64</ele>
        <time>2013-04-12T07:49:23Z</time>
      </trkpt>
      <trkpt lat="47.20631" lon="5.58823">
        <ele>309.2</ele>
        <time>2013-04-12T07:49:25Z</time>
      </trkpt>
      <trkpt lat="47.20638" lon="5.58829">
        <ele>306.8</ele>
        <time>2013-04-12T07:49:29Z</time>
      </trkpt>
      <trkpt lat="47.20646" lon="5.58833">
        <ele>303.91</ele>
        <time>2013-04-12T07:49:33Z</time>
      </trkpt>
      <trkpt lat="47.2066" lon="5.58841">
        <ele>301.51</ele>
        <time>2013-04-12T07:49:38Z</time>
      </trkpt>
      <trkpt lat="47.20675" lon="5.58847">
        <ele>299.11</ele>
        <time>2013-04-12T07:49:42Z</time>
      </trkpt>
      <trkpt lat="47.20687" lon="5.58851">
        <ele>298.15</ele>
        <time>2013-04-12T07:49:46Z</time>
      </trkpt>
      <trkpt lat="47.20723" lon="5.58876">
        <ele>293.82</ele>
        <time>2013-04-12T07:50:01Z</time>
      </trkpt>
      <trkpt lat="47.20764" lon="5.58903">
        <ele>292.38</ele>
        <time>2013-04-12T07:50:15Z</time>
      </trkpt>
      <trkpt lat="47.20788" lon="5.58919">
        <ele>289.97</ele>
        <time>2013-04-12T07:50:25Z</time>
      </trkpt>
      <trkpt lat="47.20809" lon="5.58922">
        <ele>289.97</ele>
        <time>2013-04-12T07:50:32Z</time>
      </trkpt>
      <trkpt lat="47.20846" lon="5.58947">
        <ele>288.53</ele>
        <time>2013-04-12T07:50:47Z</time>
      </trkpt>
      <trkpt lat="47.20875" lon="5.58968">
        <ele>288.05</ele>
        <time>2013-04-12T07:50:59Z</time>
      </trkpt>
      <trkpt lat="47.20904" lon="5.58994">
        <ele>288.53</ele>
        <time>2013-04-12T07:51:13Z</time>
      </trkpt>
      <trkpt lat="47.20934" lon="5.59018">
        <ele>289.01</ele>
        <time>2013-04-12T07:51:27Z</time>
      </trkpt>
      <trkpt lat="47.20944" lon="5.59059">
        <ele>290.46</ele>
        <time>2013-04-12T07:51:42Z</time>
      </trkpt>
      <trkpt lat="47.20972" lon="5.59105">
        <ele>288.53</ele>
        <time>2013-04-12T07:51:59Z</time>
      </trkpt>
      <trkpt lat="47.21001" lon="5.5915">
        <ele>288.05</ele>
        <time>2013-04-12T07:52:15Z</time>
      </trkpt>
      <trkpt lat="47.21032" lon="5.59182">
        <ele>284.69</ele>
        <time>2013-04-12T07:52:29Z</time>
      </trkpt>
      <trkpt lat="47.21042" lon="5.59203">
        <ele>283.73</ele>
        <time>2013-04-12T07:52:36Z</time>
      </trkpt>
      <trkpt lat="47.21048" lon="5.59211">
        <ele>282.77</ele>
        <time>2013-04-12T07:52:40Z</time>
      </trkpt>
      <trkpt lat="47.21055" lon="5.59221">
        <ele>281.32</ele>
        <time>2013-04-12T07:52:44Z</time>
      </trkpt>
      <trkpt lat="47.21064" lon="5.59242">
        <ele>279.88</ele>
        <time>2013-04-12T07:52:53Z</time>
      </trkpt>
      <trkpt lat="47.21066" lon="5.5925">
        <ele>277.96</ele>
        <time>2013-04-12T07:52:57Z</time>
      </trkpt>
      <trkpt lat="47.21075" lon="5.59262">
        <ele>277</ele>
        <time>2013-04-12T07:53:02Z</time>
      </trkpt>
      <trkpt lat="47.21088" lon="5.59275">
        <ele>276.04</ele>
        <time>2013-04-12T07:53:07Z</time>
      </trkpt>
      <trkpt lat="47.21111" lon="5.59298">
        <ele>274.11</ele>
        <time>2013-04-12T07:53:14Z</time>
      </trkpt>
      <trkpt lat="47.21125" lon="5.5932">
        <ele>272.67</ele>
        <time>2013-04-12T07:53:22Z</time>
      </trkpt>
      <trkpt lat="47.21139" lon="5.59348">
        <ele>268.83</ele>
        <time>2013-04-12T07:53:34Z</time>
      </trkpt>
      <trkpt lat="47.21139" lon="5.59351">
        <ele>268.35</ele>
        <time>2013-04-12T07:53:35Z</time>
      </trkpt>
      <trkpt lat="47.2114" lon="5.59355">
        <ele>268.35</ele>
        <time>2013-04-12T07:53:36Z</time>
      </trkpt>
      <trkpt lat="47.21154" lon="5.59371">
        <ele>266.9</ele>
        <time>2013-04-12T07:53:44Z</time>
      </trkpt>
      <trkpt lat="47.21157" lon="5.59375">
        <ele>267.38</ele>
        <time>2013-04-12T07:53:46Z</time>
      </trkpt>
      <trkpt lat="47.21163" lon="5.59383">
        <ele>267.38</ele>
        <time>2013-04-12T07:53:51Z</time>
      </trkpt>
      <trkpt lat="47.21168" lon="5.59409">
        <ele>267.38</ele>
        <time>2013-04-12T07:54:01Z</time>
      </trkpt>
      <trkpt lat="47.21169" lon="5.59412">
        <ele>267.38</ele>
        <time>2013-04-12T07:54:02Z</time>
      </trkpt>
      <trkpt lat="47.21174" lon="5.59417">
        <ele>267.38</ele>
        <time>2013-04-12T07:54:04Z</time>
      </trkpt>
      <trkpt lat="47.2119" lon="5.59426">
        <ele>265.94</ele>
        <time>2013-04-12T07:54:10Z</time>
      </trkpt>
      <trkpt lat="47.21194" lon="5.59436">
        <ele>264.98</ele>
        <time>2013-04-12T07:54:22Z</time>
      </trkpt>
      <trkpt lat="47.21194" lon="5.5944">
        <ele>264.5</ele>
        <time>2013-04-12T07:54:26Z</time>
      </trkpt>
      <trkpt lat="47.21193" lon="5.59442">
        <ele>264.98</ele>
        <time>2013-04-12T07:54:30Z</time>
      </trkpt>
      <trkpt lat="47.21204" lon="5.59449">
        <ele>264.5</ele>
        <time>2013-04-12T07:54:35Z</time>
      </trkpt>
      <trkpt lat="47.21201" lon="5.59451">
        <ele>264.5</ele>
        <time>2013-04-12T07:54:40Z</time>
      </trkpt>
      <trkpt lat="47.21209" lon="5.59462">
        <ele>264.5</ele>
        <time>2013-04-12T07:54:43Z</time>
      </trkpt>
      <trkpt lat="47.21211" lon="5.59465">
        <ele>264.5</ele>
        <time>2013-04-12T07:54:45Z</time>
      </trkpt>
      <trkpt lat="47.21217" lon="5.59475">
        <ele>264.98</ele>
        <time>2013-04-12T07:54:50Z</time>
      </trkpt>
      <trkpt lat="47.21216" lon="5.59483">
        <ele>265.46</ele>
        <time>2013-04-12T07:54:52Z</time>
      </trkpt>
      <trkpt lat="47.21212" lon="5.59496">
        <ele>265.94</ele>
        <time>2013-04-12T07:54:57Z</time>
      </trkpt>
      <trkpt lat="47.21209" lon="5.59504">
        <ele>266.42</ele>
        <time>2013-04-12T07:55:01Z</time>
      </trkpt>
      <trkpt lat="47.212" lon="5.59514">
        <ele>266.9</ele>
        <time>2013-04-12T07:55:11Z</time>
      </trkpt>
      <trkpt lat="47.21196" lon="5.59522">
        <ele>266.9</ele>
        <time>2013-04-12T07:55:15Z</time>
      </trkpt>
      <trkpt lat="47.21182" lon="5.59526">
        <ele>267.38</ele>
        <time>2013-04-12T07:55:21Z</time>
      </trkpt>
      <trkpt lat="47.21175" lon="5.59529">
        <ele>267.86</ele>
        <time>2013-04-12T07:55:26Z</time>
      </trkpt>
      <trkpt lat="47.21169" lon="5.5953">
        <ele>267.86</ele>
        <time>2013-04-12T07:55:28Z</time>
      </trkpt>
      <trkpt lat="47.21164" lon="5.59535">
        <ele>268.35</ele>
        <time>2013-04-12T07:55:30Z</time>
      </trkpt>
      <trkpt lat="47.21158" lon="5.59543">
        <ele>268.83</ele>
        <time>2013-04-12T07:55:34Z</time>
      </trkpt>
      <trkpt lat="47.21155" lon="5.59551">
        <ele>269.31</ele>
        <time>2013-04-12T07:55:38Z</time>
      </trkpt>
      <trkpt lat="47.21155" lon="5.59562">
        <ele>270.27</ele>
        <time>2013-04-12T07:55:42Z</time>
      </trkpt>
      <trkpt lat="47.21152" lon="5.59597">
        <ele>271.71</ele>
        <time>2013-04-12T07:55:54Z</time>
      </trkpt>
      <trkpt lat="47.21153" lon="5.59626">
        <ele>275.07</ele>
        <time>2013-04-12T07:56:07Z</time>
      </trkpt>
      <trkpt lat="47.21152" lon="5.59634">
        <ele>275.56</ele>
        <time>2013-04-12T07:56:28Z</time>
      </trkpt>
      <trkpt lat="47.21149" lon="5.5964">
        <ele>274.59</ele>
        <time>2013-04-12T07:56:30Z</time>
      </trkpt>
      <trkpt lat="47.21143" lon="5.59643">
        <ele>276.04</ele>
        <time>2013-04-12T07:56:33Z</time>
      </trkpt>
      <trkpt lat="47.2114" lon="5.59653">
        <ele>279.88</ele>
        <time>2013-04-12T07:56:45Z</time>
      </trkpt>
      <trkpt lat="47.21139" lon="5.59657">
        <ele>281.32</ele>
        <time>2013-04-12T07:56:47Z</time>
      </trkpt>
      <trkpt lat="47.21129" lon="5.5967">
        <ele>283.73</ele>
        <time>2013-04-12T07:56:55Z</time>
      </trkpt>
      <trkpt lat="47.21124" lon="5.59676">
        <ele>284.21</ele>
        <time>2013-04-12T07:56:59Z</time>
      </trkpt>
      <trkpt lat="47.21114" lon="5.5969">
        <ele>287.09</ele>
        <time>2013-04-12T07:57:08Z</time>
      </trkpt>
      <trkpt lat="47.21099" lon="5.59707">
        <ele>290.46</ele>
        <time>2013-04-12T07:57:19Z</time>
      </trkpt>
      <trkpt lat="47.21083" lon="5.59734">
        <ele>292.86</ele>
        <time>2013-04-12T07:57:32Z</time>
      </trkpt>
      <trkpt lat="47.2107" lon="5.59749">
        <ele>291.42</ele>
        <time>2013-04-12T07:57:41Z</time>
      </trkpt>
      <trkpt lat="47.21063" lon="5.59754">
        <ele>287.57</ele>
        <time>2013-04-12T07:57:46Z</time>
      </trkpt>
      <trkpt lat="47.21062" lon="5.59756">
        <ele>287.09</ele>
        <time>2013-04-12T07:57:47Z</time>
      </trkpt>
      <trkpt lat="47.21057" lon="5.59762">
        <ele>283.25</ele>
        <time>2013-04-12T07:57:53Z</time>
      </trkpt>
      <trkpt lat="47.21057" lon="5.59763">
        <ele>283.25</ele>
        <time>2013-04-12T07:57:54Z</time>
      </trkpt>
      <trkpt lat="47.21053" lon="5.59769">
        <ele>279.4</ele>
        <time>2013-04-12T07:57:58Z</time>
      </trkpt>
      <trkpt lat="47.2105" lon="5.59776">
        <ele>277.48</ele>
        <time>2013-04-12T07:58:01Z</time>
      </trkpt>
      <trkpt lat="47.21049" lon="5.5978">
        <ele>275.56</ele>
        <time>2013-04-12T07:58:04Z</time>
      </trkpt>
      <trkpt lat="47.21048" lon="5.59789">
        <ele>273.15</ele>
        <time>2013-04-12T07:58:13Z</time>
      </trkpt>
      <trkpt lat="47.21041" lon="5.598">
        <ele>269.79</ele>
        <time>2013-04-12T07:58:18Z</time>
      </trkpt>
      <trkpt lat="47.21029" lon="5.59811">
        <ele>266.42</ele>
        <time>2013-04-12T07:58:24Z</time>
      </trkpt>
      <trkpt lat="47.21021" lon="5.59818">
        <ele>263.54</ele>
        <time>2013-04-12T07:58:28Z</time>
      </trkpt>
      <trkpt lat="47.21013" lon="5.59823">
        <ele>260.17</ele>
        <time>2013-04-12T07:58:32Z</time>
      </trkpt>
      <trkpt lat="47.21009" lon="5.59831">
        <ele>257.77</ele>
        <time>2013-04-12T07:58:36Z</time>
      </trkpt>
      <trkpt lat="47.21002" lon="5.59836">
        <ele>255.85</ele>
        <time>2013-04-12T07:58:39Z</time>
      </trkpt>
      <trkpt lat="47.20996" lon="5.59843">
        <ele>253.93</ele>
        <time>2013-04-12T07:58:42Z</time>
      </trkpt>
      <trkpt lat="47.2099" lon="5.59859">
        <ele>250.08</ele>
        <time>2013-04-12T07:58:49Z</time>
      </trkpt>
      <trkpt lat="47.20988" lon="5.59862">
        <ele>249.6</ele>
        <time>2013-04-12T07:58:51Z</time>
      </trkpt>
      <trkpt lat="47.20983" lon="5.59868">
        <ele>247.68</ele>
        <time>2013-04-12T07:58:55Z</time>
      </trkpt>
      <trkpt lat="47.20978" lon="5.59872">
        <ele>245.27</ele>
        <time>2013-04-12T07:58:59Z</time>
      </trkpt>
      <trkpt lat="47.20976" lon="5.59874">
        <ele>244.31</ele>
        <time>2013-04-12T07:59:01Z</time>
      </trkpt>
      <trkpt lat="47.20973" lon="5.59879">
        <ele>241.91</ele>
        <time>2013-04-12T07:59:03Z</time>
      </trkpt>
      <trkpt lat="47.20943" lon="5.59906">
        <ele>241.91</ele>
        <time>2013-04-12T07:59:17Z</time>
      </trkpt>
      <trkpt lat="47.20931" lon="5.59928">
        <ele>244.79</ele>
        <time>2013-04-12T07:59:29Z</time>
      </trkpt>
      <trkpt lat="47.2093" lon="5.5993">
        <ele>244.79</ele>
        <time>2013-04-12T07:59:30Z</time>
      </trkpt>
      <trkpt lat="47.20929" lon="5.59931">
        <ele>245.27</ele>
        <time>2013-04-12T07:59:32Z</time>
      </trkpt>
      <trkpt lat="47.20912" lon="5.59952">
        <ele>246.72</ele>
        <time>2013-04-12T07:59:44Z</time>
      </trkpt>
      <trkpt lat="47.20897" lon="5.59974">
        <ele>250.08</ele>
        <time>2013-04-12T07:59:56Z</time>
      </trkpt>
      <trkpt lat="47.20868" lon="5.59992">
        <ele>252.96</ele>
        <time>2013-04-12T08:00:12Z</time>
      </trkpt>
      <trkpt lat="47.20856" lon="5.60014">
        <ele>255.85</ele>
        <time>2013-04-12T08:00:25Z</time>
      </trkpt>
      <trkpt lat="47.20836" lon="5.60036">
        <ele>259.21</ele>
        <time>2013-04-12T08:00:37Z</time>
      </trkpt>
      <trkpt lat="47.20823" lon="5.60043">
        <ele>263.06</ele>
        <time>2013-04-12T08:00:46Z</time>
      </trkpt>
      <trkpt lat="47.20816" lon="5.60048">
        <ele>265.94</ele>
        <time>2013-04-12T08:00:56Z</time>
      </trkpt>
      <trkpt lat="47.20805" lon="5.6006">
        <ele>269.31</ele>
        <time>2013-04-12T08:01:08Z</time>
      </trkpt>
      <trkpt lat="47.20808" lon="5.60082">
        <ele>272.19</ele>
        <time>2013-04-12T08:01:22Z</time>
      </trkpt>
      <trkpt lat="47.20807" lon="5.60083">
        <ele>271.71</ele>
        <time>2013-04-12T08:01:23Z</time>
      </trkpt>
      <trkpt lat="47.20799" lon="5.60091">
        <ele>276.52</ele>
        <time>2013-04-12T08:01:39Z</time>
      </trkpt>
      <trkpt lat="47.20792" lon="5.60104">
        <ele>279.88</ele>
        <time>2013-04-12T08:01:51Z</time>
      </trkpt>
      <trkpt lat="47.20787" lon="5.60122">
        <ele>283.25</ele>
        <time>2013-04-12T08:02:05Z</time>
      </trkpt>
      <trkpt lat="47.20786" lon="5.60131">
        <ele>286.61</ele>
        <time>2013-04-12T08:02:18Z</time>
      </trkpt>
      <trkpt lat="47.20773" lon="5.60147">
        <ele>289.49</ele>
        <time>2013-04-12T08:02:31Z</time>
      </trkpt>
      <trkpt lat="47.2076" lon="5.60161">
        <ele>292.86</ele>
        <time>2013-04-12T08:02:44Z</time>
      </trkpt>
      <trkpt lat="47.20759" lon="5.60166">
        <ele>292.86</ele>
        <time>2013-04-12T08:02:46Z</time>
      </trkpt>
      <trkpt lat="47.20744" lon="5.60184">
        <ele>295.26</ele>
        <time>2013-04-12T08:02:56Z</time>
      </trkpt>
      <trkpt lat="47.20715" lon="5.60206">
        <ele>293.82</ele>
        <time>2013-04-12T08:03:11Z</time>
      </trkpt>
      <trkpt lat="47.20689" lon="5.60236">
        <ele>295.26</ele>
        <time>2013-04-12T08:03:27Z</time>
      </trkpt>
      <trkpt lat="47.20668" lon="5.60268">
        <ele>298.15</ele>
        <time>2013-04-12T08:03:44Z</time>
      </trkpt>
      <trkpt lat="47.20662" lon="5.60276">
        <ele>301.03</ele>
        <time>2013-04-12T08:03:54Z</time>
      </trkpt>
      <trkpt lat="47.20657" lon="5.60281">
        <ele>302.95</ele>
        <time>2013-04-12T08:04:01Z</time>
      </trkpt>
      <trkpt lat="47.20651" lon="5.6029">
        <ele>303.91</ele>
        <time>2013-04-12T08:04:06Z</time>
      </trkpt>
      <trkpt lat="47.20647" lon="5.60293">
        <ele>305.36</ele>
        <time>2013-04-12T08:04:09Z</time>
      </trkpt>
      <trkpt lat="47.20633" lon="5.60304">
        <ele>308.72</ele>
        <time>2013-04-12T08:04:21Z</time>
      </trkpt>
      <trkpt lat="47.20627" lon="5.60318">
        <ele>312.09</ele>
        <time>2013-04-12T08:04:35Z</time>
      </trkpt>
      <trkpt lat="47.20612" lon="5.60334">
        <ele>315.45</ele>
        <time>2013-04-12T08:04:50Z</time>
      </trkpt>
      <trkpt lat="47.20604" lon="5.60351">
        <ele>318.33</ele>
        <time>2013-04-12T08:05:02Z</time>
      </trkpt>
      <trkpt lat="47.20601" lon="5.6036">
        <ele>321.22</ele>
        <time>2013-04-12T08:05:13Z</time>
      </trkpt>
      <trkpt lat="47.20597" lon="5.6037">
        <ele>324.58</ele>
        <time>2013-04-12T08:05:23Z</time>
      </trkpt>
      <trkpt lat="47.20593" lon="5.60382">
        <ele>327.95</ele>
        <time>2013-04-12T08:05:37Z</time>
      </trkpt>
      <trkpt lat="47.20584" lon="5.60391">
        <ele>331.31</ele>
        <time>2013-04-12T08:05:49Z</time>
      </trkpt>
      <trkpt lat="47.20573" lon="5.60403">
        <ele>334.68</ele>
        <time>2013-04-12T08:06:02Z</time>
      </trkpt>
      <trkpt lat="47.20567" lon="5.60417">
        <ele>338.52</ele>
        <time>2013-04-12T08:06:15Z</time>
      </trkpt>
      <trkpt lat="47.20558" lon="5.60426">
        <ele>341.41</ele>
        <time>2013-04-12T08:06:28Z</time>
      </trkpt>
      <trkpt lat="47.20546" lon="5.60439">
        <ele>344.77</ele>
        <time>2013-04-12T08:06:40Z</time>
      </trkpt>
      <trkpt lat="47.20538" lon="5.60448">
        <ele>348.13</ele>
        <time>2013-04-12T08:06:50Z</time>
      </trkpt>
      <trkpt lat="47.20535" lon="5.6046">
        <ele>351.02</ele>
        <time>2013-04-12T08:07:01Z</time>
      </trkpt>
      <trkpt lat="47.20524" lon="5.60467">
        <ele>351.98</ele>
        <time>2013-04-12T08:07:18Z</time>
      </trkpt>
      <trkpt lat="47.20522" lon="5.60481">
        <ele>352.94</ele>
        <time>2013-04-12T08:07:29Z</time>
      </trkpt>
      <trkpt lat="47.20521" lon="5.60484">
        <ele>351.5</ele>
        <time>2013-04-12T08:07:31Z</time>
      </trkpt>
      <trkpt lat="47.20531" lon="5.60507">
        <ele>352.46</ele>
        <time>2013-04-12T08:07:44Z</time>
      </trkpt>
      <trkpt lat="47.20524" lon="5.60536">
        <ele>352.94</ele>
        <time>2013-04-12T08:08:02Z</time>
      </trkpt>
      <trkpt lat="47.20524" lon="5.60542">
        <ele>352.94</ele>
        <time>2013-04-12T08:08:05Z</time>
      </trkpt>
      <trkpt lat="47.20527" lon="5.60579">
        <ele>351.02</ele>
        <time>2013-04-12T08:08:20Z</time>
      </trkpt>
      <trkpt lat="47.2053" lon="5.60623">
        <ele>348.62</ele>
        <time>2013-04-12T08:08:31Z</time>
      </trkpt>
      <trkpt lat="47.20538" lon="5.60665">
        <ele>345.25</ele>
        <time>2013-04-12T08:08:42Z</time>
      </trkpt>
      <trkpt lat="47.20549" lon="5.60726">
        <ele>342.37</ele>
        <time>2013-04-12T08:08:57Z</time>
      </trkpt>
      <trkpt lat="47.20557" lon="5.60762">
        <ele>339</ele>
        <time>2013-04-12T08:09:08Z</time>
      </trkpt>
      <trkpt lat="47.20567" lon="5.60816">
        <ele>336.12</ele>
        <time>2013-04-12T08:09:20Z</time>
      </trkpt>
      <trkpt lat="47.20579" lon="5.60874">
        <ele>333.23</ele>
        <time>2013-04-12T08:09:33Z</time>
      </trkpt>
      <trkpt lat="47.2059" lon="5.6092">
        <ele>332.27</ele>
        <time>2013-04-12T08:09:45Z</time>
      </trkpt>
      <trkpt lat="47.20597" lon="5.60954">
        <ele>331.31</ele>
        <time>2013-04-12T08:09:54Z</time>
      </trkpt>
      <trkpt lat="47.20606" lon="5.60975">
        <ele>330.83</ele>
        <time>2013-04-12T08:10:01Z</time>
      </trkpt>
      <trkpt lat="47.20627" lon="5.61027">
        <ele>329.39</ele>
        <time>2013-04-12T08:10:14Z</time>
      </trkpt>
      <trkpt lat="47.20644" lon="5.61067">
        <ele>327.95</ele>
        <time>2013-04-12T08:10:25Z</time>
      </trkpt>
      <trkpt lat="47.20661" lon="5.61112">
        <ele>325.54</ele>
        <time>2013-04-12T08:10:36Z</time>
      </trkpt>
      <trkpt lat="47.20678" lon="5.61152">
        <ele>322.66</ele>
        <time>2013-04-12T08:10:48Z</time>
      </trkpt>
      <trkpt lat="47.20695" lon="5.61201">
        <ele>321.22</ele>
        <time>2013-04-12T08:11:01Z</time>
      </trkpt>
      <trkpt lat="47.20707" lon="5.61258">
        <ele>320.74</ele>
        <time>2013-04-12T08:11:16Z</time>
      </trkpt>
      <trkpt lat="47.20714" lon="5.61305">
        <ele>320.74</ele>
        <time>2013-04-12T08:11:28Z</time>
      </trkpt>
      <trkpt lat="47.20723" lon="5.61351">
        <ele>317.37</ele>
        <time>2013-04-12T08:11:41Z</time>
      </trkpt>
      <trkpt lat="47.20732" lon="5.61379">
        <ele>314.01</ele>
        <time>2013-04-12T08:11:50Z</time>
      </trkpt>
      <trkpt lat="47.20747" lon="5.61403">
        <ele>310.64</ele>
        <time>2013-04-12T08:11:58Z</time>
      </trkpt>
      <trkpt lat="47.20765" lon="5.61418">
        <ele>307.28</ele>
        <time>2013-04-12T08:12:05Z</time>
      </trkpt>
      <trkpt lat="47.20794" lon="5.61446">
        <ele>304.88</ele>
        <time>2013-04-12T08:12:16Z</time>
      </trkpt>
      <trkpt lat="47.20818" lon="5.61488">
        <ele>302.47</ele>
        <time>2013-04-12T08:12:30Z</time>
      </trkpt>
      <trkpt lat="47.20831" lon="5.61532">
        <ele>301.03</ele>
        <time>2013-04-12T08:12:42Z</time>
      </trkpt>
      <trkpt lat="47.20837" lon="5.6157">
        <ele>299.11</ele>
        <time>2013-04-12T08:12:52Z</time>
      </trkpt>
      <trkpt lat="47.20837" lon="5.61574">
        <ele>298.63</ele>
        <time>2013-04-12T08:12:53Z</time>
      </trkpt>
      <trkpt lat="47.20834" lon="5.61584">
        <ele>297.67</ele>
        <time>2013-04-12T08:12:57Z</time>
      </trkpt>
      <trkpt lat="47.20821" lon="5.61603">
        <ele>294.78</ele>
        <time>2013-04-12T08:13:05Z</time>
      </trkpt>
      <trkpt lat="47.20807" lon="5.61615">
        <ele>291.9</ele>
        <time>2013-04-12T08:13:11Z</time>
      </trkpt>
      <trkpt lat="47.20788" lon="5.61626">
        <ele>289.01</ele>
        <time>2013-04-12T08:13:18Z</time>
      </trkpt>
      <trkpt lat="47.20774" lon="5.61623">
        <ele>287.09</ele>
        <time>2013-04-12T08:13:23Z</time>
      </trkpt>
      <trkpt lat="47.20747" lon="5.6161">
        <ele>284.21</ele>
        <time>2013-04-12T08:13:34Z</time>
      </trkpt>
      <trkpt lat="47.20721" lon="5.61612">
        <ele>279.88</ele>
        <time>2013-04-12T08:13:44Z</time>
      </trkpt>
      <trkpt lat="47.20718" lon="5.61612">
        <ele>279.88</ele>
        <time>2013-04-12T08:13:45Z</time>
      </trkpt>
      <trkpt lat="47.20691" lon="5.61615">
        <ele>277</ele>
        <time>2013-04-12T08:13:56Z</time>
      </trkpt>
      <trkpt lat="47.20684" lon="5.61607">
        <ele>275.07</ele>
        <time>2013-04-12T08:14:00Z</time>
      </trkpt>
      <trkpt lat="47.20654" lon="5.61588">
        <ele>272.67</ele>
        <time>2013-04-12T08:14:13Z</time>
      </trkpt>
      <trkpt lat="47.20628" lon="5.61578">
        <ele>269.79</ele>
        <time>2013-04-12T08:14:23Z</time>
      </trkpt>
      <trkpt lat="47.20601" lon="5.61564">
        <ele>268.83</ele>
        <time>2013-04-12T08:14:34Z</time>
      </trkpt>
      <trkpt lat="47.20566" lon="5.61533">
        <ele>269.31</ele>
        <time>2013-04-12T08:14:51Z</time>
      </trkpt>
      <trkpt lat="47.20532" lon="5.61513">
        <ele>271.23</ele>
        <time>2013-04-12T08:15:05Z</time>
      </trkpt>
      <trkpt lat="47.20492" lon="5.61513">
        <ele>270.75</ele>
        <time>2013-04-12T08:15:16Z</time>
      </trkpt>
      <trkpt lat="47.20459" lon="5.61502">
        <ele>269.79</ele>
        <time>2013-04-12T08:15:30Z</time>
      </trkpt>
      <trkpt lat="47.20432" lon="5.61493">
        <ele>270.27</ele>
        <time>2013-04-12T08:15:44Z</time>
      </trkpt>
      <trkpt lat="47.20408" lon="5.61458">
        <ele>273.15</ele>
        <time>2013-04-12T08:15:59Z</time>
      </trkpt>
      <trkpt lat="47.20393" lon="5.61425">
        <ele>275.56</ele>
        <time>2013-04-12T08:16:12Z</time>
      </trkpt>
      <trkpt lat="47.20393" lon="5.61409">
        <ele>276.52</ele>
        <time>2013-04-12T08:16:17Z</time>
      </trkpt>
      <trkpt lat="47.20397" lon="5.61401">
        <ele>277.48</ele>
        <time>2013-04-12T08:16:20Z</time>
      </trkpt>
      <trkpt lat="47.20405" lon="5.61367">
        <ele>280.36</ele>
        <time>2013-04-12T08:16:31Z</time>
      </trkpt>
      <trkpt lat="47.20408" lon="5.61329">
        <ele>283.73</ele>
        <time>2013-04-12T08:16:45Z</time>
      </trkpt>
      <trkpt lat="47.20412" lon="5.61311">
        <ele>286.61</ele>
        <time>2013-04-12T08:16:55Z</time>
      </trkpt>
      <trkpt lat="47.20414" lon="5.61291">
        <ele>289.97</ele>
        <time>2013-04-12T08:17:04Z</time>
      </trkpt>
      <trkpt lat="47.20409" lon="5.61267">
        <ele>292.86</ele>
        <time>2013-04-12T08:17:18Z</time>
      </trkpt>
      <trkpt lat="47.20407" lon="5.61261">
        <ele>293.82</ele>
        <time>2013-04-12T08:17:22Z</time>
      </trkpt>
      <trkpt lat="47.20403" lon="5.61243">
        <ele>296.22</ele>
        <time>2013-04-12T08:17:32Z</time>
      </trkpt>
      <trkpt lat="47.20401" lon="5.61214">
        <ele>299.11</ele>
        <time>2013-04-12T08:17:45Z</time>
      </trkpt>
      <trkpt lat="47.20395" lon="5.61183">
        <ele>302.47</ele>
        <time>2013-04-12T08:18:00Z</time>
      </trkpt>
      <trkpt lat="47.20384" lon="5.61143">
        <ele>303.91</ele>
        <time>2013-04-12T08:18:16Z</time>
      </trkpt>
      <trkpt lat="47.20381" lon="5.6113">
        <ele>304.88</ele>
        <time>2013-04-12T08:18:22Z</time>
      </trkpt>
      <trkpt lat="47.20344" lon="5.61083">
        <ele>307.28</ele>
        <time>2013-04-12T08:18:40Z</time>
      </trkpt>
      <trkpt lat="47.20334" lon="5.6107">
        <ele>308.72</ele>
        <time>2013-04-12T08:18:46Z</time>
      </trkpt>
      <trkpt lat="47.20322" lon="5.61048">
        <ele>312.09</ele>
        <time>2013-04-12T08:18:58Z</time>
      </trkpt>
      <trkpt lat="47.20311" lon="5.61022">
        <ele>315.45</ele>
        <time>2013-04-12T08:19:11Z</time>
      </trkpt>
      <trkpt lat="47.20309" lon="5.61013">
        <ele>317.37</ele>
        <time>2013-04-12T08:19:17Z</time>
      </trkpt>
      <trkpt lat="47.20311" lon="5.60992">
        <ele>320.26</ele>
        <time>2013-04-12T08:19:28Z</time>
      </trkpt>
      <trkpt lat="47.20304" lon="5.60968">
        <ele>323.62</ele>
        <time>2013-04-12T08:19:41Z</time>
      </trkpt>
      <trkpt lat="47.20294" lon="5.60938">
        <ele>324.58</ele>
        <time>2013-04-12T08:19:58Z</time>
      </trkpt>
      <trkpt lat="47.20298" lon="5.60918">
        <ele>327.47</ele>
        <time>2013-04-12T08:20:14Z</time>
      </trkpt>
      <trkpt lat="47.20294" lon="5.60888">
        <ele>329.87</ele>
        <time>2013-04-12T08:20:30Z</time>
      </trkpt>
      <trkpt lat="47.20287" lon="5.60847">
        <ele>333.23</ele>
        <time>2013-04-12T08:20:48Z</time>
      </trkpt>
      <trkpt lat="47.20287" lon="5.6084">
        <ele>333.71</ele>
        <time>2013-04-12T08:20:51Z</time>
      </trkpt>
      <trkpt lat="47.20288" lon="5.60798">
        <ele>336.6</ele>
        <time>2013-04-12T08:21:08Z</time>
      </trkpt>
      <trkpt lat="47.20287" lon="5.60786">
        <ele>337.56</ele>
        <time>2013-04-12T08:21:13Z</time>
      </trkpt>
      <trkpt lat="47.20288" lon="5.60757">
        <ele>341.41</ele>
        <time>2013-04-12T08:21:26Z</time>
      </trkpt>
      <trkpt lat="47.20286" lon="5.60724">
        <ele>342.37</ele>
        <time>2013-04-12T08:21:39Z</time>
      </trkpt>
      <trkpt lat="47.20286" lon="5.60697">
        <ele>346.21</ele>
        <time>2013-04-12T08:21:53Z</time>
      </trkpt>
      <trkpt lat="47.20289" lon="5.60683">
        <ele>348.62</ele>
        <time>2013-04-12T08:22:01Z</time>
      </trkpt>
      <trkpt lat="47.20288" lon="5.60668">
        <ele>351.5</ele>
        <time>2013-04-12T08:22:09Z</time>
      </trkpt>
      <trkpt lat="47.20286" lon="5.6065">
        <ele>354.38</ele>
        <time>2013-04-12T08:22:20Z</time>
      </trkpt>
      <trkpt lat="47.20285" lon="5.60649">
        <ele>354.38</ele>
        <time>2013-04-12T08:22:21Z</time>
      </trkpt>
      <trkpt lat="47.20279" lon="5.60617">
        <ele>356.31</ele>
        <time>2013-04-12T08:22:39Z</time>
      </trkpt>
      <trkpt lat="47.20273" lon="5.60609">
        <ele>355.83</ele>
        <time>2013-04-12T08:22:44Z</time>
      </trkpt>
      <trkpt lat="47.20269" lon="5.60601">
        <ele>357.75</ele>
        <time>2013-04-12T08:22:48Z</time>
      </trkpt>
      <trkpt lat="47.20251" lon="5.60563">
        <ele>360.15</ele>
        <time>2013-04-12T08:23:04Z</time>
      </trkpt>
      <trkpt lat="47.20225" lon="5.60524">
        <ele>363.04</ele>
        <time>2013-04-12T08:23:20Z</time>
      </trkpt>
      <trkpt lat="47.20218" lon="5.60478">
        <ele>365.92</ele>
        <time>2013-04-12T08:23:35Z</time>
      </trkpt>
      <trkpt lat="47.20218" lon="5.60476">
        <ele>365.92</ele>
        <time>2013-04-12T08:23:36Z</time>
      </trkpt>
      <trkpt lat="47.20217" lon="5.60455">
        <ele>369.28</ele>
        <time>2013-04-12T08:23:48Z</time>
      </trkpt>
      <trkpt lat="47.20218" lon="5.60454">
        <ele>369.28</ele>
        <time>2013-04-12T08:23:49Z</time>
      </trkpt>
      <trkpt lat="47.20221" lon="5.60436">
        <ele>370.73</ele>
        <time>2013-04-12T08:23:58Z</time>
      </trkpt>
      <trkpt lat="47.20224" lon="5.60423">
        <ele>372.65</ele>
        <time>2013-04-12T08:24:04Z</time>
      </trkpt>
      <trkpt lat="47.20228" lon="5.60409">
        <ele>374.09</ele>
        <time>2013-04-12T08:24:11Z</time>
      </trkpt>
      <trkpt lat="47.20239" lon="5.6038">
        <ele>377.45</ele>
        <time>2013-04-12T08:24:25Z</time>
      </trkpt>
      <trkpt lat="47.20241" lon="5.60355">
        <ele>378.42</ele>
        <time>2013-04-12T08:24:36Z</time>
      </trkpt>
      <trkpt lat="47.20251" lon="5.6033">
        <ele>379.86</ele>
        <time>2013-04-12T08:24:50Z</time>
      </trkpt>
      <trkpt lat="47.20261" lon="5.60309">
        <ele>380.82</ele>
        <time>2013-04-12T08:25:04Z</time>
      </trkpt>
      <trkpt lat="47.2027" lon="5.60294">
        <ele>381.3</ele>
        <time>2013-04-12T08:25:19Z</time>
      </trkpt>
      <trkpt lat="47.20271" lon="5.60292">
        <ele>381.3</ele>
        <time>2013-04-12T08:25:21Z</time>
      </trkpt>
      <trkpt lat="47.20276" lon="5.60288">
        <ele>380.34</ele>
        <time>2013-04-12T08:25:24Z</time>
      </trkpt>
      <trkpt lat="47.20282" lon="5.60269">
        <ele>379.38</ele>
        <time>2013-04-12T08:25:30Z</time>
      </trkpt>
      <trkpt lat="47.20288" lon="5.60258">
        <ele>378.9</ele>
        <time>2013-04-12T08:25:33Z</time>
      </trkpt>
      <trkpt lat="47.20295" lon="5.60237">
        <ele>378.9</ele>
        <time>2013-04-12T08:25:39Z</time>
      </trkpt>
      <trkpt lat="47.20296" lon="5.60234">
        <ele>378.9</ele>
        <time>2013-04-12T08:25:41Z</time>
      </trkpt>
      <trkpt lat="47.20303" lon="5.60197">
        <ele>377.94</ele>
        <time>2013-04-12T08:25:50Z</time>
      </trkpt>
      <trkpt lat="47.20299" lon="5.6018">
        <ele>377.94</ele>
        <time>2013-04-12T08:25:55Z</time>
      </trkpt>
      <trkpt lat="47.20299" lon="5.60151">
        <ele>377.94</ele>
        <time>2013-04-12T08:26:03Z</time>
      </trkpt>
      <trkpt lat="47.203" lon="5.60147">
        <ele>377.94</ele>
        <time>2013-04-12T08:26:04Z</time>
      </trkpt>
      <trkpt lat="47.20301" lon="5.6011">
        <ele>377.45</ele>
        <time>2013-04-12T08:26:13Z</time>
      </trkpt>
      <trkpt lat="47.203" lon="5.60107">
        <ele>376.97</ele>
        <time>2013-04-12T08:26:14Z</time>
      </trkpt>
      <trkpt lat="47.20298" lon="5.60102">
        <ele>376.01</ele>
        <time>2013-04-12T08:26:16Z</time>
      </trkpt>
      <trkpt lat="47.203" lon="5.60084">
        <ele>376.49</ele>
        <time>2013-04-12T08:26:21Z</time>
      </trkpt>
      <trkpt lat="47.20306" lon="5.60068">
        <ele>377.94</ele>
        <time>2013-04-12T08:26:25Z</time>
      </trkpt>
      <trkpt lat="47.20309" lon="5.6006">
        <ele>378.42</ele>
        <time>2013-04-12T08:26:27Z</time>
      </trkpt>
      <trkpt lat="47.20311" lon="5.60026">
        <ele>378.9</ele>
        <time>2013-04-12T08:26:35Z</time>
      </trkpt>
      <trkpt lat="47.2031" lon="5.60019">
        <ele>378.9</ele>
        <time>2013-04-12T08:26:37Z</time>
      </trkpt>
      <trkpt lat="47.20312" lon="5.59983">
        <ele>377.94</ele>
        <time>2013-04-12T08:26:47Z</time>
      </trkpt>
      <trkpt lat="47.20311" lon="5.59952">
        <ele>378.42</ele>
        <time>2013-04-12T08:26:56Z</time>
      </trkpt>
      <trkpt lat="47.20315" lon="5.59934">
        <ele>378.42</ele>
        <time>2013-04-12T08:27:01Z</time>
      </trkpt>
      <trkpt lat="47.20319" lon="5.59918">
        <ele>378.9</ele>
        <time>2013-04-12T08:27:06Z</time>
      </trkpt>
      <trkpt lat="47.20321" lon="5.59901">
        <ele>378.9</ele>
        <time>2013-04-12T08:27:11Z</time>
      </trkpt>
      <trkpt lat="47.20327" lon="5.5989">
        <ele>378.9</ele>
        <time>2013-04-12T08:27:15Z</time>
      </trkpt>
      <trkpt lat="47.20333" lon="5.59869">
        <ele>379.38</ele>
        <time>2013-04-12T08:27:20Z</time>
      </trkpt>
      <trkpt lat="47.20339" lon="5.59854">
        <ele>379.86</ele>
        <time>2013-04-12T08:27:25Z</time>
      </trkpt>
      <trkpt lat="47.20337" lon="5.59844">
        <ele>379.86</ele>
        <time>2013-04-12T08:27:28Z</time>
      </trkpt>
      <trkpt lat="47.20337" lon="5.59835">
        <ele>379.86</ele>
        <time>2013-04-12T08:27:31Z</time>
      </trkpt>
      <trkpt lat="47.20333" lon="5.59822">
        <ele>380.34</ele>
        <time>2013-04-12T08:27:35Z</time>
      </trkpt>
      <trkpt lat="47.20333" lon="5.59811">
        <ele>380.34</ele>
        <time>2013-04-12T08:27:37Z</time>
      </trkpt>
      <trkpt lat="47.20334" lon="5.59797">
        <ele>380.82</ele>
        <time>2013-04-12T08:27:41Z</time>
      </trkpt>
      <trkpt lat="47.2033" lon="5.59772">
        <ele>381.3</ele>
        <time>2013-04-12T08:27:50Z</time>
      </trkpt>
      <trkpt lat="47.20324" lon="5.59764">
        <ele>381.3</ele>
        <time>2013-04-12T08:27:53Z</time>
      </trkpt>
      <trkpt lat="47.20321" lon="5.59756">
        <ele>381.3</ele>
        <time>2013-04-12T08:27:56Z</time>
      </trkpt>
      <trkpt lat="47.20324" lon="5.59752">
        <ele>381.78</ele>
        <time>2013-04-12T08:27:58Z</time>
      </trkpt>
      <trkpt lat="47.20324" lon="5.59742">
        <ele>382.26</ele>
        <time>2013-04-12T08:28:02Z</time>
      </trkpt>
      <trkpt lat="47.20316" lon="5.59723">
        <ele>383.22</ele>
        <time>2013-04-12T08:28:09Z</time>
      </trkpt>
      <trkpt lat="47.2031" lon="5.59708">
        <ele>383.7</ele>
        <time>2013-04-12T08:28:12Z</time>
      </trkpt>
      <trkpt lat="47.20311" lon="5.597">
        <ele>383.7</ele>
        <time>2013-04-12T08:28:14Z</time>
      </trkpt>
      <trkpt lat="47.2031" lon="5.59692">
        <ele>384.18</ele>
        <time>2013-04-12T08:28:16Z</time>
      </trkpt>
      <trkpt lat="47.20306" lon="5.59682">
        <ele>383.7</ele>
        <time>2013-04-12T08:28:18Z</time>
      </trkpt>
      <trkpt lat="47.203" lon="5.59663">
        <ele>384.18</ele>
        <time>2013-04-12T08:28:23Z</time>
      </trkpt>
      <trkpt lat="47.20294" lon="5.59648">
        <ele>384.66</ele>
        <time>2013-04-12T08:28:30Z</time>
      </trkpt>
      <trkpt lat="47.20293" lon="5.59638">
        <ele>385.63</ele>
        <time>2013-04-12T08:28:33Z</time>
      </trkpt>
      <trkpt lat="47.20289" lon="5.59625">
        <ele>386.59</ele>
        <time>2013-04-12T08:28:43Z</time>
      </trkpt>
      <trkpt lat="47.2029" lon="5.59625">
        <ele>386.59</ele>
        <time>2013-04-12T08:28:44Z</time>
      </trkpt>
      <trkpt lat="47.20283" lon="5.5964">
        <ele>384.66</ele>
        <time>2013-04-12T08:28:51Z</time>
      </trkpt>
      <trkpt lat="47.20269" lon="5.59656">
        <ele>383.22</ele>
        <time>2013-04-12T08:28:59Z</time>
      </trkpt>
      <trkpt lat="47.20256" lon="5.5968">
        <ele>379.86</ele>
        <time>2013-04-12T08:29:09Z</time>
      </trkpt>
      <trkpt lat="47.20249" lon="5.59688">
        <ele>378.42</ele>
        <time>2013-04-12T08:29:12Z</time>
      </trkpt>
      <trkpt lat="47.20242" lon="5.597">
        <ele>376.01</ele>
        <time>2013-04-12T08:29:17Z</time>
      </trkpt>
      <trkpt lat="47.20239" lon="5.59707">
        <ele>374.57</ele>
        <time>2013-04-12T08:29:20Z</time>
      </trkpt>
      <trkpt lat="47.20231" lon="5.59712">
        <ele>371.21</ele>
        <time>2013-04-12T08:29:25Z</time>
      </trkpt>
      <trkpt lat="47.20225" lon="5.59727">
        <ele>366.88</ele>
        <time>2013-04-12T08:29:31Z</time>
      </trkpt>
      <trkpt lat="47.20221" lon="5.59732">
        <ele>363.52</ele>
        <time>2013-04-12T08:29:36Z</time>
      </trkpt>
      <trkpt lat="47.20213" lon="5.59736">
        <ele>360.15</ele>
        <time>2013-04-12T08:29:40Z</time>
      </trkpt>
      <trkpt lat="47.20201" lon="5.59741">
        <ele>356.79</ele>
        <time>2013-04-12T08:29:44Z</time>
      </trkpt>
      <trkpt lat="47.20195" lon="5.59743">
        <ele>356.31</ele>
        <time>2013-04-12T08:29:46Z</time>
      </trkpt>
      <trkpt lat="47.20188" lon="5.59756">
        <ele>353.42</ele>
        <time>2013-04-12T08:29:54Z</time>
      </trkpt>
      <trkpt lat="47.20182" lon="5.59769">
        <ele>351.98</ele>
        <time>2013-04-12T08:30:06Z</time>
      </trkpt>
      <trkpt lat="47.2018" lon="5.59773">
        <ele>351.5</ele>
        <time>2013-04-12T08:30:08Z</time>
      </trkpt>
      <trkpt lat="47.20163" lon="5.59789">
        <ele>347.65</ele>
        <time>2013-04-12T08:30:18Z</time>
      </trkpt>
      <trkpt lat="47.20136" lon="5.59813">
        <ele>345.25</ele>
        <time>2013-04-12T08:30:28Z</time>
      </trkpt>
      <trkpt lat="47.20122" lon="5.59846">
        <ele>343.81</ele>
        <time>2013-04-12T08:30:39Z</time>
      </trkpt>
      <trkpt lat="47.20121" lon="5.59848">
        <ele>343.33</ele>
        <time>2013-04-12T08:30:40Z</time>
      </trkpt>
      <trkpt lat="47.2011" lon="5.59878">
        <ele>343.81</ele>
        <time>2013-04-12T08:30:54Z</time>
      </trkpt>
      <trkpt lat="47.201" lon="5.59894">
        <ele>344.29</ele>
        <time>2013-04-12T08:31:02Z</time>
      </trkpt>
      <trkpt lat="47.20089" lon="5.59905">
        <ele>343.81</ele>
        <time>2013-04-12T08:31:07Z</time>
      </trkpt>
      <trkpt lat="47.20071" lon="5.59929">
        <ele>342.37</ele>
        <time>2013-04-12T08:31:21Z</time>
      </trkpt>
      <trkpt lat="47.20043" lon="5.5996">
        <ele>345.25</ele>
        <time>2013-04-12T08:31:34Z</time>
      </trkpt>
      <trkpt lat="47.20026" lon="5.59976">
        <ele>342.85</ele>
        <time>2013-04-12T08:31:43Z</time>
      </trkpt>
      <trkpt lat="47.20004" lon="5.59998">
        <ele>340.92</ele>
        <time>2013-04-12T08:31:53Z</time>
      </trkpt>
      <trkpt lat="47.19988" lon="5.6002">
        <ele>339.48</ele>
        <time>2013-04-12T08:32:02Z</time>
      </trkpt>
      <trkpt lat="47.19982" lon="5.60031">
        <ele>336.12</ele>
        <time>2013-04-12T08:32:08Z</time>
      </trkpt>
      <trkpt lat="47.19968" lon="5.60038">
        <ele>334.68</ele>
        <time>2013-04-12T08:32:19Z</time>
      </trkpt>
      <trkpt lat="47.1997" lon="5.60051">
        <ele>335.16</ele>
        <time>2013-04-12T08:32:34Z</time>
      </trkpt>
      <trkpt lat="47.1997" lon="5.60051">
        <ele>336.6</ele>
        <time>2013-04-12T08:32:42Z</time>
      </trkpt>
      <trkpt lat="47.19965" lon="5.60043">
        <ele>340.92</ele>
        <time>2013-04-12T08:32:51Z</time>
      </trkpt>
      <trkpt lat="47.19964" lon="5.60043">
        <ele>340.92</ele>
        <time>2013-04-12T08:32:52Z</time>
      </trkpt>
      <trkpt lat="47.19964" lon="5.60041">
        <ele>342.37</ele>
        <time>2013-04-12T08:32:55Z</time>
      </trkpt>
      <trkpt lat="47.19962" lon="5.60037">
        <ele>344.29</ele>
        <time>2013-04-12T08:33:00Z</time>
      </trkpt>
      <trkpt lat="47.19957" lon="5.60029">
        <ele>347.65</ele>
        <time>2013-04-12T08:33:10Z</time>
      </trkpt>
      <trkpt lat="47.19949" lon="5.60016">
        <ele>350.54</ele>
        <time>2013-04-12T08:33:22Z</time>
      </trkpt>
      <trkpt lat="47.19942" lon="5.60005">
        <ele>354.38</ele>
        <time>2013-04-12T08:33:34Z</time>
      </trkpt>
      <trkpt lat="47.19935" lon="5.59979">
        <ele>356.79</ele>
        <time>2013-04-12T08:33:52Z</time>
      </trkpt>
      <trkpt lat="47.1992" lon="5.59966">
        <ele>357.75</ele>
        <time>2013-04-12T08:34:09Z</time>
      </trkpt>
      <trkpt lat="47.19907" lon="5.59947">
        <ele>357.75</ele>
        <time>2013-04-12T08:34:25Z</time>
      </trkpt>
      <trkpt lat="47.19894" lon="5.59931">
        <ele>357.27</ele>
        <time>2013-04-12T08:34:40Z</time>
      </trkpt>
      <trkpt lat="47.19869" lon="5.59897">
        <ele>356.31</ele>
        <time>2013-04-12T08:34:55Z</time>
      </trkpt>
      <trkpt lat="47.19852" lon="5.59871">
        <ele>352.94</ele>
        <time>2013-04-12T08:35:06Z</time>
      </trkpt>
      <trkpt lat="47.19849" lon="5.59869">
        <ele>352.94</ele>
        <time>2013-04-12T08:35:07Z</time>
      </trkpt>
      <trkpt lat="47.19834" lon="5.59842">
        <ele>349.58</ele>
        <time>2013-04-12T08:35:16Z</time>
      </trkpt>
      <trkpt lat="47.19812" lon="5.59797">
        <ele>346.21</ele>
        <time>2013-04-12T08:35:24Z</time>
      </trkpt>
      <trkpt lat="47.19797" lon="5.59769">
        <ele>342.85</ele>
        <time>2013-04-12T08:35:32Z</time>
      </trkpt>
      <trkpt lat="47.19795" lon="5.59765">
        <ele>342.37</ele>
        <time>2013-04-12T08:35:33Z</time>
      </trkpt>
      <trkpt lat="47.1979" lon="5.59759">
        <ele>341.41</ele>
        <time>2013-04-12T08:35:35Z</time>
      </trkpt>
      <trkpt lat="47.19782" lon="5.59743">
        <ele>339.48</ele>
        <time>2013-04-12T08:35:39Z</time>
      </trkpt>
      <trkpt lat="47.19773" lon="5.59731">
        <ele>338.04</ele>
        <time>2013-04-12T08:35:43Z</time>
      </trkpt>
      <trkpt lat="47.19737" lon="5.59716">
        <ele>334.2</ele>
        <time>2013-04-12T08:35:56Z</time>
      </trkpt>
      <trkpt lat="47.1971" lon="5.59709">
        <ele>331.31</ele>
        <time>2013-04-12T08:36:05Z</time>
      </trkpt>
      <trkpt lat="47.1968" lon="5.5971">
        <ele>328.43</ele>
        <time>2013-04-12T08:36:14Z</time>
      </trkpt>
      <trkpt lat="47.19655" lon="5.59707">
        <ele>325.06</ele>
        <time>2013-04-12T08:36:22Z</time>
      </trkpt>
      <trkpt lat="47.19653" lon="5.59706">
        <ele>325.06</ele>
        <time>2013-04-12T08:36:23Z</time>
      </trkpt>
      <trkpt lat="47.19621" lon="5.59702">
        <ele>322.18</ele>
        <time>2013-04-12T08:36:34Z</time>
      </trkpt>
      <trkpt lat="47.19597" lon="5.59709">
        <ele>319.3</ele>
        <time>2013-04-12T08:36:43Z</time>
      </trkpt>
      <trkpt lat="47.19581" lon="5.59719">
        <ele>316.41</ele>
        <time>2013-04-12T08:36:50Z</time>
      </trkpt>
      <trkpt lat="47.19549" lon="5.59735">
        <ele>313.05</ele>
        <time>2013-04-12T08:37:01Z</time>
      </trkpt>
      <trkpt lat="47.19524" lon="5.59751">
        <ele>309.68</ele>
        <time>2013-04-12T08:37:11Z</time>
      </trkpt>
      <trkpt lat="47.19508" lon="5.59751">
        <ele>307.28</ele>
        <time>2013-04-12T08:37:23Z</time>
      </trkpt>
      <trkpt lat="47.19507" lon="5.59742">
        <ele>303.91</ele>
        <time>2013-04-12T08:37:29Z</time>
      </trkpt>
      <trkpt lat="47.19507" lon="5.59742">
        <ele>310.16</ele>
        <time>2013-04-12T08:37:30Z</time>
      </trkpt>
      <trkpt lat="47.19507" lon="5.59742">
        <ele>306.8</ele>
        <time>2013-04-12T08:37:32Z</time>
      </trkpt>
      <trkpt lat="47.19507" lon="5.59739">
        <ele>305.84</ele>
        <time>2013-04-12T08:37:36Z</time>
      </trkpt>
      <trkpt lat="47.19509" lon="5.59734">
        <ele>305.36</ele>
        <time>2013-04-12T08:37:38Z</time>
      </trkpt>
      <trkpt lat="47.19521" lon="5.59724">
        <ele>303.91</ele>
        <time>2013-04-12T08:37:42Z</time>
      </trkpt>
      <trkpt lat="47.19535" lon="5.59702">
        <ele>300.55</ele>
        <time>2013-04-12T08:37:51Z</time>
      </trkpt>
      <trkpt lat="47.19543" lon="5.59672">
        <ele>298.63</ele>
        <time>2013-04-12T08:38:01Z</time>
      </trkpt>
      <trkpt lat="47.19544" lon="5.59671">
        <ele>296.7</ele>
        <time>2013-04-12T08:38:04Z</time>
      </trkpt>
      <trkpt lat="47.19548" lon="5.59669">
        <ele>296.22</ele>
        <time>2013-04-12T08:38:06Z</time>
      </trkpt>
      <trkpt lat="47.19565" lon="5.59653">
        <ele>296.22</ele>
        <time>2013-04-12T08:38:17Z</time>
      </trkpt>
      <trkpt lat="47.19572" lon="5.59638">
        <ele>299.59</ele>
        <time>2013-04-12T08:38:25Z</time>
      </trkpt>
      <trkpt lat="47.19573" lon="5.59636">
        <ele>299.59</ele>
        <time>2013-04-12T08:38:26Z</time>
      </trkpt>
      <trkpt lat="47.19575" lon="5.59626">
        <ele>302.95</ele>
        <time>2013-04-12T08:38:33Z</time>
      </trkpt>
      <trkpt lat="47.19576" lon="5.59609">
        <ele>306.32</ele>
        <time>2013-04-12T08:38:44Z</time>
      </trkpt>
      <trkpt lat="47.1958" lon="5.59598">
        <ele>309.68</ele>
        <time>2013-04-12T08:38:57Z</time>
      </trkpt>
      <trkpt lat="47.19592" lon="5.59582">
        <ele>313.05</ele>
        <time>2013-04-12T08:39:11Z</time>
      </trkpt>
      <trkpt lat="47.19597" lon="5.59568">
        <ele>315.93</ele>
        <time>2013-04-12T08:39:24Z</time>
      </trkpt>
      <trkpt lat="47.19609" lon="5.59555">
        <ele>318.81</ele>
        <time>2013-04-12T08:39:38Z</time>
      </trkpt>
      <trkpt lat="47.19616" lon="5.5954">
        <ele>321.22</ele>
        <time>2013-04-12T08:39:51Z</time>
      </trkpt>
      <trkpt lat="47.19617" lon="5.59535">
        <ele>324.58</ele>
        <time>2013-04-12T08:40:04Z</time>
      </trkpt>
      <trkpt lat="47.19612" lon="5.59533">
        <ele>327.47</ele>
        <time>2013-04-12T08:40:17Z</time>
      </trkpt>
      <trkpt lat="47.1962" lon="5.59518">
        <ele>330.83</ele>
        <time>2013-04-12T08:40:30Z</time>
      </trkpt>
      <trkpt lat="47.19627" lon="5.59509">
        <ele>334.2</ele>
        <time>2013-04-12T08:40:42Z</time>
      </trkpt>
      <trkpt lat="47.19629" lon="5.595">
        <ele>337.08</ele>
        <time>2013-04-12T08:40:52Z</time>
      </trkpt>
      <trkpt lat="47.19634" lon="5.59492">
        <ele>340.44</ele>
        <time>2013-04-12T08:41:07Z</time>
      </trkpt>
      <trkpt lat="47.1964" lon="5.59483">
        <ele>343.81</ele>
        <time>2013-04-12T08:41:21Z</time>
      </trkpt>
      <trkpt lat="47.19646" lon="5.59472">
        <ele>347.17</ele>
        <time>2013-04-12T08:41:35Z</time>
      </trkpt>
      <trkpt lat="47.19654" lon="5.59463">
        <ele>350.06</ele>
        <time>2013-04-12T08:41:50Z</time>
      </trkpt>
      <trkpt lat="47.19664" lon="5.59451">
        <ele>353.42</ele>
        <time>2013-04-12T08:42:02Z</time>
      </trkpt>
      <trkpt lat="47.19665" lon="5.5945">
        <ele>353.9</ele>
        <time>2013-04-12T08:42:03Z</time>
      </trkpt>
      <trkpt lat="47.19666" lon="5.59446">
        <ele>355.34</ele>
        <time>2013-04-12T08:42:06Z</time>
      </trkpt>
      <trkpt lat="47.19677" lon="5.59426">
        <ele>357.75</ele>
        <time>2013-04-12T08:42:23Z</time>
      </trkpt>
      <trkpt lat="47.19682" lon="5.59416">
        <ele>361.11</ele>
        <time>2013-04-12T08:42:32Z</time>
      </trkpt>
      <trkpt lat="47.19685" lon="5.59404">
        <ele>364.48</ele>
        <time>2013-04-12T08:42:46Z</time>
      </trkpt>
      <trkpt lat="47.19694" lon="5.59388">
        <ele>366.4</ele>
        <time>2013-04-12T08:43:00Z</time>
      </trkpt>
      <trkpt lat="47.19706" lon="5.59369">
        <ele>369.76</ele>
        <time>2013-04-12T08:43:15Z</time>
      </trkpt>
      <trkpt lat="47.19715" lon="5.5935">
        <ele>372.65</ele>
        <time>2013-04-12T08:43:30Z</time>
      </trkpt>
      <trkpt lat="47.19715" lon="5.59342">
        <ele>375.05</ele>
        <time>2013-04-12T08:43:45Z</time>
      </trkpt>
      <trkpt lat="47.19721" lon="5.59329">
        <ele>375.53</ele>
        <time>2013-04-12T08:44:02Z</time>
      </trkpt>
      <trkpt lat="47.19732" lon="5.59312">
        <ele>376.97</ele>
        <time>2013-04-12T08:44:14Z</time>
      </trkpt>
      <trkpt lat="47.19739" lon="5.59299">
        <ele>377.94</ele>
        <time>2013-04-12T08:44:27Z</time>
      </trkpt>
      <trkpt lat="47.19742" lon="5.59295">
        <ele>378.42</ele>
        <time>2013-04-12T08:44:30Z</time>
      </trkpt>
      <trkpt lat="47.1975" lon="5.59281">
        <ele>378.9</ele>
        <time>2013-04-12T08:44:42Z</time>
      </trkpt>
      <trkpt lat="47.1975" lon="5.59278">
        <ele>378.9</ele>
        <time>2013-04-12T08:44:44Z</time>
      </trkpt>
      <trkpt lat="47.19745" lon="5.59268">
        <ele>378.42</ele>
        <time>2013-04-12T08:44:48Z</time>
      </trkpt>
      <trkpt lat="47.19725" lon="5.59234">
        <ele>376.49</ele>
        <time>2013-04-12T08:45:01Z</time>
      </trkpt>
      <trkpt lat="47.19715" lon="5.59194">
        <ele>375.05</ele>
        <time>2013-04-12T08:45:13Z</time>
      </trkpt>
      <trkpt lat="47.19712" lon="5.59185">
        <ele>374.09</ele>
        <time>2013-04-12T08:45:16Z</time>
      </trkpt>
      <trkpt lat="47.19704" lon="5.59156">
        <ele>373.13</ele>
        <time>2013-04-12T08:45:23Z</time>
      </trkpt>
      <trkpt lat="47.19702" lon="5.5915">
        <ele>373.13</ele>
        <time>2013-04-12T08:45:26Z</time>
      </trkpt>
      <trkpt lat="47.19684" lon="5.59125">
        <ele>374.09</ele>
        <time>2013-04-12T08:45:34Z</time>
      </trkpt>
      <trkpt lat="47.1965" lon="5.59085">
        <ele>371.21</ele>
        <time>2013-04-12T08:45:48Z</time>
      </trkpt>
      <trkpt lat="47.19619" lon="5.59051">
        <ele>369.76</ele>
        <time>2013-04-12T08:46:01Z</time>
      </trkpt>
      <trkpt lat="47.19599" lon="5.59023">
        <ele>369.76</ele>
        <time>2013-04-12T08:46:10Z</time>
      </trkpt>
      <trkpt lat="47.19573" lon="5.59006">
        <ele>367.36</ele>
        <time>2013-04-12T08:46:20Z</time>
      </trkpt>
      <trkpt lat="47.19552" lon="5.58982">
        <ele>367.36</ele>
        <time>2013-04-12T08:46:31Z</time>
      </trkpt>
      <trkpt lat="47.19528" lon="5.58952">
        <ele>365.92</ele>
        <time>2013-04-12T08:46:44Z</time>
      </trkpt>
      <trkpt lat="47.19512" lon="5.5891">
        <ele>368.32</ele>
        <time>2013-04-12T08:46:56Z</time>
      </trkpt>
      <trkpt lat="47.19512" lon="5.58902">
        <ele>369.28</ele>
        <time>2013-04-12T08:46:59Z</time>
      </trkpt>
      <trkpt lat="47.19523" lon="5.58889">
        <ele>370.73</ele>
        <time>2013-04-12T08:47:05Z</time>
      </trkpt>
      <trkpt lat="47.19524" lon="5.58882">
        <ele>371.21</ele>
        <time>2013-04-12T08:47:08Z</time>
      </trkpt>
      <trkpt lat="47.19538" lon="5.58848">
        <ele>371.69</ele>
        <time>2013-04-12T08:47:21Z</time>
      </trkpt>
      <trkpt lat="47.19541" lon="5.58842">
        <ele>372.65</ele>
        <time>2013-04-12T08:47:23Z</time>
      </trkpt>
      <trkpt lat="47.19542" lon="5.58829">
        <ele>373.13</ele>
        <time>2013-04-12T08:47:27Z</time>
      </trkpt>
      <trkpt lat="47.19526" lon="5.58788">
        <ele>373.13</ele>
        <time>2013-04-12T08:47:40Z</time>
      </trkpt>
      <trkpt lat="47.19505" lon="5.58737">
        <ele>372.65</ele>
        <time>2013-04-12T08:47:51Z</time>
      </trkpt>
      <trkpt lat="47.19484" lon="5.58705">
        <ele>371.69</ele>
        <time>2013-04-12T08:48:03Z</time>
      </trkpt>
      <trkpt lat="47.19463" lon="5.58672">
        <ele>369.28</ele>
        <time>2013-04-12T08:48:14Z</time>
      </trkpt>
      <trkpt lat="47.19457" lon="5.5865">
        <ele>367.84</ele>
        <time>2013-04-12T08:48:21Z</time>
      </trkpt>
      <trkpt lat="47.19437" lon="5.58629">
        <ele>364.96</ele>
        <time>2013-04-12T08:48:29Z</time>
      </trkpt>
      <trkpt lat="47.19377" lon="5.58587">
        <ele>361.59</ele>
        <time>2013-04-12T08:48:37Z</time>
      </trkpt>
      <trkpt lat="47.19369" lon="5.5858">
        <ele>360.63</ele>
        <time>2013-04-12T08:48:40Z</time>
      </trkpt>
      <trkpt lat="47.19338" lon="5.58561">
        <ele>357.27</ele>
        <time>2013-04-12T08:48:51Z</time>
      </trkpt>
      <trkpt lat="47.19313" lon="5.58544">
        <ele>355.83</ele>
        <time>2013-04-12T08:49:01Z</time>
      </trkpt>
      <trkpt lat="47.19292" lon="5.58526">
        <ele>356.31</ele>
        <time>2013-04-12T08:49:11Z</time>
      </trkpt>
      <trkpt lat="47.19288" lon="5.58523">
        <ele>356.31</ele>
        <time>2013-04-12T08:49:12Z</time>
      </trkpt>
      <trkpt lat="47.19256" lon="5.58497">
        <ele>355.83</ele>
        <time>2013-04-12T08:49:24Z</time>
      </trkpt>
      <trkpt lat="47.19246" lon="5.58489">
        <ele>357.75</ele>
        <time>2013-04-12T08:49:32Z</time>
      </trkpt>
      <trkpt lat="47.19216" lon="5.58466">
        <ele>359.67</ele>
        <time>2013-04-12T08:49:44Z</time>
      </trkpt>
      <trkpt lat="47.19194" lon="5.58447">
        <ele>360.15</ele>
        <time>2013-04-12T08:49:51Z</time>
      </trkpt>
      <trkpt lat="47.1918" lon="5.58419">
        <ele>362.07</ele>
        <time>2013-04-12T08:50:04Z</time>
      </trkpt>
      <trkpt lat="47.19159" lon="5.58381">
        <ele>364</ele>
        <time>2013-04-12T08:50:19Z</time>
      </trkpt>
      <trkpt lat="47.1913" lon="5.58346">
        <ele>363.04</ele>
        <time>2013-04-12T08:50:31Z</time>
      </trkpt>
      <trkpt lat="47.19106" lon="5.58327">
        <ele>362.55</ele>
        <time>2013-04-12T08:50:41Z</time>
      </trkpt>
      <trkpt lat="47.19073" lon="5.58298">
        <ele>361.59</ele>
        <time>2013-04-12T08:50:55Z</time>
      </trkpt>
      <trkpt lat="47.19049" lon="5.58275">
        <ele>361.11</ele>
        <time>2013-04-12T08:51:05Z</time>
      </trkpt>
      <trkpt lat="47.19045" lon="5.58271">
        <ele>361.11</ele>
        <time>2013-04-12T08:51:10Z</time>
      </trkpt>
      <trkpt lat="47.19035" lon="5.58264">
        <ele>361.11</ele>
        <time>2013-04-12T08:51:13Z</time>
      </trkpt>
      <trkpt lat="47.19022" lon="5.58255">
        <ele>360.63</ele>
        <time>2013-04-12T08:51:17Z</time>
      </trkpt>
      <trkpt lat="47.1901" lon="5.5824">
        <ele>357.75</ele>
        <time>2013-04-12T08:51:26Z</time>
      </trkpt>
      <trkpt lat="47.18995" lon="5.5822">
        <ele>354.86</ele>
        <time>2013-04-12T08:51:36Z</time>
      </trkpt>
      <trkpt lat="47.18973" lon="5.58198">
        <ele>351.98</ele>
        <time>2013-04-12T08:51:46Z</time>
      </trkpt>
      <trkpt lat="47.18948" lon="5.58172">
        <ele>350.06</ele>
        <time>2013-04-12T08:51:56Z</time>
      </trkpt>
      <trkpt lat="47.18931" lon="5.58157">
        <ele>348.62</ele>
        <time>2013-04-12T08:52:02Z</time>
      </trkpt>
      <trkpt lat="47.18917" lon="5.58146">
        <ele>346.69</ele>
        <time>2013-04-12T08:52:07Z</time>
      </trkpt>
      <trkpt lat="47.18893" lon="5.58129">
        <ele>343.81</ele>
        <time>2013-04-12T08:52:18Z</time>
      </trkpt>
      <trkpt lat="47.18877" lon="5.58113">
        <ele>341.41</ele>
        <time>2013-04-12T08:52:26Z</time>
      </trkpt>
      <trkpt lat="47.18862" lon="5.581">
        <ele>339</ele>
        <time>2013-04-12T08:52:34Z</time>
      </trkpt>
      <trkpt lat="47.18859" lon="5.58096">
        <ele>339</ele>
        <time>2013-04-12T08:52:36Z</time>
      </trkpt>
      <trkpt lat="47.18806" lon="5.58053">
        <ele>335.64</ele>
        <time>2013-04-12T08:52:44Z</time>
      </trkpt>
      <trkpt lat="47.188" lon="5.58048">
        <ele>335.16</ele>
        <time>2013-04-12T08:52:49Z</time>
      </trkpt>
      <trkpt lat="47.18795" lon="5.58043">
        <ele>334.2</ele>
        <time>2013-04-12T08:52:51Z</time>
      </trkpt>
      <trkpt lat="47.18784" lon="5.58033">
        <ele>333.23</ele>
        <time>2013-04-12T08:52:56Z</time>
      </trkpt>
      <trkpt lat="47.18763" lon="5.58015">
        <ele>329.87</ele>
        <time>2013-04-12T08:53:07Z</time>
      </trkpt>
      <trkpt lat="47.18759" lon="5.58011">
        <ele>327.95</ele>
        <time>2013-04-12T08:53:10Z</time>
      </trkpt>
      <trkpt lat="47.18751" lon="5.57997">
        <ele>325.54</ele>
        <time>2013-04-12T08:53:17Z</time>
      </trkpt>
      <trkpt lat="47.18745" lon="5.57988">
        <ele>323.14</ele>
        <time>2013-04-12T08:53:21Z</time>
      </trkpt>
      <trkpt lat="47.18733" lon="5.57977">
        <ele>320.26</ele>
        <time>2013-04-12T08:53:27Z</time>
      </trkpt>
      <trkpt lat="47.18706" lon="5.57955">
        <ele>316.41</ele>
        <time>2013-04-12T08:53:37Z</time>
      </trkpt>
      <trkpt lat="47.18701" lon="5.57949">
        <ele>315.45</ele>
        <time>2013-04-12T08:53:39Z</time>
      </trkpt>
      <trkpt lat="47.18686" lon="5.57936">
        <ele>312.09</ele>
        <time>2013-04-12T08:53:46Z</time>
      </trkpt>
      <trkpt lat="47.18667" lon="5.57914">
        <ele>308.72</ele>
        <time>2013-04-12T08:53:56Z</time>
      </trkpt>
      <trkpt lat="47.1865" lon="5.579">
        <ele>308.24</ele>
        <time>2013-04-12T08:54:02Z</time>
      </trkpt>
      <trkpt lat="47.18628" lon="5.57884">
        <ele>307.76</ele>
        <time>2013-04-12T08:54:12Z</time>
      </trkpt>
      <trkpt lat="47.18567" lon="5.57825">
        <ele>305.84</ele>
        <time>2013-04-12T08:54:25Z</time>
      </trkpt>
      <trkpt lat="47.18566" lon="5.57824">
        <ele>305.84</ele>
        <time>2013-04-12T08:54:26Z</time>
      </trkpt>
      <trkpt lat="47.18552" lon="5.5779">
        <ele>304.88</ele>
        <time>2013-04-12T08:54:37Z</time>
      </trkpt>
      <trkpt lat="47.18546" lon="5.57774">
        <ele>302.95</ele>
        <time>2013-04-12T08:54:45Z</time>
      </trkpt>
      <trkpt lat="47.18543" lon="5.57768">
        <ele>301.99</ele>
        <time>2013-04-12T08:54:47Z</time>
      </trkpt>
      <trkpt lat="47.18526" lon="5.57749">
        <ele>298.63</ele>
        <time>2013-04-12T08:54:57Z</time>
      </trkpt>
      <trkpt lat="47.18521" lon="5.57747">
        <ele>296.7</ele>
        <time>2013-04-12T08:55:02Z</time>
      </trkpt>
      <trkpt lat="47.18508" lon="5.57734">
        <ele>294.78</ele>
        <time>2013-04-12T08:55:07Z</time>
      </trkpt>
      <trkpt lat="47.1849" lon="5.5771">
        <ele>290.94</ele>
        <time>2013-04-12T08:55:14Z</time>
      </trkpt>
      <trkpt lat="47.1847" lon="5.5769">
        <ele>289.01</ele>
        <time>2013-04-12T08:55:24Z</time>
      </trkpt>
      <trkpt lat="47.18467" lon="5.57677">
        <ele>285.65</ele>
        <time>2013-04-12T08:55:30Z</time>
      </trkpt>
      <trkpt lat="47.18467" lon="5.57675">
        <ele>284.69</ele>
        <time>2013-04-12T08:55:31Z</time>
      </trkpt>
      <trkpt lat="47.18464" lon="5.57664">
        <ele>281.8</ele>
        <time>2013-04-12T08:55:36Z</time>
      </trkpt>
      <trkpt lat="47.18461" lon="5.57659">
        <ele>279.4</ele>
        <time>2013-04-12T08:55:39Z</time>
      </trkpt>
      <trkpt lat="47.1846" lon="5.57658">
        <ele>279.4</ele>
        <time>2013-04-12T08:55:41Z</time>
      </trkpt>
      <trkpt lat="47.18463" lon="5.57647">
        <ele>279.4</ele>
        <time>2013-04-12T08:55:44Z</time>
      </trkpt>
      <trkpt lat="47.18465" lon="5.57643">
        <ele>278.92</ele>
        <time>2013-04-12T08:55:46Z</time>
      </trkpt>
      <trkpt lat="47.1847" lon="5.5764">
        <ele>278.44</ele>
        <time>2013-04-12T08:55:49Z</time>
      </trkpt>
      <trkpt lat="47.18504" lon="5.57624">
        <ele>277.96</ele>
        <time>2013-04-12T08:56:01Z</time>
      </trkpt>
      <trkpt lat="47.18542" lon="5.57609">
        <ele>277.48</ele>
        <time>2013-04-12T08:56:13Z</time>
      </trkpt>
      <trkpt lat="47.18552" lon="5.5761">
        <ele>277.48</ele>
        <time>2013-04-12T08:56:18Z</time>
      </trkpt>
      <trkpt lat="47.18557" lon="5.57611">
        <ele>277.48</ele>
        <time>2013-04-12T08:56:21Z</time>
      </trkpt>
      <trkpt lat="47.1857" lon="5.57611">
        <ele>274.59</ele>
        <time>2013-04-12T08:56:31Z</time>
      </trkpt>
      <trkpt lat="47.18578" lon="5.57604">
        <ele>273.15</ele>
        <time>2013-04-12T08:56:34Z</time>
      </trkpt>
      <trkpt lat="47.18582" lon="5.57598">
        <ele>271.23</ele>
        <time>2013-04-12T08:56:37Z</time>
      </trkpt>
      <trkpt lat="47.18588" lon="5.57588">
        <ele>269.31</ele>
        <time>2013-04-12T08:56:44Z</time>
      </trkpt>
      <trkpt lat="47.18585" lon="5.57578">
        <ele>272.67</ele>
        <time>2013-04-12T08:56:51Z</time>
      </trkpt>
      <trkpt lat="47.18585" lon="5.57578">
        <ele>273.15</ele>
        <time>2013-04-12T08:56:52Z</time>
      </trkpt>
      <trkpt lat="47.1859" lon="5.57569">
        <ele>274.11</ele>
        <time>2013-04-12T08:56:55Z</time>
      </trkpt>
      <trkpt lat="47.18586" lon="5.57561">
        <ele>275.07</ele>
        <time>2013-04-12T08:56:59Z</time>
      </trkpt>
      <trkpt lat="47.18578" lon="5.57538">
        <ele>277.96</ele>
        <time>2013-04-12T08:57:12Z</time>
      </trkpt>
      <trkpt lat="47.18578" lon="5.57537">
        <ele>277.96</ele>
        <time>2013-04-12T08:57:13Z</time>
      </trkpt>
      <trkpt lat="47.18577" lon="5.57533">
        <ele>277.96</ele>
        <time>2013-04-12T08:57:15Z</time>
      </trkpt>
      <trkpt lat="47.18567" lon="5.57506">
        <ele>278.92</ele>
        <time>2013-04-12T08:57:30Z</time>
      </trkpt>
      <trkpt lat="47.18551" lon="5.57481">
        <ele>278.44</ele>
        <time>2013-04-12T08:57:42Z</time>
      </trkpt>
      <trkpt lat="47.1855" lon="5.57479">
        <ele>278.44</ele>
        <time>2013-04-12T08:57:43Z</time>
      </trkpt>
      <trkpt lat="47.18531" lon="5.57453">
        <ele>278.92</ele>
        <time>2013-04-12T08:57:55Z</time>
      </trkpt>
      <trkpt lat="47.1851" lon="5.57422">
        <ele>282.28</ele>
        <time>2013-04-12T08:58:06Z</time>
      </trkpt>
      <trkpt lat="47.18502" lon="5.574">
        <ele>284.21</ele>
        <time>2013-04-12T08:58:12Z</time>
      </trkpt>
      <trkpt lat="47.18499" lon="5.57391">
        <ele>284.69</ele>
        <time>2013-04-12T08:58:14Z</time>
      </trkpt>
      <trkpt lat="47.18494" lon="5.57376">
        <ele>285.65</ele>
        <time>2013-04-12T08:58:19Z</time>
      </trkpt>
      <trkpt lat="47.18491" lon="5.57373">
        <ele>286.13</ele>
        <time>2013-04-12T08:58:22Z</time>
      </trkpt>
      <trkpt lat="47.18484" lon="5.57348">
        <ele>287.57</ele>
        <time>2013-04-12T08:58:33Z</time>
      </trkpt>
      <trkpt lat="47.18478" lon="5.57328">
        <ele>288.05</ele>
        <time>2013-04-12T08:58:40Z</time>
      </trkpt>
      <trkpt lat="47.18477" lon="5.57321">
        <ele>288.53</ele>
        <time>2013-04-12T08:58:41Z</time>
      </trkpt>
      <trkpt lat="47.18475" lon="5.57313">
        <ele>289.01</ele>
        <time>2013-04-12T08:58:44Z</time>
      </trkpt>
      <trkpt lat="47.18474" lon="5.57309">
        <ele>289.49</ele>
        <time>2013-04-12T08:58:46Z</time>
      </trkpt>
      <trkpt lat="47.18472" lon="5.57305">
        <ele>289.97</ele>
        <time>2013-04-12T08:58:47Z</time>
      </trkpt>
      <trkpt lat="47.18461" lon="5.57272">
        <ele>291.42</ele>
        <time>2013-04-12T08:58:59Z</time>
      </trkpt>
      <trkpt lat="47.18456" lon="5.57235">
        <ele>292.86</ele>
        <time>2013-04-12T08:59:10Z</time>
      </trkpt>
      <trkpt lat="47.18457" lon="5.5723">
        <ele>292.86</ele>
        <time>2013-04-12T08:59:11Z</time>
      </trkpt>
      <trkpt lat="47.18455" lon="5.5722">
        <ele>293.34</ele>
        <time>2013-04-12T08:59:14Z</time>
      </trkpt>
      <trkpt lat="47.1844" lon="5.57193">
        <ele>295.74</ele>
        <time>2013-04-12T08:59:24Z</time>
      </trkpt>
      <trkpt lat="47.18436" lon="5.57176">
        <ele>296.22</ele>
        <time>2013-04-12T08:59:31Z</time>
      </trkpt>
      <trkpt lat="47.18434" lon="5.57168">
        <ele>295.74</ele>
        <time>2013-04-12T08:59:34Z</time>
      </trkpt>
      <trkpt lat="47.18426" lon="5.57131">
        <ele>296.7</ele>
        <time>2013-04-12T08:59:47Z</time>
      </trkpt>
      <trkpt lat="47.18426" lon="5.57123">
        <ele>296.7</ele>
        <time>2013-04-12T08:59:50Z</time>
      </trkpt>
      <trkpt lat="47.18423" lon="5.57119">
        <ele>296.7</ele>
        <time>2013-04-12T08:59:52Z</time>
      </trkpt>
      <trkpt lat="47.18416" lon="5.57109">
        <ele>296.7</ele>
        <time>2013-04-12T08:59:59Z</time>
      </trkpt>
      <trkpt lat="47.18409" lon="5.57076">
        <ele>296.7</ele>
        <time>2013-04-12T09:00:12Z</time>
      </trkpt>
      <trkpt lat="47.18407" lon="5.57039">
        <ele>299.59</ele>
        <time>2013-04-12T09:00:26Z</time>
      </trkpt>
      <trkpt lat="47.18407" lon="5.57039">
        <ele>296.22</ele>
        <time>2013-04-12T09:00:27Z</time>
      </trkpt>
      <trkpt lat="47.18414" lon="5.57032">
        <ele>301.51</ele>
        <time>2013-04-12T09:00:37Z</time>
      </trkpt>
      <trkpt lat="47.18414" lon="5.57031">
        <ele>297.18</ele>
        <time>2013-04-12T09:00:38Z</time>
      </trkpt>
      <trkpt lat="47.18419" lon="5.57027">
        <ele>296.7</ele>
        <time>2013-04-12T09:00:59Z</time>
      </trkpt>
      <trkpt lat="47.18419" lon="5.57027">
        <ele>296.22</ele>
        <time>2013-04-12T09:01:18Z</time>
      </trkpt>
      <trkpt lat="47.18419" lon="5.57027">
        <ele>295.74</ele>
        <time>2013-04-12T09:01:19Z</time>
      </trkpt>
      <trkpt lat="47.18419" lon="5.57025">
        <ele>296.22</ele>
        <time>2013-04-12T09:01:31Z</time>
      </trkpt>
      <trkpt lat="47.18418" lon="5.57025">
        <ele>296.22</ele>
        <time>2013-04-12T09:01:48Z</time>
      </trkpt>
      <trkpt lat="47.18416" lon="5.57026">
        <ele>297.18</ele>
        <time>2013-04-12T09:02:03Z</time>
      </trkpt>
      <trkpt lat="47.18416" lon="5.57024">
        <ele>297.67</ele>
        <time>2013-04-12T09:02:17Z</time>
      </trkpt>
      <trkpt lat="47.18419" lon="5.57014">
        <ele>300.55</ele>
        <time>2013-04-12T09:02:26Z</time>
      </trkpt>
      <trkpt lat="47.18424" lon="5.57007">
        <ele>303.43</ele>
        <time>2013-04-12T09:02:37Z</time>
      </trkpt>
      <trkpt lat="47.18429" lon="5.57003">
        <ele>306.8</ele>
        <time>2013-04-12T09:02:46Z</time>
      </trkpt>
      <trkpt lat="47.18436" lon="5.56996">
        <ele>309.68</ele>
        <time>2013-04-12T09:02:58Z</time>
      </trkpt>
      <trkpt lat="47.18446" lon="5.56993">
        <ele>313.53</ele>
        <time>2013-04-12T09:03:11Z</time>
      </trkpt>
      <trkpt lat="47.18447" lon="5.56993">
        <ele>313.53</ele>
        <time>2013-04-12T09:03:12Z</time>
      </trkpt>
      <trkpt lat="47.18455" lon="5.56993">
        <ele>316.89</ele>
        <time>2013-04-12T09:03:25Z</time>
      </trkpt>
      <trkpt lat="47.18464" lon="5.56991">
        <ele>319.78</ele>
        <time>2013-04-12T09:03:40Z</time>
      </trkpt>
      <trkpt lat="47.18479" lon="5.56986">
        <ele>321.7</ele>
        <time>2013-04-12T09:03:56Z</time>
      </trkpt>
      <trkpt lat="47.1849" lon="5.56984">
        <ele>324.58</ele>
        <time>2013-04-12T09:04:03Z</time>
      </trkpt>
      <trkpt lat="47.18509" lon="5.56974">
        <ele>325.06</ele>
        <time>2013-04-12T09:04:16Z</time>
      </trkpt>
      <trkpt lat="47.18523" lon="5.5697">
        <ele>326.99</ele>
        <time>2013-04-12T09:04:29Z</time>
      </trkpt>
      <trkpt lat="47.18537" lon="5.56967">
        <ele>328.91</ele>
        <time>2013-04-12T09:04:42Z</time>
      </trkpt>
      <trkpt lat="47.18541" lon="5.56963">
        <ele>329.87</ele>
        <time>2013-04-12T09:04:45Z</time>
      </trkpt>
      <trkpt lat="47.18569" lon="5.56954">
        <ele>331.79</ele>
        <time>2013-04-12T09:05:01Z</time>
      </trkpt>
      <trkpt lat="47.18591" lon="5.56948">
        <ele>335.16</ele>
        <time>2013-04-12T09:05:16Z</time>
      </trkpt>
      <trkpt lat="47.18608" lon="5.56941">
        <ele>338.52</ele>
        <time>2013-04-12T09:05:29Z</time>
      </trkpt>
      <trkpt lat="47.18619" lon="5.56936">
        <ele>339.96</ele>
        <time>2013-04-12T09:05:38Z</time>
      </trkpt>
      <trkpt lat="47.18628" lon="5.5693">
        <ele>341.41</ele>
        <time>2013-04-12T09:05:44Z</time>
      </trkpt>
      <trkpt lat="47.18634" lon="5.56928">
        <ele>342.37</ele>
        <time>2013-04-12T09:05:48Z</time>
      </trkpt>
      <trkpt lat="47.18651" lon="5.56922">
        <ele>345.25</ele>
        <time>2013-04-12T09:06:02Z</time>
      </trkpt>
      <trkpt lat="47.18668" lon="5.56912">
        <ele>347.65</ele>
        <time>2013-04-12T09:06:16Z</time>
      </trkpt>
      <trkpt lat="47.18671" lon="5.56912">
        <ele>348.13</ele>
        <time>2013-04-12T09:06:18Z</time>
      </trkpt>
      <trkpt lat="47.18687" lon="5.56906">
        <ele>351.02</ele>
        <time>2013-04-12T09:06:32Z</time>
      </trkpt>
      <trkpt lat="47.18703" lon="5.56905">
        <ele>353.9</ele>
        <time>2013-04-12T09:06:45Z</time>
      </trkpt>
      <trkpt lat="47.18716" lon="5.56899">
        <ele>356.79</ele>
        <time>2013-04-12T09:06:58Z</time>
      </trkpt>
      <trkpt lat="47.18727" lon="5.56894">
        <ele>357.75</ele>
        <time>2013-04-12T09:07:08Z</time>
      </trkpt>
      <trkpt lat="47.18732" lon="5.56891">
        <ele>358.23</ele>
        <time>2013-04-12T09:07:14Z</time>
      </trkpt>
      <trkpt lat="47.18749" lon="5.56881">
        <ele>360.63</ele>
        <time>2013-04-12T09:07:27Z</time>
      </trkpt>
      <trkpt lat="47.18757" lon="5.56879">
        <ele>361.59</ele>
        <time>2013-04-12T09:07:39Z</time>
      </trkpt>
      <trkpt lat="47.18759" lon="5.56879">
        <ele>361.59</ele>
        <time>2013-04-12T09:07:40Z</time>
      </trkpt>
      <trkpt lat="47.18767" lon="5.56879">
        <ele>362.55</ele>
        <time>2013-04-12T09:07:45Z</time>
      </trkpt>
      <trkpt lat="47.1879" lon="5.56868">
        <ele>364.48</ele>
        <time>2013-04-12T09:07:58Z</time>
      </trkpt>
      <trkpt lat="47.188" lon="5.56867">
        <ele>365.44</ele>
        <time>2013-04-12T09:08:03Z</time>
      </trkpt>
      <trkpt lat="47.18824" lon="5.56859">
        <ele>366.4</ele>
        <time>2013-04-12T09:08:16Z</time>
      </trkpt>
      <trkpt lat="47.18838" lon="5.56856">
        <ele>366.4</ele>
        <time>2013-04-12T09:08:23Z</time>
      </trkpt>
      <trkpt lat="47.1885" lon="5.56854">
        <ele>367.84</ele>
        <time>2013-04-12T09:08:29Z</time>
      </trkpt>
      <trkpt lat="47.18884" lon="5.56838">
        <ele>369.28</ele>
        <time>2013-04-12T09:08:42Z</time>
      </trkpt>
      <trkpt lat="47.18906" lon="5.56831">
        <ele>370.73</ele>
        <time>2013-04-12T09:08:53Z</time>
      </trkpt>
      <trkpt lat="47.18918" lon="5.5683">
        <ele>372.17</ele>
        <time>2013-04-12T09:08:58Z</time>
      </trkpt>
      <trkpt lat="47.18943" lon="5.56822">
        <ele>372.65</ele>
        <time>2013-04-12T09:09:10Z</time>
      </trkpt>
      <trkpt lat="47.18956" lon="5.5682">
        <ele>372.65</ele>
        <time>2013-04-12T09:09:17Z</time>
      </trkpt>
      <trkpt lat="47.18989" lon="5.56806">
        <ele>372.65</ele>
        <time>2013-04-12T09:09:30Z</time>
      </trkpt>
      <trkpt lat="47.19" lon="5.56786">
        <ele>372.17</ele>
        <time>2013-04-12T09:09:42Z</time>
      </trkpt>
      <trkpt lat="47.18997" lon="5.56778">
        <ele>372.17</ele>
        <time>2013-04-12T09:09:47Z</time>
      </trkpt>
      <trkpt lat="47.18994" lon="5.56771">
        <ele>372.65</ele>
        <time>2013-04-12T09:09:52Z</time>
      </trkpt>
      <trkpt lat="47.1898" lon="5.56743">
        <ele>372.65</ele>
        <time>2013-04-12T09:10:07Z</time>
      </trkpt>
      <trkpt lat="47.18969" lon="5.56712">
        <ele>371.21</ele>
        <time>2013-04-12T09:10:18Z</time>
      </trkpt>
      <trkpt lat="47.18966" lon="5.56705">
        <ele>370.73</ele>
        <time>2013-04-12T09:10:21Z</time>
      </trkpt>
      <trkpt lat="47.18962" lon="5.56701">
        <ele>370.24</ele>
        <time>2013-04-12T09:10:26Z</time>
      </trkpt>
      <trkpt lat="47.18961" lon="5.56697">
        <ele>370.24</ele>
        <time>2013-04-12T09:10:27Z</time>
      </trkpt>
      <trkpt lat="47.18953" lon="5.5667">
        <ele>368.32</ele>
        <time>2013-04-12T09:10:37Z</time>
      </trkpt>
      <trkpt lat="47.18936" lon="5.56638">
        <ele>366.4</ele>
        <time>2013-04-12T09:10:45Z</time>
      </trkpt>
      <trkpt lat="47.18914" lon="5.56589">
        <ele>363.52</ele>
        <time>2013-04-12T09:10:55Z</time>
      </trkpt>
      <trkpt lat="47.18911" lon="5.56584">
        <ele>363.52</ele>
        <time>2013-04-12T09:10:56Z</time>
      </trkpt>
      <trkpt lat="47.18894" lon="5.56548">
        <ele>361.59</ele>
        <time>2013-04-12T09:11:06Z</time>
      </trkpt>
      <trkpt lat="47.18892" lon="5.56545">
        <ele>361.11</ele>
        <time>2013-04-12T09:11:07Z</time>
      </trkpt>
      <trkpt lat="47.18886" lon="5.56534">
        <ele>360.63</ele>
        <time>2013-04-12T09:11:10Z</time>
      </trkpt>
      <trkpt lat="47.18872" lon="5.56503">
        <ele>360.15</ele>
        <time>2013-04-12T09:11:19Z</time>
      </trkpt>
      <trkpt lat="47.18863" lon="5.5648">
        <ele>359.19</ele>
        <time>2013-04-12T09:11:25Z</time>
      </trkpt>
      <trkpt lat="47.18861" lon="5.56477">
        <ele>359.19</ele>
        <time>2013-04-12T09:11:27Z</time>
      </trkpt>
      <trkpt lat="47.18855" lon="5.56462">
        <ele>359.19</ele>
        <time>2013-04-12T09:11:31Z</time>
      </trkpt>
      <trkpt lat="47.18845" lon="5.56441">
        <ele>356.79</ele>
        <time>2013-04-12T09:11:37Z</time>
      </trkpt>
      <trkpt lat="47.18836" lon="5.56421">
        <ele>354.38</ele>
        <time>2013-04-12T09:11:43Z</time>
      </trkpt>
      <trkpt lat="47.18814" lon="5.5639">
        <ele>351.02</ele>
        <time>2013-04-12T09:11:54Z</time>
      </trkpt>
      <trkpt lat="47.18799" lon="5.56369">
        <ele>347.65</ele>
        <time>2013-04-12T09:12:04Z</time>
      </trkpt>
      <trkpt lat="47.18798" lon="5.56365">
        <ele>347.17</ele>
        <time>2013-04-12T09:12:05Z</time>
      </trkpt>
      <trkpt lat="47.18783" lon="5.5635">
        <ele>345.73</ele>
        <time>2013-04-12T09:12:10Z</time>
      </trkpt>
      <trkpt lat="47.18778" lon="5.56345">
        <ele>345.25</ele>
        <time>2013-04-12T09:12:12Z</time>
      </trkpt>
      <trkpt lat="47.18775" lon="5.56339">
        <ele>344.29</ele>
        <time>2013-04-12T09:12:14Z</time>
      </trkpt>
      <trkpt lat="47.18756" lon="5.56312">
        <ele>341.89</ele>
        <time>2013-04-12T09:12:26Z</time>
      </trkpt>
      <trkpt lat="47.18754" lon="5.56303">
        <ele>342.85</ele>
        <time>2013-04-12T09:12:33Z</time>
      </trkpt>
      <trkpt lat="47.18748" lon="5.56299">
        <ele>342.37</ele>
        <time>2013-04-12T09:12:37Z</time>
      </trkpt>
      <trkpt lat="47.18744" lon="5.56294">
        <ele>342.37</ele>
        <time>2013-04-12T09:12:40Z</time>
      </trkpt>
      <trkpt lat="47.18725" lon="5.56284">
        <ele>341.89</ele>
        <time>2013-04-12T09:12:50Z</time>
      </trkpt>
      <trkpt lat="47.1871" lon="5.56271">
        <ele>341.89</ele>
        <time>2013-04-12T09:12:57Z</time>
      </trkpt>
      <trkpt lat="47.18699" lon="5.56244">
        <ele>342.37</ele>
        <time>2013-04-12T09:13:07Z</time>
      </trkpt>
      <trkpt lat="47.18677" lon="5.56213">
        <ele>340.44</ele>
        <time>2013-04-12T09:13:20Z</time>
      </trkpt>
      <trkpt lat="47.18661" lon="5.56202">
        <ele>339.48</ele>
        <time>2013-04-12T09:13:34Z</time>
      </trkpt>
      <trkpt lat="47.1865" lon="5.56195">
        <ele>339.48</ele>
        <time>2013-04-12T09:13:43Z</time>
      </trkpt>
      <trkpt lat="47.18643" lon="5.56189">
        <ele>340.44</ele>
        <time>2013-04-12T09:13:48Z</time>
      </trkpt>
      <trkpt lat="47.18634" lon="5.56182">
        <ele>340.92</ele>
        <time>2013-04-12T09:13:53Z</time>
      </trkpt>
      <trkpt lat="47.18622" lon="5.56166">
        <ele>342.37</ele>
        <time>2013-04-12T09:14:00Z</time>
      </trkpt>
      <trkpt lat="47.18616" lon="5.56157">
        <ele>345.25</ele>
        <time>2013-04-12T09:14:05Z</time>
      </trkpt>
      <trkpt lat="47.18612" lon="5.56152">
        <ele>347.17</ele>
        <time>2013-04-12T09:14:10Z</time>
      </trkpt>
      <trkpt lat="47.18601" lon="5.56141">
        <ele>350.06</ele>
        <time>2013-04-12T09:14:22Z</time>
      </trkpt>
      <trkpt lat="47.18589" lon="5.5612">
        <ele>351.98</ele>
        <time>2013-04-12T09:14:35Z</time>
      </trkpt>
      <trkpt lat="47.18575" lon="5.56104">
        <ele>354.38</ele>
        <time>2013-04-12T09:14:47Z</time>
      </trkpt>
      <trkpt lat="47.18563" lon="5.56089">
        <ele>356.79</ele>
        <time>2013-04-12T09:14:56Z</time>
      </trkpt>
      <trkpt lat="47.18549" lon="5.56072">
        <ele>358.23</ele>
        <time>2013-04-12T09:15:06Z</time>
      </trkpt>
      <trkpt lat="47.18546" lon="5.5607">
        <ele>359.19</ele>
        <time>2013-04-12T09:15:08Z</time>
      </trkpt>
      <trkpt lat="47.18543" lon="5.56065">
        <ele>359.67</ele>
        <time>2013-04-12T09:15:11Z</time>
      </trkpt>
      <trkpt lat="47.18534" lon="5.56052">
        <ele>361.59</ele>
        <time>2013-04-12T09:15:23Z</time>
      </trkpt>
      <trkpt lat="47.18525" lon="5.56045">
        <ele>361.11</ele>
        <time>2013-04-12T09:15:31Z</time>
      </trkpt>
      <trkpt lat="47.18522" lon="5.56038">
        <ele>361.11</ele>
        <time>2013-04-12T09:15:35Z</time>
      </trkpt>
      <trkpt lat="47.18507" lon="5.56022">
        <ele>362.07</ele>
        <time>2013-04-12T09:15:50Z</time>
      </trkpt>
      <trkpt lat="47.18505" lon="5.56015">
        <ele>361.59</ele>
        <time>2013-04-12T09:15:53Z</time>
      </trkpt>
      <trkpt lat="47.18497" lon="5.5601">
        <ele>361.11</ele>
        <time>2013-04-12T09:15:58Z</time>
      </trkpt>
      <trkpt lat="47.18489" lon="5.56001">
        <ele>362.55</ele>
        <time>2013-04-12T09:16:04Z</time>
      </trkpt>
      <trkpt lat="47.18467" lon="5.55974">
        <ele>361.59</ele>
        <time>2013-04-12T09:16:16Z</time>
      </trkpt>
      <trkpt lat="47.18454" lon="5.55957">
        <ele>360.15</ele>
        <time>2013-04-12T09:16:23Z</time>
      </trkpt>
      <trkpt lat="47.18449" lon="5.55949">
        <ele>360.15</ele>
        <time>2013-04-12T09:16:26Z</time>
      </trkpt>
      <trkpt lat="47.1844" lon="5.55934">
        <ele>360.63</ele>
        <time>2013-04-12T09:16:32Z</time>
      </trkpt>
      <trkpt lat="47.18431" lon="5.55928">
        <ele>359.19</ele>
        <time>2013-04-12T09:16:38Z</time>
      </trkpt>
      <trkpt lat="47.18413" lon="5.55907">
        <ele>357.75</ele>
        <time>2013-04-12T09:16:45Z</time>
      </trkpt>
      <trkpt lat="47.18409" lon="5.55897">
        <ele>358.23</ele>
        <time>2013-04-12T09:16:47Z</time>
      </trkpt>
      <trkpt lat="47.18408" lon="5.55888">
        <ele>357.27</ele>
        <time>2013-04-12T09:16:50Z</time>
      </trkpt>
      <trkpt lat="47.18409" lon="5.55883">
        <ele>357.75</ele>
        <time>2013-04-12T09:16:52Z</time>
      </trkpt>
      <trkpt lat="47.18412" lon="5.55869">
        <ele>357.75</ele>
        <time>2013-04-12T09:16:56Z</time>
      </trkpt>
      <trkpt lat="47.18415" lon="5.55864">
        <ele>357.75</ele>
        <time>2013-04-12T09:16:58Z</time>
      </trkpt>
      <trkpt lat="47.18436" lon="5.55842">
        <ele>359.67</ele>
        <time>2013-04-12T09:17:09Z</time>
      </trkpt>
      <trkpt lat="47.18447" lon="5.55825">
        <ele>359.67</ele>
        <time>2013-04-12T09:17:16Z</time>
      </trkpt>
      <trkpt lat="47.18453" lon="5.55815">
        <ele>360.63</ele>
        <time>2013-04-12T09:17:20Z</time>
      </trkpt>
      <trkpt lat="47.18455" lon="5.55809">
        <ele>361.11</ele>
        <time>2013-04-12T09:17:22Z</time>
      </trkpt>
      <trkpt lat="47.18474" lon="5.55792">
        <ele>362.07</ele>
        <time>2013-04-12T09:17:33Z</time>
      </trkpt>
      <trkpt lat="47.18485" lon="5.55783">
        <ele>362.55</ele>
        <time>2013-04-12T09:17:38Z</time>
      </trkpt>
      <trkpt lat="47.18498" lon="5.5576">
        <ele>362.55</ele>
        <time>2013-04-12T09:17:45Z</time>
      </trkpt>
      <trkpt lat="47.18502" lon="5.55755">
        <ele>362.55</ele>
        <time>2013-04-12T09:17:47Z</time>
      </trkpt>
      <trkpt lat="47.18511" lon="5.55743">
        <ele>362.55</ele>
        <time>2013-04-12T09:17:53Z</time>
      </trkpt>
      <trkpt lat="47.18524" lon="5.55724">
        <ele>362.55</ele>
        <time>2013-04-12T09:18:00Z</time>
      </trkpt>
      <trkpt lat="47.18537" lon="5.55709">
        <ele>362.07</ele>
        <time>2013-04-12T09:18:06Z</time>
      </trkpt>
      <trkpt lat="47.18557" lon="5.55677">
        <ele>361.11</ele>
        <time>2013-04-12T09:18:17Z</time>
      </trkpt>
      <trkpt lat="47.18578" lon="5.55643">
        <ele>361.11</ele>
        <time>2013-04-12T09:18:26Z</time>
      </trkpt>
      <trkpt lat="47.18587" lon="5.5562">
        <ele>361.11</ele>
        <time>2013-04-12T09:18:28Z</time>
      </trkpt>
      <trkpt lat="47.18593" lon="5.55608">
        <ele>361.11</ele>
        <time>2013-04-12T09:18:33Z</time>
      </trkpt>
      <trkpt lat="47.18601" lon="5.556">
        <ele>360.63</ele>
        <time>2013-04-12T09:18:38Z</time>
      </trkpt>
      <trkpt lat="47.18611" lon="5.55585">
        <ele>359.67</ele>
        <time>2013-04-12T09:18:46Z</time>
      </trkpt>
      <trkpt lat="47.18628" lon="5.55569">
        <ele>359.67</ele>
        <time>2013-04-12T09:18:57Z</time>
      </trkpt>
      <trkpt lat="47.18637" lon="5.55554">
        <ele>359.19</ele>
        <time>2013-04-12T09:19:04Z</time>
      </trkpt>
      <trkpt lat="47.18649" lon="5.55519">
        <ele>360.15</ele>
        <time>2013-04-12T09:19:13Z</time>
      </trkpt>
      <trkpt lat="47.18657" lon="5.55484">
        <ele>361.11</ele>
        <time>2013-04-12T09:19:23Z</time>
      </trkpt>
      <trkpt lat="47.1866" lon="5.55455">
        <ele>362.55</ele>
        <time>2013-04-12T09:19:28Z</time>
      </trkpt>
      <trkpt lat="47.18664" lon="5.55399">
        <ele>364.48</ele>
        <time>2013-04-12T09:19:42Z</time>
      </trkpt>
      <trkpt lat="47.1867" lon="5.55365">
        <ele>364.96</ele>
        <time>2013-04-12T09:19:53Z</time>
      </trkpt>
      <trkpt lat="47.18676" lon="5.55344">
        <ele>364.96</ele>
        <time>2013-04-12T09:20:00Z</time>
      </trkpt>
      <trkpt lat="47.18686" lon="5.55325">
        <ele>364.96</ele>
        <time>2013-04-12T09:20:07Z</time>
      </trkpt>
      <trkpt lat="47.18689" lon="5.55317">
        <ele>364.48</ele>
        <time>2013-04-12T09:20:10Z</time>
      </trkpt>
      <trkpt lat="47.18691" lon="5.55308">
        <ele>364</ele>
        <time>2013-04-12T09:20:12Z</time>
      </trkpt>
      <trkpt lat="47.18695" lon="5.55284">
        <ele>364.48</ele>
        <time>2013-04-12T09:20:17Z</time>
      </trkpt>
      <trkpt lat="47.18696" lon="5.55254">
        <ele>364.96</ele>
        <time>2013-04-12T09:20:23Z</time>
      </trkpt>
      <trkpt lat="47.18689" lon="5.55209">
        <ele>364.48</ele>
        <time>2013-04-12T09:20:34Z</time>
      </trkpt>
      <trkpt lat="47.18688" lon="5.55201">
        <ele>364</ele>
        <time>2013-04-12T09:20:36Z</time>
      </trkpt>
      <trkpt lat="47.18684" lon="5.55192">
        <ele>363.52</ele>
        <time>2013-04-12T09:20:40Z</time>
      </trkpt>
      <trkpt lat="47.18681" lon="5.55182">
        <ele>364</ele>
        <time>2013-04-12T09:20:43Z</time>
      </trkpt>
      <trkpt lat="47.18668" lon="5.55137">
        <ele>364</ele>
        <time>2013-04-12T09:20:53Z</time>
      </trkpt>
      <trkpt lat="47.18666" lon="5.551">
        <ele>364.96</ele>
        <time>2013-04-12T09:21:03Z</time>
      </trkpt>
      <trkpt lat="47.18663" lon="5.55067">
        <ele>365.92</ele>
        <time>2013-04-12T09:21:12Z</time>
      </trkpt>
      <trkpt lat="47.18662" lon="5.55035">
        <ele>365.44</ele>
        <time>2013-04-12T09:21:19Z</time>
      </trkpt>
      <trkpt lat="47.18661" lon="5.54997">
        <ele>365.92</ele>
        <time>2013-04-12T09:21:28Z</time>
      </trkpt>
      <trkpt lat="47.18662" lon="5.54986">
        <ele>365.92</ele>
        <time>2013-04-12T09:21:31Z</time>
      </trkpt>
      <trkpt lat="47.18664" lon="5.54976">
        <ele>365.44</ele>
        <time>2013-04-12T09:21:34Z</time>
      </trkpt>
      <trkpt lat="47.18666" lon="5.5494">
        <ele>364.48</ele>
        <time>2013-04-12T09:21:45Z</time>
      </trkpt>
      <trkpt lat="47.18682" lon="5.54952">
        <ele>364.48</ele>
        <time>2013-04-12T09:21:55Z</time>
      </trkpt>
      <trkpt lat="47.18687" lon="5.5496">
        <ele>364.48</ele>
        <time>2013-04-12T09:21:59Z</time>
      </trkpt>
      <trkpt lat="47.1869" lon="5.54966">
        <ele>364.48</ele>
        <time>2013-04-12T09:22:04Z</time>
      </trkpt>
      <trkpt lat="47.18692" lon="5.54971">
        <ele>364.96</ele>
        <time>2013-04-12T09:22:08Z</time>
      </trkpt>
      <trkpt lat="47.18699" lon="5.54985">
        <ele>365.44</ele>
        <time>2013-04-12T09:22:19Z</time>
      </trkpt>
      <trkpt lat="47.18705" lon="5.54995">
        <ele>365.92</ele>
        <time>2013-04-12T09:22:32Z</time>
      </trkpt>
      <trkpt lat="47.18706" lon="5.55">
        <ele>365.44</ele>
        <time>2013-04-12T09:22:35Z</time>
      </trkpt>
      <trkpt lat="47.18717" lon="5.55037">
        <ele>366.4</ele>
        <time>2013-04-12T09:22:47Z</time>
      </trkpt>
      <trkpt lat="47.18735" lon="5.55079">
        <ele>367.36</ele>
        <time>2013-04-12T09:23:01Z</time>
      </trkpt>
      <trkpt lat="47.18748" lon="5.55122">
        <ele>367.84</ele>
        <time>2013-04-12T09:23:14Z</time>
      </trkpt>
      <trkpt lat="47.18753" lon="5.55161">
        <ele>368.8</ele>
        <time>2013-04-12T09:23:25Z</time>
      </trkpt>
      <trkpt lat="47.18756" lon="5.55196">
        <ele>370.24</ele>
        <time>2013-04-12T09:23:35Z</time>
      </trkpt>
      <trkpt lat="47.18765" lon="5.55224">
        <ele>371.21</ele>
        <time>2013-04-12T09:23:45Z</time>
      </trkpt>
      <trkpt lat="47.18795" lon="5.5522">
        <ele>371.69</ele>
        <time>2013-04-12T09:23:56Z</time>
      </trkpt>
      <trkpt lat="47.18808" lon="5.55221">
        <ele>371.21</ele>
        <time>2013-04-12T09:24:05Z</time>
      </trkpt>
      <trkpt lat="47.18818" lon="5.55238">
        <ele>371.69</ele>
        <time>2013-04-12T09:24:16Z</time>
      </trkpt>
      <trkpt lat="47.18832" lon="5.55252">
        <ele>371.69</ele>
        <time>2013-04-12T09:24:21Z</time>
      </trkpt>
      <trkpt lat="47.18851" lon="5.55263">
        <ele>370.24</ele>
        <time>2013-04-12T09:24:29Z</time>
      </trkpt>
      <trkpt lat="47.18876" lon="5.55269">
        <ele>366.88</ele>
        <time>2013-04-12T09:24:42Z</time>
      </trkpt>
      <trkpt lat="47.1888" lon="5.55274">
        <ele>366.88</ele>
        <time>2013-04-12T09:24:45Z</time>
      </trkpt>
      <trkpt lat="47.18913" lon="5.55295">
        <ele>366.4</ele>
        <time>2013-04-12T09:24:58Z</time>
      </trkpt>
      <trkpt lat="47.18918" lon="5.55296">
        <ele>365.92</ele>
        <time>2013-04-12T09:25:01Z</time>
      </trkpt>
      <trkpt lat="47.18922" lon="5.55301">
        <ele>364.96</ele>
        <time>2013-04-12T09:25:06Z</time>
      </trkpt>
      <trkpt lat="47.18927" lon="5.55302">
        <ele>364.48</ele>
        <time>2013-04-12T09:25:08Z</time>
      </trkpt>
      <trkpt lat="47.18943" lon="5.55306">
        <ele>362.07</ele>
        <time>2013-04-12T09:25:14Z</time>
      </trkpt>
      <trkpt lat="47.1897" lon="5.55303">
        <ele>359.19</ele>
        <time>2013-04-12T09:25:22Z</time>
      </trkpt>
      <trkpt lat="47.18973" lon="5.55302">
        <ele>358.71</ele>
        <time>2013-04-12T09:25:24Z</time>
      </trkpt>
      <trkpt lat="47.19021" lon="5.55283">
        <ele>356.31</ele>
        <time>2013-04-12T09:25:36Z</time>
      </trkpt>
      <trkpt lat="47.19053" lon="5.55264">
        <ele>355.34</ele>
        <time>2013-04-12T09:25:49Z</time>
      </trkpt>
      <trkpt lat="47.19057" lon="5.5526">
        <ele>354.86</ele>
        <time>2013-04-12T09:25:51Z</time>
      </trkpt>
      <trkpt lat="47.19097" lon="5.55228">
        <ele>352.94</ele>
        <time>2013-04-12T09:26:05Z</time>
      </trkpt>
      <trkpt lat="47.19131" lon="5.55194">
        <ele>350.54</ele>
        <time>2013-04-12T09:26:18Z</time>
      </trkpt>
      <trkpt lat="47.19154" lon="5.55171">
        <ele>349.58</ele>
        <time>2013-04-12T09:26:26Z</time>
      </trkpt>
      <trkpt lat="47.19197" lon="5.55131">
        <ele>348.62</ele>
        <time>2013-04-12T09:26:41Z</time>
      </trkpt>
      <trkpt lat="47.19204" lon="5.55127">
        <ele>348.13</ele>
        <time>2013-04-12T09:26:45Z</time>
      </trkpt>
      <trkpt lat="47.1923" lon="5.55107">
        <ele>345.73</ele>
        <time>2013-04-12T09:26:57Z</time>
      </trkpt>
      <trkpt lat="47.19286" lon="5.55036">
        <ele>344.29</ele>
        <time>2013-04-12T09:27:08Z</time>
      </trkpt>
      <trkpt lat="47.19305" lon="5.55019">
        <ele>343.33</ele>
        <time>2013-04-12T09:27:20Z</time>
      </trkpt>
      <trkpt lat="47.19316" lon="5.5501">
        <ele>342.85</ele>
        <time>2013-04-12T09:27:24Z</time>
      </trkpt>
      <trkpt lat="47.19331" lon="5.55">
        <ele>342.85</ele>
        <time>2013-04-12T09:27:31Z</time>
      </trkpt>
      <trkpt lat="47.19362" lon="5.54983">
        <ele>340.92</ele>
        <time>2013-04-12T09:27:45Z</time>
      </trkpt>
      <trkpt lat="47.19371" lon="5.54973">
        <ele>339</ele>
        <time>2013-04-12T09:27:50Z</time>
      </trkpt>
      <trkpt lat="47.19373" lon="5.54972">
        <ele>338.04</ele>
        <time>2013-04-12T09:27:52Z</time>
      </trkpt>
      <trkpt lat="47.19381" lon="5.54969">
        <ele>335.16</ele>
        <time>2013-04-12T09:27:56Z</time>
      </trkpt>
      <trkpt lat="47.19393" lon="5.54958">
        <ele>334.2</ele>
        <time>2013-04-12T09:28:02Z</time>
      </trkpt>
      <trkpt lat="47.19403" lon="5.54948">
        <ele>331.79</ele>
        <time>2013-04-12T09:28:07Z</time>
      </trkpt>
      <trkpt lat="47.1941" lon="5.54944">
        <ele>330.83</ele>
        <time>2013-04-12T09:28:10Z</time>
      </trkpt>
      <trkpt lat="47.19423" lon="5.5493">
        <ele>327.47</ele>
        <time>2013-04-12T09:28:17Z</time>
      </trkpt>
      <trkpt lat="47.19442" lon="5.54911">
        <ele>324.58</ele>
        <time>2013-04-12T09:28:25Z</time>
      </trkpt>
      <trkpt lat="47.19479" lon="5.54857">
        <ele>322.18</ele>
        <time>2013-04-12T09:28:29Z</time>
      </trkpt>
      <trkpt lat="47.19486" lon="5.54855">
        <ele>318.33</ele>
        <time>2013-04-12T09:28:38Z</time>
      </trkpt>
      <trkpt lat="47.19493" lon="5.54851">
        <ele>314.97</ele>
        <time>2013-04-12T09:28:46Z</time>
      </trkpt>
      <trkpt lat="47.19495" lon="5.54849">
        <ele>314.49</ele>
        <time>2013-04-12T09:28:47Z</time>
      </trkpt>
      <trkpt lat="47.19505" lon="5.54843">
        <ele>310.64</ele>
        <time>2013-04-12T09:28:55Z</time>
      </trkpt>
      <trkpt lat="47.19505" lon="5.5484">
        <ele>309.68</ele>
        <time>2013-04-12T09:29:07Z</time>
      </trkpt>
      <trkpt lat="47.195" lon="5.54837">
        <ele>310.16</ele>
        <time>2013-04-12T09:29:11Z</time>
      </trkpt>
      <trkpt lat="47.19498" lon="5.54821">
        <ele>310.16</ele>
        <time>2013-04-12T09:29:17Z</time>
      </trkpt>
      <trkpt lat="47.19491" lon="5.54776">
        <ele>309.68</ele>
        <time>2013-04-12T09:29:33Z</time>
      </trkpt>
      <trkpt lat="47.19489" lon="5.54771">
        <ele>308.72</ele>
        <time>2013-04-12T09:29:35Z</time>
      </trkpt>
      <trkpt lat="47.19482" lon="5.54756">
        <ele>308.72</ele>
        <time>2013-04-12T09:29:40Z</time>
      </trkpt>
      <trkpt lat="47.19478" lon="5.54715">
        <ele>307.28</ele>
        <time>2013-04-12T09:29:50Z</time>
      </trkpt>
      <trkpt lat="47.19467" lon="5.54691">
        <ele>304.39</ele>
        <time>2013-04-12T09:29:59Z</time>
      </trkpt>
      <trkpt lat="47.19466" lon="5.54683">
        <ele>305.84</ele>
        <time>2013-04-12T09:30:02Z</time>
      </trkpt>
      <trkpt lat="47.19457" lon="5.54656">
        <ele>306.32</ele>
        <time>2013-04-12T09:30:10Z</time>
      </trkpt>
      <trkpt lat="47.19448" lon="5.54624">
        <ele>304.88</ele>
        <time>2013-04-12T09:30:20Z</time>
      </trkpt>
      <trkpt lat="47.19448" lon="5.54621">
        <ele>304.88</ele>
        <time>2013-04-12T09:30:22Z</time>
      </trkpt>
      <trkpt lat="47.19448" lon="5.54614">
        <ele>302.47</ele>
        <time>2013-04-12T09:30:30Z</time>
      </trkpt>
      <trkpt lat="47.19449" lon="5.54611">
        <ele>302.47</ele>
        <time>2013-04-12T09:30:32Z</time>
      </trkpt>
      <trkpt lat="47.19455" lon="5.54601">
        <ele>302.47</ele>
        <time>2013-04-12T09:30:37Z</time>
      </trkpt>
      <trkpt lat="47.19466" lon="5.54577">
        <ele>301.99</ele>
        <time>2013-04-12T09:30:49Z</time>
      </trkpt>
      <trkpt lat="47.19465" lon="5.54552">
        <ele>299.59</ele>
        <time>2013-04-12T09:31:00Z</time>
      </trkpt>
      <trkpt lat="47.1947" lon="5.54452">
        <ele>297.18</ele>
        <time>2013-04-12T09:31:12Z</time>
      </trkpt>
      <trkpt lat="47.19456" lon="5.54427">
        <ele>294.78</ele>
        <time>2013-04-12T09:31:22Z</time>
      </trkpt>
      <trkpt lat="47.19468" lon="5.54426">
        <ele>293.82</ele>
        <time>2013-04-12T09:31:28Z</time>
      </trkpt>
      <trkpt lat="47.19481" lon="5.54461">
        <ele>291.42</ele>
        <time>2013-04-12T09:31:39Z</time>
      </trkpt>
      <trkpt lat="47.19485" lon="5.54478">
        <ele>290.46</ele>
        <time>2013-04-12T09:31:44Z</time>
      </trkpt>
      <trkpt lat="47.19486" lon="5.54495">
        <ele>289.49</ele>
        <time>2013-04-12T09:31:48Z</time>
      </trkpt>
      <trkpt lat="47.19498" lon="5.54527">
        <ele>287.09</ele>
        <time>2013-04-12T09:31:57Z</time>
      </trkpt>
      <trkpt lat="47.19507" lon="5.54537">
        <ele>285.65</ele>
        <time>2013-04-12T09:32:02Z</time>
      </trkpt>
      <trkpt lat="47.19509" lon="5.54543">
        <ele>285.65</ele>
        <time>2013-04-12T09:32:04Z</time>
      </trkpt>
      <trkpt lat="47.19519" lon="5.54555">
        <ele>284.69</ele>
        <time>2013-04-12T09:32:10Z</time>
      </trkpt>
      <trkpt lat="47.19521" lon="5.54562">
        <ele>283.73</ele>
        <time>2013-04-12T09:32:12Z</time>
      </trkpt>
      <trkpt lat="47.19526" lon="5.54598">
        <ele>282.28</ele>
        <time>2013-04-12T09:32:20Z</time>
      </trkpt>
      <trkpt lat="47.19532" lon="5.54619">
        <ele>280.84</ele>
        <time>2013-04-12T09:32:25Z</time>
      </trkpt>
      <trkpt lat="47.19541" lon="5.54635">
        <ele>278.44</ele>
        <time>2013-04-12T09:32:30Z</time>
      </trkpt>
      <trkpt lat="47.19548" lon="5.54645">
        <ele>277.48</ele>
        <time>2013-04-12T09:32:34Z</time>
      </trkpt>
      <trkpt lat="47.19554" lon="5.54649">
        <ele>276.04</ele>
        <time>2013-04-12T09:32:38Z</time>
      </trkpt>
      <trkpt lat="47.19559" lon="5.54633">
        <ele>275.56</ele>
        <time>2013-04-12T09:32:42Z</time>
      </trkpt>
      <trkpt lat="47.1956" lon="5.54586">
        <ele>273.63</ele>
        <time>2013-04-12T09:32:54Z</time>
      </trkpt>
      <trkpt lat="47.19555" lon="5.54548">
        <ele>273.15</ele>
        <time>2013-04-12T09:33:04Z</time>
      </trkpt>
      <trkpt lat="47.1955" lon="5.54537">
        <ele>272.67</ele>
        <time>2013-04-12T09:33:08Z</time>
      </trkpt>
      <trkpt lat="47.19554" lon="5.54537">
        <ele>272.19</ele>
        <time>2013-04-12T09:33:12Z</time>
      </trkpt>
      <trkpt lat="47.19558" lon="5.54573">
        <ele>268.83</ele>
        <time>2013-04-12T09:33:23Z</time>
      </trkpt>
      <trkpt lat="47.1957" lon="5.54611">
        <ele>266.42</ele>
        <time>2013-04-12T09:33:32Z</time>
      </trkpt>
      <trkpt lat="47.19586" lon="5.54652">
        <ele>264.5</ele>
        <time>2013-04-12T09:33:43Z</time>
      </trkpt>
      <trkpt lat="47.19605" lon="5.54688">
        <ele>264.02</ele>
        <time>2013-04-12T09:33:54Z</time>
      </trkpt>
      <trkpt lat="47.19606" lon="5.54691">
        <ele>264.02</ele>
        <time>2013-04-12T09:33:55Z</time>
      </trkpt>
      <trkpt lat="47.19611" lon="5.54699">
        <ele>263.06</ele>
        <time>2013-04-12T09:33:58Z</time>
      </trkpt>
      <trkpt lat="47.19638" lon="5.54696">
        <ele>260.17</ele>
        <time>2013-04-12T09:34:09Z</time>
      </trkpt>
      <trkpt lat="47.19667" lon="5.54672">
        <ele>257.77</ele>
        <time>2013-04-12T09:34:21Z</time>
      </trkpt>
      <trkpt lat="47.19688" lon="5.54669">
        <ele>257.29</ele>
        <time>2013-04-12T09:34:30Z</time>
      </trkpt>
      <trkpt lat="47.19706" lon="5.54698">
        <ele>255.37</ele>
        <time>2013-04-12T09:34:41Z</time>
      </trkpt>
      <trkpt lat="47.19708" lon="5.54708">
        <ele>254.89</ele>
        <time>2013-04-12T09:34:43Z</time>
      </trkpt>
      <trkpt lat="47.19703" lon="5.5475">
        <ele>253.93</ele>
        <time>2013-04-12T09:34:52Z</time>
      </trkpt>
      <trkpt lat="47.19706" lon="5.54793">
        <ele>252</ele>
        <time>2013-04-12T09:35:02Z</time>
      </trkpt>
      <trkpt lat="47.19715" lon="5.54834">
        <ele>250.08</ele>
        <time>2013-04-12T09:35:12Z</time>
      </trkpt>
      <trkpt lat="47.19729" lon="5.54877">
        <ele>247.2</ele>
        <time>2013-04-12T09:35:23Z</time>
      </trkpt>
      <trkpt lat="47.1974" lon="5.54911">
        <ele>244.79</ele>
        <time>2013-04-12T09:35:30Z</time>
      </trkpt>
      <trkpt lat="47.19751" lon="5.54947">
        <ele>241.91</ele>
        <time>2013-04-12T09:35:39Z</time>
      </trkpt>
      <trkpt lat="47.19763" lon="5.54992">
        <ele>239.02</ele>
        <time>2013-04-12T09:35:50Z</time>
      </trkpt>
      <trkpt lat="47.19778" lon="5.5504">
        <ele>238.54</ele>
        <time>2013-04-12T09:36:01Z</time>
      </trkpt>
      <trkpt lat="47.19778" lon="5.5506">
        <ele>238.06</ele>
        <time>2013-04-12T09:36:06Z</time>
      </trkpt>
      <trkpt lat="47.19777" lon="5.55064">
        <ele>238.06</ele>
        <time>2013-04-12T09:36:07Z</time>
      </trkpt>
      <trkpt lat="47.19775" lon="5.55087">
        <ele>238.06</ele>
        <time>2013-04-12T09:36:15Z</time>
      </trkpt>
      <trkpt lat="47.19784" lon="5.55115">
        <ele>237.58</ele>
        <time>2013-04-12T09:36:23Z</time>
      </trkpt>
      <trkpt lat="47.19791" lon="5.55151">
        <ele>236.62</ele>
        <time>2013-04-12T09:36:33Z</time>
      </trkpt>
      <trkpt lat="47.198" lon="5.55182">
        <ele>236.14</ele>
        <time>2013-04-12T09:36:44Z</time>
      </trkpt>
      <trkpt lat="47.19832" lon="5.55195">
        <ele>235.66</ele>
        <time>2013-04-12T09:36:56Z</time>
      </trkpt>
      <trkpt lat="47.19858" lon="5.55217">
        <ele>235.18</ele>
        <time>2013-04-12T09:37:07Z</time>
      </trkpt>
      <trkpt lat="47.19859" lon="5.5522">
        <ele>235.18</ele>
        <time>2013-04-12T09:37:09Z</time>
      </trkpt>
      <trkpt lat="47.19866" lon="5.55225">
        <ele>235.18</ele>
        <time>2013-04-12T09:37:12Z</time>
      </trkpt>
      <trkpt lat="47.1988" lon="5.55252">
        <ele>234.7</ele>
        <time>2013-04-12T09:37:20Z</time>
      </trkpt>
      <trkpt lat="47.19892" lon="5.55272">
        <ele>234.22</ele>
        <time>2013-04-12T09:37:28Z</time>
      </trkpt>
      <trkpt lat="47.1991" lon="5.55284">
        <ele>233.26</ele>
        <time>2013-04-12T09:37:39Z</time>
      </trkpt>
      <trkpt lat="47.19931" lon="5.55272">
        <ele>234.22</ele>
        <time>2013-04-12T09:37:56Z</time>
      </trkpt>
      <trkpt lat="47.19949" lon="5.55242">
        <ele>236.14</ele>
        <time>2013-04-12T09:38:14Z</time>
      </trkpt>
      <trkpt lat="47.19948" lon="5.55231">
        <ele>238.06</ele>
        <time>2013-04-12T09:38:20Z</time>
      </trkpt>
      <trkpt lat="47.19949" lon="5.55223">
        <ele>237.1</ele>
        <time>2013-04-12T09:38:23Z</time>
      </trkpt>
      <trkpt lat="47.1995" lon="5.552">
        <ele>239.02</ele>
        <time>2013-04-12T09:38:37Z</time>
      </trkpt>
      <trkpt lat="47.19945" lon="5.55171">
        <ele>240.95</ele>
        <time>2013-04-12T09:38:50Z</time>
      </trkpt>
      <trkpt lat="47.19937" lon="5.55137">
        <ele>242.87</ele>
        <time>2013-04-12T09:39:02Z</time>
      </trkpt>
      <trkpt lat="47.19932" lon="5.55116">
        <ele>245.75</ele>
        <time>2013-04-12T09:39:11Z</time>
      </trkpt>
      <trkpt lat="47.19927" lon="5.55087">
        <ele>248.64</ele>
        <time>2013-04-12T09:39:23Z</time>
      </trkpt>
      <trkpt lat="47.19921" lon="5.55064">
        <ele>251.04</ele>
        <time>2013-04-12T09:39:36Z</time>
      </trkpt>
      <trkpt lat="47.19921" lon="5.55061">
        <ele>251.52</ele>
        <time>2013-04-12T09:39:37Z</time>
      </trkpt>
      <trkpt lat="47.1992" lon="5.55059">
        <ele>252</ele>
        <time>2013-04-12T09:39:38Z</time>
      </trkpt>
      <trkpt lat="47.1992" lon="5.55057">
        <ele>251.52</ele>
        <time>2013-04-12T09:39:39Z</time>
      </trkpt>
      <trkpt lat="47.1992" lon="5.55055">
        <ele>252</ele>
        <time>2013-04-12T09:39:40Z</time>
      </trkpt>
      <trkpt lat="47.19916" lon="5.55018">
        <ele>253.93</ele>
        <time>2013-04-12T09:39:54Z</time>
      </trkpt>
      <trkpt lat="47.19916" lon="5.54992">
        <ele>254.89</ele>
        <time>2013-04-12T09:40:05Z</time>
      </trkpt>
      <trkpt lat="47.19912" lon="5.5497">
        <ele>257.29</ele>
        <time>2013-04-12T09:40:18Z</time>
      </trkpt>
      <trkpt lat="47.19914" lon="5.5495">
        <ele>259.69</ele>
        <time>2013-04-12T09:40:32Z</time>
      </trkpt>
      <trkpt lat="47.19927" lon="5.54927">
        <ele>262.1</ele>
        <time>2013-04-12T09:40:48Z</time>
      </trkpt>
      <trkpt lat="47.19939" lon="5.54912">
        <ele>264.5</ele>
        <time>2013-04-12T09:40:58Z</time>
      </trkpt>
      <trkpt lat="47.1996" lon="5.54894">
        <ele>267.38</ele>
        <time>2013-04-12T09:41:15Z</time>
      </trkpt>
      <trkpt lat="47.19975" lon="5.54899">
        <ele>268.35</ele>
        <time>2013-04-12T09:41:28Z</time>
      </trkpt>
      <trkpt lat="47.1999" lon="5.54908">
        <ele>270.27</ele>
        <time>2013-04-12T09:41:43Z</time>
      </trkpt>
      <trkpt lat="47.19994" lon="5.54912">
        <ele>271.23</ele>
        <time>2013-04-12T09:41:47Z</time>
      </trkpt>
      <trkpt lat="47.20008" lon="5.54926">
        <ele>272.19</ele>
        <time>2013-04-12T09:42:01Z</time>
      </trkpt>
      <trkpt lat="47.20023" lon="5.54945">
        <ele>273.63</ele>
        <time>2013-04-12T09:42:16Z</time>
      </trkpt>
      <trkpt lat="47.20031" lon="5.54957">
        <ele>274.11</ele>
        <time>2013-04-12T09:42:25Z</time>
      </trkpt>
      <trkpt lat="47.20042" lon="5.54966">
        <ele>274.59</ele>
        <time>2013-04-12T09:42:39Z</time>
      </trkpt>
      <trkpt lat="47.20057" lon="5.5497">
        <ele>276.04</ele>
        <time>2013-04-12T09:42:54Z</time>
      </trkpt>
      <trkpt lat="47.20076" lon="5.54972">
        <ele>279.4</ele>
        <time>2013-04-12T09:43:07Z</time>
      </trkpt>
      <trkpt lat="47.20102" lon="5.54975">
        <ele>282.28</ele>
        <time>2013-04-12T09:43:21Z</time>
      </trkpt>
      <trkpt lat="47.20118" lon="5.54981">
        <ele>284.21</ele>
        <time>2013-04-12T09:43:31Z</time>
      </trkpt>
      <trkpt lat="47.20128" lon="5.54984">
        <ele>285.17</ele>
        <time>2013-04-12T09:43:38Z</time>
      </trkpt>
      <trkpt lat="47.20148" lon="5.54989">
        <ele>287.57</ele>
        <time>2013-04-12T09:43:55Z</time>
      </trkpt>
      <trkpt lat="47.20169" lon="5.54975">
        <ele>289.49</ele>
        <time>2013-04-12T09:44:03Z</time>
      </trkpt>
      <trkpt lat="47.20192" lon="5.54969">
        <ele>289.97</ele>
        <time>2013-04-12T09:44:21Z</time>
      </trkpt>
      <trkpt lat="47.20208" lon="5.54962">
        <ele>289.97</ele>
        <time>2013-04-12T09:44:31Z</time>
      </trkpt>
      <trkpt lat="47.20214" lon="5.54959">
        <ele>291.9</ele>
        <time>2013-04-12T09:44:34Z</time>
      </trkpt>
      <trkpt lat="47.2023" lon="5.54948">
        <ele>292.38</ele>
        <time>2013-04-12T09:44:44Z</time>
      </trkpt>
      <trkpt lat="47.20251" lon="5.54939">
        <ele>293.82</ele>
        <time>2013-04-12T09:44:55Z</time>
      </trkpt>
      <trkpt lat="47.20265" lon="5.54936">
        <ele>295.74</ele>
        <time>2013-04-12T09:45:02Z</time>
      </trkpt>
      <trkpt lat="47.20266" lon="5.54936">
        <ele>296.22</ele>
        <time>2013-04-12T09:45:03Z</time>
      </trkpt>
      <trkpt lat="47.20268" lon="5.54937">
        <ele>296.22</ele>
        <time>2013-04-12T09:45:04Z</time>
      </trkpt>
      <trkpt lat="47.20271" lon="5.54937">
        <ele>295.74</ele>
        <time>2013-04-12T09:45:05Z</time>
      </trkpt>
      <trkpt lat="47.20273" lon="5.54937">
        <ele>296.22</ele>
        <time>2013-04-12T09:45:06Z</time>
      </trkpt>
      <trkpt lat="47.20299" lon="5.5493">
        <ele>296.22</ele>
        <time>2013-04-12T09:45:19Z</time>
      </trkpt>
      <trkpt lat="47.20314" lon="5.54919">
        <ele>297.18</ele>
        <time>2013-04-12T09:45:27Z</time>
      </trkpt>
      <trkpt lat="47.20323" lon="5.54908">
        <ele>297.67</ele>
        <time>2013-04-12T09:45:33Z</time>
      </trkpt>
      <trkpt lat="47.20329" lon="5.54895">
        <ele>297.18</ele>
        <time>2013-04-12T09:45:38Z</time>
      </trkpt>
      <trkpt lat="47.20331" lon="5.54893">
        <ele>297.18</ele>
        <time>2013-04-12T09:45:39Z</time>
      </trkpt>
      <trkpt lat="47.20332" lon="5.54891">
        <ele>296.7</ele>
        <time>2013-04-12T09:45:40Z</time>
      </trkpt>
      <trkpt lat="47.20339" lon="5.5488">
        <ele>298.63</ele>
        <time>2013-04-12T09:45:45Z</time>
      </trkpt>
      <trkpt lat="47.2034" lon="5.54878">
        <ele>299.11</ele>
        <time>2013-04-12T09:45:46Z</time>
      </trkpt>
      <trkpt lat="47.20341" lon="5.54876">
        <ele>298.63</ele>
        <time>2013-04-12T09:45:47Z</time>
      </trkpt>
      <trkpt lat="47.20342" lon="5.54875">
        <ele>298.63</ele>
        <time>2013-04-12T09:45:48Z</time>
      </trkpt>
      <trkpt lat="47.20344" lon="5.54873">
        <ele>299.11</ele>
        <time>2013-04-12T09:45:49Z</time>
      </trkpt>
      <trkpt lat="47.20345" lon="5.54871">
        <ele>299.11</ele>
        <time>2013-04-12T09:45:50Z</time>
      </trkpt>
      <trkpt lat="47.20346" lon="5.54869">
        <ele>299.59</ele>
        <time>2013-04-12T09:45:51Z</time>
      </trkpt>
      <trkpt lat="47.20348" lon="5.54867">
        <ele>300.55</ele>
        <time>2013-04-12T09:45:52Z</time>
      </trkpt>
      <trkpt lat="47.20349" lon="5.54865">
        <ele>300.55</ele>
        <time>2013-04-12T09:45:53Z</time>
      </trkpt>
      <trkpt lat="47.20366" lon="5.54842">
        <ele>302.95</ele>
        <time>2013-04-12T09:46:06Z</time>
      </trkpt>
      <trkpt lat="47.20379" lon="5.54815">
        <ele>305.84</ele>
        <time>2013-04-12T09:46:20Z</time>
      </trkpt>
      <trkpt lat="47.20393" lon="5.54793">
        <ele>308.72</ele>
        <time>2013-04-12T09:46:33Z</time>
      </trkpt>
      <trkpt lat="47.20403" lon="5.54776">
        <ele>311.12</ele>
        <time>2013-04-12T09:46:45Z</time>
      </trkpt>
      <trkpt lat="47.20409" lon="5.54769">
        <ele>311.6</ele>
        <time>2013-04-12T09:46:50Z</time>
      </trkpt>
      <trkpt lat="47.2041" lon="5.54767">
        <ele>312.09</ele>
        <time>2013-04-12T09:46:51Z</time>
      </trkpt>
      <trkpt lat="47.20411" lon="5.54765">
        <ele>312.09</ele>
        <time>2013-04-12T09:46:52Z</time>
      </trkpt>
      <trkpt lat="47.20413" lon="5.54763">
        <ele>312.57</ele>
        <time>2013-04-12T09:46:53Z</time>
      </trkpt>
      <trkpt lat="47.20414" lon="5.54762">
        <ele>312.57</ele>
        <time>2013-04-12T09:46:54Z</time>
      </trkpt>
      <trkpt lat="47.20416" lon="5.54761">
        <ele>313.05</ele>
        <time>2013-04-12T09:46:55Z</time>
      </trkpt>
      <trkpt lat="47.20434" lon="5.54753">
        <ele>315.93</ele>
        <time>2013-04-12T09:47:08Z</time>
      </trkpt>
      <trkpt lat="47.20453" lon="5.54744">
        <ele>319.3</ele>
        <time>2013-04-12T09:47:23Z</time>
      </trkpt>
      <trkpt lat="47.20476" lon="5.54734">
        <ele>321.7</ele>
        <time>2013-04-12T09:47:41Z</time>
      </trkpt>
      <trkpt lat="47.20493" lon="5.5473">
        <ele>323.62</ele>
        <time>2013-04-12T09:47:56Z</time>
      </trkpt>
      <trkpt lat="47.20512" lon="5.54722">
        <ele>326.5</ele>
        <time>2013-04-12T09:48:13Z</time>
      </trkpt>
      <trkpt lat="47.20509" lon="5.54718">
        <ele>326.02</ele>
        <time>2013-04-12T09:48:22Z</time>
      </trkpt>
      <trkpt lat="47.20507" lon="5.54718">
        <ele>326.5</ele>
        <time>2013-04-12T09:48:24Z</time>
      </trkpt>
      <trkpt lat="47.20506" lon="5.54718">
        <ele>326.99</ele>
        <time>2013-04-12T09:48:25Z</time>
      </trkpt>
      <trkpt lat="47.20488" lon="5.54722">
        <ele>328.43</ele>
        <time>2013-04-12T09:48:42Z</time>
      </trkpt>
      <trkpt lat="47.20479" lon="5.54723">
        <ele>326.02</ele>
        <time>2013-04-12T09:48:52Z</time>
      </trkpt>
      <trkpt lat="47.20478" lon="5.54721">
        <ele>326.02</ele>
        <time>2013-04-12T09:48:54Z</time>
      </trkpt>
      <trkpt lat="47.20472" lon="5.5472">
        <ele>327.47</ele>
        <time>2013-04-12T09:48:57Z</time>
      </trkpt>
      <trkpt lat="47.2047" lon="5.5472">
        <ele>327.47</ele>
        <time>2013-04-12T09:48:58Z</time>
      </trkpt>
      <trkpt lat="47.20468" lon="5.54718">
        <ele>327.47</ele>
        <time>2013-04-12T09:48:59Z</time>
      </trkpt>
      <trkpt lat="47.20467" lon="5.54717">
        <ele>327.47</ele>
        <time>2013-04-12T09:49:00Z</time>
      </trkpt>
      <trkpt lat="47.20466" lon="5.54716">
        <ele>328.43</ele>
        <time>2013-04-12T09:49:01Z</time>
      </trkpt>
      <trkpt lat="47.20464" lon="5.54715">
        <ele>328.43</ele>
        <time>2013-04-12T09:49:02Z</time>
      </trkpt>
      <trkpt lat="47.20462" lon="5.54714">
        <ele>328.91</ele>
        <time>2013-04-12T09:49:03Z</time>
      </trkpt>
      <trkpt lat="47.2046" lon="5.54713">
        <ele>328.91</ele>
        <time>2013-04-12T09:49:04Z</time>
      </trkpt>
      <trkpt lat="47.20457" lon="5.54713">
        <ele>328.91</ele>
        <time>2013-04-12T09:49:05Z</time>
      </trkpt>
      <trkpt lat="47.20455" lon="5.54712">
        <ele>328.43</ele>
        <time>2013-04-12T09:49:06Z</time>
      </trkpt>
      <trkpt lat="47.20453" lon="5.54712">
        <ele>328.91</ele>
        <time>2013-04-12T09:49:07Z</time>
      </trkpt>
      <trkpt lat="47.2045" lon="5.54711">
        <ele>328.91</ele>
        <time>2013-04-12T09:49:08Z</time>
      </trkpt>
      <trkpt lat="47.20448" lon="5.54711">
        <ele>328.91</ele>
        <time>2013-04-12T09:49:09Z</time>
      </trkpt>
      <trkpt lat="47.20446" lon="5.5471">
        <ele>329.87</ele>
        <time>2013-04-12T09:49:10Z</time>
      </trkpt>
      <trkpt lat="47.20444" lon="5.54709">
        <ele>330.35</ele>
        <time>2013-04-12T09:49:11Z</time>
      </trkpt>
      <trkpt lat="47.20442" lon="5.54707">
        <ele>330.35</ele>
        <time>2013-04-12T09:49:12Z</time>
      </trkpt>
      <trkpt lat="47.2044" lon="5.54705">
        <ele>329.87</ele>
        <time>2013-04-12T09:49:13Z</time>
      </trkpt>
      <trkpt lat="47.20439" lon="5.54704">
        <ele>329.39</ele>
        <time>2013-04-12T09:49:14Z</time>
      </trkpt>
      <trkpt lat="47.20423" lon="5.5468">
        <ele>330.83</ele>
        <time>2013-04-12T09:49:24Z</time>
      </trkpt>
      <trkpt lat="47.20418" lon="5.54663">
        <ele>331.79</ele>
        <time>2013-04-12T09:49:30Z</time>
      </trkpt>
      <trkpt lat="47.20401" lon="5.54632">
        <ele>332.27</ele>
        <time>2013-04-12T09:49:42Z</time>
      </trkpt>
      <trkpt lat="47.20377" lon="5.5461">
        <ele>331.31</ele>
        <time>2013-04-12T09:49:54Z</time>
      </trkpt>
      <trkpt lat="47.20358" lon="5.54582">
        <ele>332.27</ele>
        <time>2013-04-12T09:50:06Z</time>
      </trkpt>
      <trkpt lat="47.20352" lon="5.5457">
        <ele>331.31</ele>
        <time>2013-04-12T09:50:10Z</time>
      </trkpt>
      <trkpt lat="47.20345" lon="5.54558">
        <ele>333.23</ele>
        <time>2013-04-12T09:50:14Z</time>
      </trkpt>
      <trkpt lat="47.20332" lon="5.54519">
        <ele>330.83</ele>
        <time>2013-04-12T09:50:25Z</time>
      </trkpt>
      <trkpt lat="47.20327" lon="5.54485">
        <ele>328.43</ele>
        <time>2013-04-12T09:50:34Z</time>
      </trkpt>
      <trkpt lat="47.2032" lon="5.54469">
        <ele>327.47</ele>
        <time>2013-04-12T09:50:39Z</time>
      </trkpt>
      <trkpt lat="47.20309" lon="5.5445">
        <ele>323.62</ele>
        <time>2013-04-12T09:50:45Z</time>
      </trkpt>
      <trkpt lat="47.20308" lon="5.54447">
        <ele>324.1</ele>
        <time>2013-04-12T09:50:46Z</time>
      </trkpt>
      <trkpt lat="47.20305" lon="5.54441">
        <ele>326.02</ele>
        <time>2013-04-12T09:50:48Z</time>
      </trkpt>
      <trkpt lat="47.20291" lon="5.54417">
        <ele>322.66</ele>
        <time>2013-04-12T09:50:56Z</time>
      </trkpt>
      <trkpt lat="47.20265" lon="5.54384">
        <ele>320.74</ele>
        <time>2013-04-12T09:51:08Z</time>
      </trkpt>
      <trkpt lat="47.20261" lon="5.54379">
        <ele>319.78</ele>
        <time>2013-04-12T09:51:10Z</time>
      </trkpt>
      <trkpt lat="47.20236" lon="5.5435">
        <ele>319.3</ele>
        <time>2013-04-12T09:51:21Z</time>
      </trkpt>
      <trkpt lat="47.20229" lon="5.54347">
        <ele>317.37</ele>
        <time>2013-04-12T09:51:24Z</time>
      </trkpt>
      <trkpt lat="47.20217" lon="5.54336">
        <ele>315.93</ele>
        <time>2013-04-12T09:51:29Z</time>
      </trkpt>
      <trkpt lat="47.20214" lon="5.54333">
        <ele>315.93</ele>
        <time>2013-04-12T09:51:30Z</time>
      </trkpt>
      <trkpt lat="47.20212" lon="5.5433">
        <ele>314.97</ele>
        <time>2013-04-12T09:51:31Z</time>
      </trkpt>
      <trkpt lat="47.2021" lon="5.54328">
        <ele>314.01</ele>
        <time>2013-04-12T09:51:32Z</time>
      </trkpt>
      <trkpt lat="47.20207" lon="5.54326">
        <ele>313.53</ele>
        <time>2013-04-12T09:51:33Z</time>
      </trkpt>
      <trkpt lat="47.20205" lon="5.54324">
        <ele>314.01</ele>
        <time>2013-04-12T09:51:34Z</time>
      </trkpt>
      <trkpt lat="47.20203" lon="5.54322">
        <ele>314.01</ele>
        <time>2013-04-12T09:51:35Z</time>
      </trkpt>
      <trkpt lat="47.202" lon="5.54319">
        <ele>313.53</ele>
        <time>2013-04-12T09:51:36Z</time>
      </trkpt>
      <trkpt lat="47.2019" lon="5.54308">
        <ele>311.12</ele>
        <time>2013-04-12T09:51:40Z</time>
      </trkpt>
      <trkpt lat="47.20168" lon="5.54285">
        <ele>307.76</ele>
        <time>2013-04-12T09:51:49Z</time>
      </trkpt>
      <trkpt lat="47.20152" lon="5.54259">
        <ele>304.88</ele>
        <time>2013-04-12T09:51:57Z</time>
      </trkpt>
      <trkpt lat="47.20138" lon="5.54235">
        <ele>301.51</ele>
        <time>2013-04-12T09:52:04Z</time>
      </trkpt>
      <trkpt lat="47.20135" lon="5.54232">
        <ele>301.51</ele>
        <time>2013-04-12T09:52:05Z</time>
      </trkpt>
      <trkpt lat="47.20119" lon="5.54191">
        <ele>298.15</ele>
        <time>2013-04-12T09:52:16Z</time>
      </trkpt>
      <trkpt lat="47.20117" lon="5.54187">
        <ele>298.15</ele>
        <time>2013-04-12T09:52:17Z</time>
      </trkpt>
      <trkpt lat="47.20099" lon="5.54141">
        <ele>296.22</ele>
        <time>2013-04-12T09:52:29Z</time>
      </trkpt>
      <trkpt lat="47.20092" lon="5.54122">
        <ele>294.3</ele>
        <time>2013-04-12T09:52:34Z</time>
      </trkpt>
      <trkpt lat="47.20092" lon="5.54119">
        <ele>293.82</ele>
        <time>2013-04-12T09:52:35Z</time>
      </trkpt>
      <trkpt lat="47.20093" lon="5.54115">
        <ele>292.38</ele>
        <time>2013-04-12T09:52:36Z</time>
      </trkpt>
      <trkpt lat="47.20095" lon="5.54113">
        <ele>293.34</ele>
        <time>2013-04-12T09:52:37Z</time>
      </trkpt>
      <trkpt lat="47.20097" lon="5.54111">
        <ele>293.82</ele>
        <time>2013-04-12T09:52:38Z</time>
      </trkpt>
      <trkpt lat="47.20098" lon="5.54109">
        <ele>293.82</ele>
        <time>2013-04-12T09:52:39Z</time>
      </trkpt>
      <trkpt lat="47.201" lon="5.54108">
        <ele>294.3</ele>
        <time>2013-04-12T09:52:40Z</time>
      </trkpt>
      <trkpt lat="47.20102" lon="5.54106">
        <ele>294.3</ele>
        <time>2013-04-12T09:52:41Z</time>
      </trkpt>
      <trkpt lat="47.20104" lon="5.54105">
        <ele>294.78</ele>
        <time>2013-04-12T09:52:42Z</time>
      </trkpt>
      <trkpt lat="47.20107" lon="5.54104">
        <ele>294.78</ele>
        <time>2013-04-12T09:52:43Z</time>
      </trkpt>
      <trkpt lat="47.20129" lon="5.54087">
        <ele>297.67</ele>
        <time>2013-04-12T09:52:56Z</time>
      </trkpt>
      <trkpt lat="47.20143" lon="5.54073">
        <ele>301.03</ele>
        <time>2013-04-12T09:53:05Z</time>
      </trkpt>
      <trkpt lat="47.20162" lon="5.54056">
        <ele>302.95</ele>
        <time>2013-04-12T09:53:15Z</time>
      </trkpt>
      <trkpt lat="47.20164" lon="5.54055">
        <ele>303.43</ele>
        <time>2013-04-12T09:53:16Z</time>
      </trkpt>
      <trkpt lat="47.20178" lon="5.54045">
        <ele>302.95</ele>
        <time>2013-04-12T09:53:23Z</time>
      </trkpt>
      <trkpt lat="47.2018" lon="5.54043">
        <ele>302.47</ele>
        <time>2013-04-12T09:53:24Z</time>
      </trkpt>
      <trkpt lat="47.20202" lon="5.54013">
        <ele>300.55</ele>
        <time>2013-04-12T09:53:38Z</time>
      </trkpt>
      <trkpt lat="47.20209" lon="5.54002">
        <ele>300.07</ele>
        <time>2013-04-12T09:53:51Z</time>
      </trkpt>
      <trkpt lat="47.20208" lon="5.54002">
        <ele>299.59</ele>
        <time>2013-04-12T09:53:52Z</time>
      </trkpt>
      <trkpt lat="47.20208" lon="5.54">
        <ele>300.07</ele>
        <time>2013-04-12T09:54:05Z</time>
      </trkpt>
      <trkpt lat="47.20209" lon="5.54">
        <ele>300.55</ele>
        <time>2013-04-12T09:54:24Z</time>
      </trkpt>
      <trkpt lat="47.20209" lon="5.53999">
        <ele>300.07</ele>
        <time>2013-04-12T09:54:44Z</time>
      </trkpt>
      <trkpt lat="47.20209" lon="5.53999">
        <ele>300.07</ele>
        <time>2013-04-12T09:54:45Z</time>
      </trkpt>
      <trkpt lat="47.20211" lon="5.53997">
        <ele>300.07</ele>
        <time>2013-04-12T09:54:46Z</time>
      </trkpt>
      <trkpt lat="47.20213" lon="5.53994">
        <ele>299.59</ele>
        <time>2013-04-12T09:54:47Z</time>
      </trkpt>
      <trkpt lat="47.20215" lon="5.53991">
        <ele>299.11</ele>
        <time>2013-04-12T09:54:48Z</time>
      </trkpt>
      <trkpt lat="47.20217" lon="5.53988">
        <ele>299.11</ele>
        <time>2013-04-12T09:54:49Z</time>
      </trkpt>
      <trkpt lat="47.20218" lon="5.53985">
        <ele>299.11</ele>
        <time>2013-04-12T09:54:50Z</time>
      </trkpt>
      <trkpt lat="47.2022" lon="5.53982">
        <ele>299.11</ele>
        <time>2013-04-12T09:54:51Z</time>
      </trkpt>
      <trkpt lat="47.20222" lon="5.53979">
        <ele>298.63</ele>
        <time>2013-04-12T09:54:52Z</time>
      </trkpt>
      <trkpt lat="47.20222" lon="5.53976">
        <ele>298.15</ele>
        <time>2013-04-12T09:54:53Z</time>
      </trkpt>
      <trkpt lat="47.20222" lon="5.53972">
        <ele>298.15</ele>
        <time>2013-04-12T09:54:54Z</time>
      </trkpt>
      <trkpt lat="47.20221" lon="5.53968">
        <ele>297.67</ele>
        <time>2013-04-12T09:54:55Z</time>
      </trkpt>
      <trkpt lat="47.2022" lon="5.53965">
        <ele>297.67</ele>
        <time>2013-04-12T09:54:56Z</time>
      </trkpt>
      <trkpt lat="47.20218" lon="5.53962">
        <ele>297.67</ele>
        <time>2013-04-12T09:54:57Z</time>
      </trkpt>
      <trkpt lat="47.20216" lon="5.53959">
        <ele>297.67</ele>
        <time>2013-04-12T09:54:58Z</time>
      </trkpt>
      <trkpt lat="47.20189" lon="5.53932">
        <ele>294.78</ele>
        <time>2013-04-12T09:55:09Z</time>
      </trkpt>
      <trkpt lat="47.20185" lon="5.53927">
        <ele>294.3</ele>
        <time>2013-04-12T09:55:11Z</time>
      </trkpt>
      <trkpt lat="47.20167" lon="5.53896">
        <ele>292.38</ele>
        <time>2013-04-12T09:55:22Z</time>
      </trkpt>
      <trkpt lat="47.20141" lon="5.53864">
        <ele>289.97</ele>
        <time>2013-04-12T09:55:34Z</time>
      </trkpt>
      <trkpt lat="47.20122" lon="5.53831">
        <ele>287.57</ele>
        <time>2013-04-12T09:55:45Z</time>
      </trkpt>
      <trkpt lat="47.20115" lon="5.53786">
        <ele>285.17</ele>
        <time>2013-04-12T09:55:55Z</time>
      </trkpt>
      <trkpt lat="47.20114" lon="5.53782">
        <ele>284.69</ele>
        <time>2013-04-12T09:55:56Z</time>
      </trkpt>
      <trkpt lat="47.20106" lon="5.53733">
        <ele>282.28</ele>
        <time>2013-04-12T09:56:08Z</time>
      </trkpt>
      <trkpt lat="47.20097" lon="5.53682">
        <ele>281.32</ele>
        <time>2013-04-12T09:56:21Z</time>
      </trkpt>
      <trkpt lat="47.20086" lon="5.53637">
        <ele>278.44</ele>
        <time>2013-04-12T09:56:32Z</time>
      </trkpt>
      <trkpt lat="47.20076" lon="5.53593">
        <ele>277</ele>
        <time>2013-04-12T09:56:44Z</time>
      </trkpt>
      <trkpt lat="47.20064" lon="5.53559">
        <ele>276.04</ele>
        <time>2013-04-12T09:56:54Z</time>
      </trkpt>
      <trkpt lat="47.20046" lon="5.53521">
        <ele>274.11</ele>
        <time>2013-04-12T09:57:05Z</time>
      </trkpt>
      <trkpt lat="47.20032" lon="5.53484">
        <ele>273.15</ele>
        <time>2013-04-12T09:57:16Z</time>
      </trkpt>
      <trkpt lat="47.20021" lon="5.53445">
        <ele>272.19</ele>
        <time>2013-04-12T09:57:27Z</time>
      </trkpt>
      <trkpt lat="47.20011" lon="5.53405">
        <ele>271.71</ele>
        <time>2013-04-12T09:57:38Z</time>
      </trkpt>
      <trkpt lat="47.20007" lon="5.53359">
        <ele>270.27</ele>
        <time>2013-04-12T09:57:50Z</time>
      </trkpt>
      <trkpt lat="47.2" lon="5.53314">
        <ele>269.79</ele>
        <time>2013-04-12T09:58:02Z</time>
      </trkpt>
      <trkpt lat="47.19981" lon="5.53277">
        <ele>269.31</ele>
        <time>2013-04-12T09:58:15Z</time>
      </trkpt>
      <trkpt lat="47.19951" lon="5.53248">
        <ele>269.31</ele>
        <time>2013-04-12T09:58:29Z</time>
      </trkpt>
      <trkpt lat="47.19918" lon="5.53224">
        <ele>267.38</ele>
        <time>2013-04-12T09:58:43Z</time>
      </trkpt>
      <trkpt lat="47.19891" lon="5.53204">
        <ele>265.94</ele>
        <time>2013-04-12T09:58:54Z</time>
      </trkpt>
      <trkpt lat="47.19861" lon="5.53186">
        <ele>264.98</ele>
        <time>2013-04-12T09:59:06Z</time>
      </trkpt>
      <trkpt lat="47.19824" lon="5.53162">
        <ele>262.58</ele>
        <time>2013-04-12T09:59:20Z</time>
      </trkpt>
      <trkpt lat="47.198" lon="5.53126">
        <ele>260.17</ele>
        <time>2013-04-12T09:59:33Z</time>
      </trkpt>
      <trkpt lat="47.19782" lon="5.53082">
        <ele>259.21</ele>
        <time>2013-04-12T09:59:46Z</time>
      </trkpt>
      <trkpt lat="47.19779" lon="5.53074">
        <ele>258.25</ele>
        <time>2013-04-12T09:59:48Z</time>
      </trkpt>
      <trkpt lat="47.19772" lon="5.5304">
        <ele>258.25</ele>
        <time>2013-04-12T09:59:57Z</time>
      </trkpt>
      <trkpt lat="47.19772" lon="5.52999">
        <ele>256.33</ele>
        <time>2013-04-12T10:00:07Z</time>
      </trkpt>
      <trkpt lat="47.1977" lon="5.52961">
        <ele>256.81</ele>
        <time>2013-04-12T10:00:17Z</time>
      </trkpt>
      <trkpt lat="47.19762" lon="5.5292">
        <ele>254.41</ele>
        <time>2013-04-12T10:00:28Z</time>
      </trkpt>
      <trkpt lat="47.19749" lon="5.5289">
        <ele>254.89</ele>
        <time>2013-04-12T10:00:38Z</time>
      </trkpt>
      <trkpt lat="47.19746" lon="5.52885">
        <ele>254.41</ele>
        <time>2013-04-12T10:00:40Z</time>
      </trkpt>
      <trkpt lat="47.19745" lon="5.52881">
        <ele>254.41</ele>
        <time>2013-04-12T10:00:41Z</time>
      </trkpt>
      <trkpt lat="47.19736" lon="5.52841">
        <ele>254.41</ele>
        <time>2013-04-12T10:00:52Z</time>
      </trkpt>
      <trkpt lat="47.19723" lon="5.52796">
        <ele>253.44</ele>
        <time>2013-04-12T10:01:04Z</time>
      </trkpt>
      <trkpt lat="47.19709" lon="5.52751">
        <ele>252</ele>
        <time>2013-04-12T10:01:18Z</time>
      </trkpt>
      <trkpt lat="47.1968" lon="5.52729">
        <ele>250.08</ele>
        <time>2013-04-12T10:01:30Z</time>
      </trkpt>
      <trkpt lat="47.19661" lon="5.52708">
        <ele>248.16</ele>
        <time>2013-04-12T10:01:42Z</time>
      </trkpt>
      <trkpt lat="47.19663" lon="5.52706">
        <ele>248.16</ele>
        <time>2013-04-12T10:01:43Z</time>
      </trkpt>
      <trkpt lat="47.19664" lon="5.52703">
        <ele>248.16</ele>
        <time>2013-04-12T10:01:44Z</time>
      </trkpt>
      <trkpt lat="47.19665" lon="5.52702">
        <ele>247.68</ele>
        <time>2013-04-12T10:01:45Z</time>
      </trkpt>
      <trkpt lat="47.19674" lon="5.52685">
        <ele>245.75</ele>
        <time>2013-04-12T10:01:50Z</time>
      </trkpt>
      <trkpt lat="47.1968" lon="5.52654">
        <ele>243.83</ele>
        <time>2013-04-12T10:01:58Z</time>
      </trkpt>
      <trkpt lat="47.19665" lon="5.52614">
        <ele>240.95</ele>
        <time>2013-04-12T10:02:08Z</time>
      </trkpt>
      <trkpt lat="47.19662" lon="5.52582">
        <ele>238.06</ele>
        <time>2013-04-12T10:02:15Z</time>
      </trkpt>
      <trkpt lat="47.19663" lon="5.52578">
        <ele>237.58</ele>
        <time>2013-04-12T10:02:16Z</time>
      </trkpt>
      <trkpt lat="47.1966" lon="5.52529">
        <ele>235.66</ele>
        <time>2013-04-12T10:02:29Z</time>
      </trkpt>
      <trkpt lat="47.1963" lon="5.52504">
        <ele>231.81</ele>
        <time>2013-04-12T10:02:41Z</time>
      </trkpt>
      <trkpt lat="47.19628" lon="5.52501">
        <ele>231.81</ele>
        <time>2013-04-12T10:02:42Z</time>
      </trkpt>
      <trkpt lat="47.19622" lon="5.52467">
        <ele>229.41</ele>
        <time>2013-04-12T10:02:50Z</time>
      </trkpt>
      <trkpt lat="47.19621" lon="5.5245">
        <ele>227.49</ele>
        <time>2013-04-12T10:02:54Z</time>
      </trkpt>
      <trkpt lat="47.19626" lon="5.52429">
        <ele>227.01</ele>
        <time>2013-04-12T10:03:07Z</time>
      </trkpt>
      <trkpt lat="47.1963" lon="5.52429">
        <ele>227.49</ele>
        <time>2013-04-12T10:03:21Z</time>
      </trkpt>
      <trkpt lat="47.19629" lon="5.52431">
        <ele>227.01</ele>
        <time>2013-04-12T10:03:38Z</time>
      </trkpt>
      <trkpt lat="47.19629" lon="5.52431">
        <ele>226.53</ele>
        <time>2013-04-12T10:03:59Z</time>
      </trkpt>
      <trkpt lat="47.1963" lon="5.52432">
        <ele>227.01</ele>
        <time>2013-04-12T10:04:16Z</time>
      </trkpt>
      <trkpt lat="47.19631" lon="5.52431">
        <ele>227.01</ele>
        <time>2013-04-12T10:04:36Z</time>
      </trkpt>
      <trkpt lat="47.1963" lon="5.52432">
        <ele>227.01</ele>
        <time>2013-04-12T10:04:41Z</time>
      </trkpt>
      <trkpt lat="47.19628" lon="5.52434">
        <ele>226.53</ele>
        <time>2013-04-12T10:04:50Z</time>
      </trkpt>
      <trkpt lat="47.19628" lon="5.52433">
        <ele>226.53</ele>
        <time>2013-04-12T10:05:21Z</time>
      </trkpt>
      <trkpt lat="47.19629" lon="5.52433">
        <ele>227.01</ele>
        <time>2013-04-12T10:05:40Z</time>
      </trkpt>
      <trkpt lat="47.19628" lon="5.52433">
        <ele>227.01</ele>
        <time>2013-04-12T10:05:58Z</time>
      </trkpt>
    </trkseg>
  </trk>
</gpx>